<?xml version='1.0' encoding='UTF-8'?><gpx version="1.1" creator="JPX - https://github.com/jenetics/jpx" xmlns="http://www.topografix.com/GPX/1/1"><trk><trkseg><trkpt lat="39.8501283" lon="9.6951533"><ele>7.999999999999999</ele><time>2026-05-02T08:00:02.411Z</time></trkpt><trkpt lat="39.8501948" lon="9.6952029"><ele>8.0</ele><time>2026-05-02T08:00:03.999Z</time></trkpt><trkpt lat="39.8502752" lon="9.6953098"><ele>8.0</ele><time>2026-05-02T08:00:07.384Z</time></trkpt><trkpt lat="39.8502854" lon="9.6951985"><ele>8.0</ele><time>2026-05-02T08:00:15.398Z</time></trkpt><trkpt lat="39.8502832" lon="9.6951113"><ele>7.999999999999999</ele><time>2026-05-02T08:00:17.323Z</time></trkpt><trkpt lat="39.850273" lon="9.6950103"><ele>8.0</ele><time>2026-05-02T08:00:19.293Z</time></trkpt><trkpt lat="39.8502877" lon="9.6949168"><ele>7.999999999999999</ele><time>2026-05-02T08:00:21.258Z</time></trkpt><trkpt lat="39.8502997" lon="9.6948191"><ele>8.0</ele><time>2026-05-02T08:00:23.36Z</time></trkpt><trkpt lat="39.8502851" lon="9.6947261"><ele>8.0</ele><time>2026-05-02T08:00:25.225Z</time></trkpt><trkpt lat="39.8502495" lon="9.6946362"><ele>8.0</ele><time>2026-05-02T08:00:27Z</time></trkpt><trkpt lat="39.8501885" lon="9.6945433"><ele>7.999999999999999</ele><time>2026-05-02T08:00:30.321Z</time></trkpt><trkpt lat="39.8501031" lon="9.694528"><ele>8.0</ele><time>2026-05-02T08:00:33.36Z</time></trkpt><trkpt lat="39.8500192" lon="9.6945319"><ele>8.0</ele><time>2026-05-02T08:00:35.387Z</time></trkpt><trkpt lat="39.8499455" lon="9.6944457"><ele>8.0</ele><time>2026-05-02T08:00:36.999Z</time></trkpt><trkpt lat="39.8498633" lon="9.6944148"><ele>8.0</ele><time>2026-05-02T08:00:38.999Z</time></trkpt><trkpt lat="39.8497671" lon="9.6943933"><ele>8.0</ele><time>2026-05-02T08:00:40.999Z</time></trkpt><trkpt lat="39.8496731" lon="9.6943469"><ele>8.0</ele><time>2026-05-02T08:00:42.999Z</time></trkpt><trkpt lat="39.8496189" lon="9.6942739"><ele>8.0</ele><time>2026-05-02T08:00:44.999Z</time></trkpt><trkpt lat="39.8495431" lon="9.6942339"><ele>8.0</ele><time>2026-05-02T08:00:49.329Z</time></trkpt><trkpt lat="39.8494976" lon="9.6941442"><ele>8.0</ele><time>2026-05-02T08:00:50.377Z</time></trkpt><trkpt lat="39.8494489" lon="9.6940376"><ele>8.0</ele><time>2026-05-02T08:00:52.419Z</time></trkpt><trkpt lat="39.8493458" lon="9.6939619"><ele>8.0</ele><time>2026-05-02T08:00:54Z</time></trkpt><trkpt lat="39.8492894" lon="9.6938839"><ele>7.999999999999999</ele><time>2026-05-02T08:00:55.999Z</time></trkpt><trkpt lat="39.8492931" lon="9.6937907"><ele>8.0</ele><time>2026-05-02T08:00:57.999Z</time></trkpt><trkpt lat="39.8492945" lon="9.6936911"><ele>8.0</ele><time>2026-05-02T08:00:59.999Z</time></trkpt><trkpt lat="39.8492569" lon="9.6936026"><ele>8.0</ele><time>2026-05-02T08:01:02Z</time></trkpt><trkpt lat="39.8491841" lon="9.6935568"><ele>7.999999999999999</ele><time>2026-05-02T08:01:03.999Z</time></trkpt><trkpt lat="39.8491272" lon="9.6934816"><ele>8.0</ele><time>2026-05-02T08:01:05.999Z</time></trkpt><trkpt lat="39.8490366" lon="9.6933889"><ele>8.5</ele><time>2026-05-02T08:01:07.999Z</time></trkpt><trkpt lat="39.8489897" lon="9.6933193"><ele>9.0</ele><time>2026-05-02T08:01:09.999Z</time></trkpt><trkpt lat="39.8489502" lon="9.6932248"><ele>9.5</ele><time>2026-05-02T08:01:11.999Z</time></trkpt><trkpt lat="39.8488944" lon="9.693138"><ele>10.0</ele><time>2026-05-02T08:01:13.999Z</time></trkpt><trkpt lat="39.8488504" lon="9.6930502"><ele>10.5</ele><time>2026-05-02T08:01:16.999Z</time></trkpt><trkpt lat="39.8488475" lon="9.692938"><ele>11.0</ele><time>2026-05-02T08:01:19.999Z</time></trkpt><trkpt lat="39.8488088" lon="9.6928531"><ele>11.0</ele><time>2026-05-02T08:01:21.999Z</time></trkpt><trkpt lat="39.8487902" lon="9.6927651"><ele>11.0</ele><time>2026-05-02T08:01:23.999Z</time></trkpt><trkpt lat="39.8487804" lon="9.6926565"><ele>11.0</ele><time>2026-05-02T08:01:26.999Z</time></trkpt><trkpt lat="39.848743" lon="9.6925782"><ele>11.0</ele><time>2026-05-02T08:01:29.999Z</time></trkpt><trkpt lat="39.8487277" lon="9.6924785"><ele>11.0</ele><time>2026-05-02T08:01:32.999Z</time></trkpt><trkpt lat="39.8487134" lon="9.692398"><ele>11.0</ele><time>2026-05-02T08:01:49.999Z</time></trkpt><trkpt lat="39.8486857" lon="9.6923139"><ele>11.0</ele><time>2026-05-02T08:01:58.999Z</time></trkpt><trkpt lat="39.8486851" lon="9.6924033"><ele>11.0</ele><time>2026-05-02T08:02:18.372Z</time></trkpt><trkpt lat="39.8487349" lon="9.6924617"><ele>11.0</ele><time>2026-05-02T08:02:36.406Z</time></trkpt><trkpt lat="39.848753" lon="9.692571"><ele>11.0</ele><time>2026-05-02T08:02:39.341Z</time></trkpt><trkpt lat="39.8487865" lon="9.6926596"><ele>11.0</ele><time>2026-05-02T08:02:41.294Z</time></trkpt><trkpt lat="39.8487998" lon="9.6927553"><ele>11.0</ele><time>2026-05-02T08:02:43.397Z</time></trkpt><trkpt lat="39.8488015" lon="9.6928656"><ele>11.0</ele><time>2026-05-02T08:02:45.999Z</time></trkpt><trkpt lat="39.848835" lon="9.6929485"><ele>11.0</ele><time>2026-05-02T08:02:48.999Z</time></trkpt><trkpt lat="39.8488606" lon="9.6930297"><ele>11.0</ele><time>2026-05-02T08:02:51.999Z</time></trkpt><trkpt lat="39.8488973" lon="9.6931009"><ele>11.0</ele><time>2026-05-02T08:02:54.999Z</time></trkpt><trkpt lat="39.8489587" lon="9.693143"><ele>11.0</ele><time>2026-05-02T08:02:56.999Z</time></trkpt><trkpt lat="39.8490074" lon="9.6932241"><ele>11.0</ele><time>2026-05-02T08:02:58.999Z</time></trkpt><trkpt lat="39.8490215" lon="9.6933369"><ele>11.0</ele><time>2026-05-02T08:03:01Z</time></trkpt><trkpt lat="39.8490807" lon="9.693447"><ele>11.0</ele><time>2026-05-02T08:03:02.999Z</time></trkpt><trkpt lat="39.8491419" lon="9.6935333"><ele>11.0</ele><time>2026-05-02T08:03:04.999Z</time></trkpt><trkpt lat="39.8492012" lon="9.6935894"><ele>11.0</ele><time>2026-05-02T08:03:06.999Z</time></trkpt><trkpt lat="39.8492775" lon="9.6936727"><ele>11.0</ele><time>2026-05-02T08:03:09.999Z</time></trkpt><trkpt lat="39.8492939" lon="9.6937554"><ele>11.0</ele><time>2026-05-02T08:03:12Z</time></trkpt><trkpt lat="39.8492805" lon="9.6938475"><ele>11.0</ele><time>2026-05-02T08:03:13.999Z</time></trkpt><trkpt lat="39.8493102" lon="9.6939306"><ele>10.4</ele><time>2026-05-02T08:03:16Z</time></trkpt><trkpt lat="39.8493615" lon="9.6939984"><ele>9.8</ele><time>2026-05-02T08:03:16.999Z</time></trkpt><trkpt lat="39.8494483" lon="9.6940843"><ele>9.200000000000001</ele><time>2026-05-02T08:03:18.999Z</time></trkpt><trkpt lat="39.8495303" lon="9.6941895"><ele>8.600000000000001</ele><time>2026-05-02T08:03:21Z</time></trkpt><trkpt lat="39.8496145" lon="9.6942467"><ele>8.0</ele><time>2026-05-02T08:03:22.999Z</time></trkpt><trkpt lat="39.8496833" lon="9.694334"><ele>8.0</ele><time>2026-05-02T08:03:24.999Z</time></trkpt><trkpt lat="39.8497664" lon="9.6943796"><ele>8.0</ele><time>2026-05-02T08:03:27Z</time></trkpt><trkpt lat="39.8498671" lon="9.694414"><ele>8.0</ele><time>2026-05-02T08:03:28.999Z</time></trkpt><trkpt lat="39.8499658" lon="9.6944398"><ele>8.0</ele><time>2026-05-02T08:03:30.999Z</time></trkpt><trkpt lat="39.8500212" lon="9.6944943"><ele>8.0</ele><time>2026-05-02T08:03:31.999Z</time></trkpt><trkpt lat="39.8501049" lon="9.6945433"><ele>7.999999999999999</ele><time>2026-05-02T08:03:33.999Z</time></trkpt><trkpt lat="39.8501677" lon="9.6945562"><ele>8.0</ele><time>2026-05-02T08:03:36Z</time></trkpt><trkpt lat="39.8502342" lon="9.6946155"><ele>8.0</ele><time>2026-05-02T08:03:37.999Z</time></trkpt><trkpt lat="39.8502769" lon="9.6947165"><ele>8.0</ele><time>2026-05-02T08:03:39.999Z</time></trkpt><trkpt lat="39.8503073" lon="9.6948092"><ele>7.999999999999999</ele><time>2026-05-02T08:03:41.999Z</time></trkpt><trkpt lat="39.8503128" lon="9.6949073"><ele>8.0</ele><time>2026-05-02T08:03:44Z</time></trkpt><trkpt lat="39.8503146" lon="9.6949965"><ele>8.0</ele><time>2026-05-02T08:03:45.999Z</time></trkpt><trkpt lat="39.8503085" lon="9.6951124"><ele>8.0</ele><time>2026-05-02T08:03:48.999Z</time></trkpt><trkpt lat="39.8502962" lon="9.6952277"><ele>8.0</ele><time>2026-05-02T08:03:52Z</time></trkpt><trkpt lat="39.8503353" lon="9.6953276"><ele>8.0</ele><time>2026-05-02T08:03:53.999Z</time></trkpt><trkpt lat="39.8504144" lon="9.6954102"><ele>8.0</ele><time>2026-05-02T08:03:55.999Z</time></trkpt><trkpt lat="39.8504897" lon="9.6954811"><ele>6.800000000000001</ele><time>2026-05-02T08:03:58Z</time></trkpt><trkpt lat="39.8505771" lon="9.6955881"><ele>5.6000000000000005</ele><time>2026-05-02T08:04:00Z</time></trkpt><trkpt lat="39.8506186" lon="9.6956519"><ele>4.4</ele><time>2026-05-02T08:04:01Z</time></trkpt><trkpt lat="39.8506738" lon="9.6957521"><ele>3.2</ele><time>2026-05-02T08:04:02.999Z</time></trkpt><trkpt lat="39.8507595" lon="9.6958285"><ele>2.0</ele><time>2026-05-02T08:04:05.999Z</time></trkpt><trkpt lat="39.8508969" lon="9.6958651"><ele>2.4000000000000004</ele><time>2026-05-02T08:04:07.999Z</time></trkpt><trkpt lat="39.8510177" lon="9.6958802"><ele>2.8000000000000003</ele><time>2026-05-02T08:04:09.999Z</time></trkpt><trkpt lat="39.8510877" lon="9.6959031"><ele>3.2</ele><time>2026-05-02T08:04:10.999Z</time></trkpt><trkpt lat="39.8511647" lon="9.6959318"><ele>3.6</ele><time>2026-05-02T08:04:11.999Z</time></trkpt><trkpt lat="39.8512587" lon="9.6959702"><ele>4.0</ele><time>2026-05-02T08:04:12.999Z</time></trkpt><trkpt lat="39.8513479" lon="9.6960091"><ele>3.9999999999999996</ele><time>2026-05-02T08:04:13.999Z</time></trkpt><trkpt lat="39.8514185" lon="9.6960401"><ele>4.0</ele><time>2026-05-02T08:04:15Z</time></trkpt><trkpt lat="39.8514874" lon="9.6960575"><ele>4.0</ele><time>2026-05-02T08:04:16Z</time></trkpt><trkpt lat="39.8515555" lon="9.6960745"><ele>4.0</ele><time>2026-05-02T08:04:16.999Z</time></trkpt><trkpt lat="39.851651" lon="9.6961145"><ele>3.9999999999999996</ele><time>2026-05-02T08:04:18.999Z</time></trkpt><trkpt lat="39.8517498" lon="9.6961277"><ele>4.0</ele><time>2026-05-02T08:04:20.999Z</time></trkpt><trkpt lat="39.8518136" lon="9.6960811"><ele>3.4000000000000004</ele><time>2026-05-02T08:04:22.999Z</time></trkpt><trkpt lat="39.851894" lon="9.6960622"><ele>2.8000000000000003</ele><time>2026-05-02T08:04:24.999Z</time></trkpt><trkpt lat="39.8519676" lon="9.6960784"><ele>2.2</ele><time>2026-05-02T08:04:25.999Z</time></trkpt><trkpt lat="39.8520645" lon="9.696103"><ele>1.6</ele><time>2026-05-02T08:04:26.999Z</time></trkpt><trkpt lat="39.8521668" lon="9.6961266"><ele>1.0</ele><time>2026-05-02T08:04:27.999Z</time></trkpt><trkpt lat="39.8522599" lon="9.6961389"><ele>1.0</ele><time>2026-05-02T08:04:29Z</time></trkpt><trkpt lat="39.8523608" lon="9.6961372"><ele>1.0</ele><time>2026-05-02T08:04:29.999Z</time></trkpt><trkpt lat="39.8524711" lon="9.6961508"><ele>1.0</ele><time>2026-05-02T08:04:30.999Z</time></trkpt><trkpt lat="39.8525921" lon="9.6961723"><ele>1.0</ele><time>2026-05-02T08:04:32Z</time></trkpt><trkpt lat="39.8527074" lon="9.6961957"><ele>1.2000000000000002</ele><time>2026-05-02T08:04:33Z</time></trkpt><trkpt lat="39.8527993" lon="9.6962146"><ele>1.4000000000000001</ele><time>2026-05-02T08:04:33.999Z</time></trkpt><trkpt lat="39.852897" lon="9.6962267"><ele>1.6</ele><time>2026-05-02T08:04:34.999Z</time></trkpt><trkpt lat="39.8530041" lon="9.6962249"><ele>1.8</ele><time>2026-05-02T08:04:36Z</time></trkpt><trkpt lat="39.8530953" lon="9.6962228"><ele>2.0</ele><time>2026-05-02T08:04:37Z</time></trkpt><trkpt lat="39.8531688" lon="9.6962227"><ele>2.0</ele><time>2026-05-02T08:04:38Z</time></trkpt><trkpt lat="39.8532651" lon="9.6962088"><ele>2.0</ele><time>2026-05-02T08:04:39.999Z</time></trkpt><trkpt lat="39.853319" lon="9.696165"><ele>2.0</ele><time>2026-05-02T08:04:41.999Z</time></trkpt><trkpt lat="39.8534128" lon="9.6961161"><ele>2.0</ele><time>2026-05-02T08:04:43.999Z</time></trkpt><trkpt lat="39.8535224" lon="9.6960484"><ele>2.0</ele><time>2026-05-02T08:04:45.999Z</time></trkpt><trkpt lat="39.8536392" lon="9.6959851"><ele>2.6</ele><time>2026-05-02T08:04:48Z</time></trkpt><trkpt lat="39.8536958" lon="9.6959246"><ele>3.2</ele><time>2026-05-02T08:04:48.999Z</time></trkpt><trkpt lat="39.8537623" lon="9.6958534"><ele>3.8</ele><time>2026-05-02T08:04:49.999Z</time></trkpt><trkpt lat="39.8538483" lon="9.6957442"><ele>4.4</ele><time>2026-05-02T08:04:51.999Z</time></trkpt><trkpt lat="39.8539108" lon="9.6956937"><ele>5.0</ele><time>2026-05-02T08:04:52.999Z</time></trkpt><trkpt lat="39.8539934" lon="9.6955864"><ele>5.0</ele><time>2026-05-02T08:04:54.999Z</time></trkpt><trkpt lat="39.8540796" lon="9.695561"><ele>5.0</ele><time>2026-05-02T08:04:57.999Z</time></trkpt><trkpt lat="39.8541573" lon="9.6955687"><ele>5.0</ele><time>2026-05-02T08:04:59.999Z</time></trkpt><trkpt lat="39.8542421" lon="9.6955383"><ele>5.0</ele><time>2026-05-02T08:05:02Z</time></trkpt><trkpt lat="39.8543142" lon="9.6954328"><ele>5.0</ele><time>2026-05-02T08:05:04Z</time></trkpt><trkpt lat="39.8543671" lon="9.6953433"><ele>5.0</ele><time>2026-05-02T08:05:05.999Z</time></trkpt><trkpt lat="39.8544586" lon="9.6953615"><ele>5.0</ele><time>2026-05-02T08:05:08.999Z</time></trkpt><trkpt lat="39.8545224" lon="9.6954431"><ele>5.0</ele><time>2026-05-02T08:05:11.999Z</time></trkpt><trkpt lat="39.8545147" lon="9.695356"><ele>5.0</ele><time>2026-05-02T08:05:18.999Z</time></trkpt><trkpt lat="39.8544339" lon="9.6953577"><ele>5.0</ele><time>2026-05-02T08:05:22Z</time></trkpt><trkpt lat="39.8543606" lon="9.6953778"><ele>5.0</ele><time>2026-05-02T08:05:23.999Z</time></trkpt><trkpt lat="39.8543031" lon="9.6954785"><ele>5.0</ele><time>2026-05-02T08:05:25.999Z</time></trkpt><trkpt lat="39.8542245" lon="9.6955595"><ele>5.0</ele><time>2026-05-02T08:05:27.999Z</time></trkpt><trkpt lat="39.8541622" lon="9.6955771"><ele>5.0</ele><time>2026-05-02T08:05:29Z</time></trkpt><trkpt lat="39.8540554" lon="9.6955721"><ele>5.0</ele><time>2026-05-02T08:05:30.999Z</time></trkpt><trkpt lat="39.8539864" lon="9.6956306"><ele>5.0</ele><time>2026-05-02T08:05:32.999Z</time></trkpt><trkpt lat="39.8539079" lon="9.6957332"><ele>5.0</ele><time>2026-05-02T08:05:34.999Z</time></trkpt><trkpt lat="39.8538031" lon="9.6958376"><ele>5.0</ele><time>2026-05-02T08:05:37Z</time></trkpt><trkpt lat="39.8537412" lon="9.6959113"><ele>5.0</ele><time>2026-05-02T08:05:37.999Z</time></trkpt><trkpt lat="39.8536874" lon="9.6959635"><ele>5.0</ele><time>2026-05-02T08:05:39Z</time></trkpt><trkpt lat="39.8536176" lon="9.6960166"><ele>5.0</ele><time>2026-05-02T08:05:40Z</time></trkpt><trkpt lat="39.8535371" lon="9.6960684"><ele>5.0</ele><time>2026-05-02T08:05:40.999Z</time></trkpt><trkpt lat="39.8534814" lon="9.6961069"><ele>5.0</ele><time>2026-05-02T08:05:42Z</time></trkpt><trkpt lat="39.8533926" lon="9.6961415"><ele>4.5</ele><time>2026-05-02T08:05:44Z</time></trkpt><trkpt lat="39.8533131" lon="9.6960992"><ele>4.0</ele><time>2026-05-02T08:05:46Z</time></trkpt><trkpt lat="39.8532671" lon="9.6959956"><ele>3.5</ele><time>2026-05-02T08:05:48Z</time></trkpt><trkpt lat="39.8532331" lon="9.695918"><ele>3.0</ele><time>2026-05-02T08:05:49Z</time></trkpt><trkpt lat="39.8531774" lon="9.6958357"><ele>2.5</ele><time>2026-05-02T08:05:49.999Z</time></trkpt><trkpt lat="39.8531188" lon="9.6957658"><ele>2.0</ele><time>2026-05-02T08:05:50.999Z</time></trkpt><trkpt lat="39.8530418" lon="9.6956726"><ele>3.4000000000000004</ele><time>2026-05-02T08:05:52.999Z</time></trkpt><trkpt lat="39.8530172" lon="9.695561"><ele>4.800000000000001</ele><time>2026-05-02T08:05:54.999Z</time></trkpt><trkpt lat="39.8530114" lon="9.695435"><ele>6.2</ele><time>2026-05-02T08:05:56.999Z</time></trkpt><trkpt lat="39.8529667" lon="9.6953071"><ele>7.6000000000000005</ele><time>2026-05-02T08:05:59Z</time></trkpt><trkpt lat="39.8528749" lon="9.6951677"><ele>9.0</ele><time>2026-05-02T08:06:00.999Z</time></trkpt><trkpt lat="39.8528247" lon="9.6951022"><ele>10.166666666666666</ele><time>2026-05-02T08:06:01.999Z</time></trkpt><trkpt lat="39.8527716" lon="9.6950509"><ele>11.333333333333332</ele><time>2026-05-02T08:06:02.999Z</time></trkpt><trkpt lat="39.8527135" lon="9.6950115"><ele>12.5</ele><time>2026-05-02T08:06:03.999Z</time></trkpt><trkpt lat="39.8526357" lon="9.6949433"><ele>13.666666666666666</ele><time>2026-05-02T08:06:05.999Z</time></trkpt><trkpt lat="39.8526094" lon="9.6948258"><ele>14.833333333333332</ele><time>2026-05-02T08:06:08Z</time></trkpt><trkpt lat="39.8525668" lon="9.6946862"><ele>16.0</ele><time>2026-05-02T08:06:09.999Z</time></trkpt><trkpt lat="39.852513" lon="9.6945628"><ele>15.999999999999998</ele><time>2026-05-02T08:06:11.999Z</time></trkpt><trkpt lat="39.8524945" lon="9.694465"><ele>16.0</ele><time>2026-05-02T08:06:12.999Z</time></trkpt><trkpt lat="39.852486" lon="9.6943786"><ele>16.0</ele><time>2026-05-02T08:06:14Z</time></trkpt><trkpt lat="39.8524569" lon="9.6942923"><ele>16.0</ele><time>2026-05-02T08:06:15.999Z</time></trkpt><trkpt lat="39.8523842" lon="9.6942483"><ele>15.999999999999998</ele><time>2026-05-02T08:06:19Z</time></trkpt><trkpt lat="39.8522944" lon="9.6942647"><ele>16.0</ele><time>2026-05-02T08:06:20.999Z</time></trkpt><trkpt lat="39.8522072" lon="9.6942669"><ele>16.833333333333332</ele><time>2026-05-02T08:06:23Z</time></trkpt><trkpt lat="39.8521352" lon="9.6942725"><ele>17.666666666666664</ele><time>2026-05-02T08:06:23.999Z</time></trkpt><trkpt lat="39.8520431" lon="9.6942675"><ele>18.5</ele><time>2026-05-02T08:06:25Z</time></trkpt><trkpt lat="39.8519656" lon="9.6942678"><ele>19.333333333333332</ele><time>2026-05-02T08:06:26Z</time></trkpt><trkpt lat="39.8518904" lon="9.6942589"><ele>20.166666666666668</ele><time>2026-05-02T08:06:27.999Z</time></trkpt><trkpt lat="39.8518439" lon="9.6941637"><ele>21.0</ele><time>2026-05-02T08:06:30.999Z</time></trkpt><trkpt lat="39.8518465" lon="9.6940696"><ele>21.0</ele><time>2026-05-02T08:06:32.999Z</time></trkpt><trkpt lat="39.8518095" lon="9.6939795"><ele>21.0</ele><time>2026-05-02T08:06:35.999Z</time></trkpt><trkpt lat="39.851788" lon="9.6938682"><ele>21.0</ele><time>2026-05-02T08:06:38.999Z</time></trkpt><trkpt lat="39.8517929" lon="9.6937782"><ele>21.0</ele><time>2026-05-02T08:06:39.999Z</time></trkpt><trkpt lat="39.8517826" lon="9.6936767"><ele>21.0</ele><time>2026-05-02T08:06:40.999Z</time></trkpt><trkpt lat="39.8517692" lon="9.6935916"><ele>21.0</ele><time>2026-05-02T08:06:41.999Z</time></trkpt><trkpt lat="39.851764" lon="9.6934487"><ele>21.4</ele><time>2026-05-02T08:06:43.999Z</time></trkpt><trkpt lat="39.8517646" lon="9.6933496"><ele>21.8</ele><time>2026-05-02T08:06:45.999Z</time></trkpt><trkpt lat="39.8517212" lon="9.6932204"><ele>22.2</ele><time>2026-05-02T08:06:47.999Z</time></trkpt><trkpt lat="39.8516722" lon="9.6930869"><ele>22.599999999999998</ele><time>2026-05-02T08:06:49.999Z</time></trkpt><trkpt lat="39.8516528" lon="9.6929886"><ele>23.0</ele><time>2026-05-02T08:06:52Z</time></trkpt><trkpt lat="39.8516412" lon="9.6928818"><ele>23.0</ele><time>2026-05-02T08:06:53.999Z</time></trkpt><trkpt lat="39.8515919" lon="9.6928033"><ele>23.0</ele><time>2026-05-02T08:06:57Z</time></trkpt><trkpt lat="39.851649" lon="9.6929061"><ele>23.0</ele><time>2026-05-02T08:07:02.999Z</time></trkpt><trkpt lat="39.8517136" lon="9.6929639"><ele>23.0</ele><time>2026-05-02T08:07:04.999Z</time></trkpt><trkpt lat="39.8517998" lon="9.6929186"><ele>23.0</ele><time>2026-05-02T08:07:07.999Z</time></trkpt><trkpt lat="39.8518781" lon="9.6929692"><ele>23.0</ele><time>2026-05-02T08:07:09.999Z</time></trkpt><trkpt lat="39.8519266" lon="9.6930245"><ele>22.833333333333336</ele><time>2026-05-02T08:07:12Z</time></trkpt><trkpt lat="39.8520059" lon="9.6930324"><ele>22.666666666666668</ele><time>2026-05-02T08:07:14Z</time></trkpt><trkpt lat="39.8520852" lon="9.6929786"><ele>22.5</ele><time>2026-05-02T08:07:15.999Z</time></trkpt><trkpt lat="39.8521523" lon="9.6929744"><ele>22.333333333333332</ele><time>2026-05-02T08:07:17Z</time></trkpt><trkpt lat="39.8522242" lon="9.6929695"><ele>22.166666666666664</ele><time>2026-05-02T08:07:17.999Z</time></trkpt><trkpt lat="39.8523134" lon="9.6929731"><ele>22.0</ele><time>2026-05-02T08:07:19.999Z</time></trkpt><trkpt lat="39.8523941" lon="9.6929701"><ele>22.0</ele><time>2026-05-02T08:07:22.999Z</time></trkpt><trkpt lat="39.8524329" lon="9.6930757"><ele>22.0</ele><time>2026-05-02T08:07:26Z</time></trkpt><trkpt lat="39.852438" lon="9.6932159"><ele>22.0</ele><time>2026-05-02T08:07:29Z</time></trkpt><trkpt lat="39.8524286" lon="9.6932986"><ele>22.0</ele><time>2026-05-02T08:07:30Z</time></trkpt><trkpt lat="39.8524205" lon="9.6933933"><ele>22.0</ele><time>2026-05-02T08:07:30.999Z</time></trkpt><trkpt lat="39.8524074" lon="9.69352"><ele>22.0</ele><time>2026-05-02T08:07:32.999Z</time></trkpt><trkpt lat="39.8524028" lon="9.6936474"><ele>21.833333333333332</ele><time>2026-05-02T08:07:34.999Z</time></trkpt><trkpt lat="39.8524379" lon="9.6937157"><ele>21.666666666666664</ele><time>2026-05-02T08:07:36.999Z</time></trkpt><trkpt lat="39.8524706" lon="9.6937972"><ele>21.5</ele><time>2026-05-02T08:07:38.999Z</time></trkpt><trkpt lat="39.8525276" lon="9.6938979"><ele>21.333333333333332</ele><time>2026-05-02T08:07:41.999Z</time></trkpt><trkpt lat="39.8526324" lon="9.6939313"><ele>21.166666666666668</ele><time>2026-05-02T08:07:43.999Z</time></trkpt><trkpt lat="39.8527178" lon="9.6939881"><ele>21.0</ele><time>2026-05-02T08:07:45.999Z</time></trkpt><trkpt lat="39.8527689" lon="9.6940416"><ele>20.400000000000002</ele><time>2026-05-02T08:07:48Z</time></trkpt><trkpt lat="39.8528499" lon="9.6941199"><ele>19.8</ele><time>2026-05-02T08:07:51Z</time></trkpt><trkpt lat="39.8529138" lon="9.6942298"><ele>19.200000000000003</ele><time>2026-05-02T08:07:52.999Z</time></trkpt><trkpt lat="39.8530089" lon="9.694324"><ele>18.6</ele><time>2026-05-02T08:07:54.999Z</time></trkpt><trkpt lat="39.8530743" lon="9.6943625"><ele>18.0</ele><time>2026-05-02T08:07:55.999Z</time></trkpt><trkpt lat="39.8531525" lon="9.6944172"><ele>17.833333333333332</ele><time>2026-05-02T08:07:56.999Z</time></trkpt><trkpt lat="39.853208" lon="9.6944701"><ele>17.666666666666668</ele><time>2026-05-02T08:07:57.999Z</time></trkpt><trkpt lat="39.8532965" lon="9.6945508"><ele>17.5</ele><time>2026-05-02T08:07:59.999Z</time></trkpt><trkpt lat="39.8533299" lon="9.6946217"><ele>17.333333333333336</ele><time>2026-05-02T08:08:01.999Z</time></trkpt><trkpt lat="39.8533091" lon="9.6947009"><ele>17.166666666666668</ele><time>2026-05-02T08:08:04Z</time></trkpt><trkpt lat="39.8533445" lon="9.6947956"><ele>17.0</ele><time>2026-05-02T08:08:05.999Z</time></trkpt><trkpt lat="39.8533197" lon="9.6947177"><ele>17.0</ele><time>2026-05-02T08:08:23.999Z</time></trkpt><trkpt lat="39.8533367" lon="9.6946303"><ele>17.0</ele><time>2026-05-02T08:08:29Z</time></trkpt><trkpt lat="39.8533096" lon="9.6945274"><ele>17.0</ele><time>2026-05-02T08:08:31.999Z</time></trkpt><trkpt lat="39.853253" lon="9.6944908"><ele>17.0</ele><time>2026-05-02T08:08:33Z</time></trkpt><trkpt lat="39.8531931" lon="9.694425"><ele>17.0</ele><time>2026-05-02T08:08:34.999Z</time></trkpt><trkpt lat="39.8531052" lon="9.6943509"><ele>17.0</ele><time>2026-05-02T08:08:36.999Z</time></trkpt><trkpt lat="39.8530319" lon="9.6943007"><ele>17.2</ele><time>2026-05-02T08:08:38Z</time></trkpt><trkpt lat="39.8529657" lon="9.6942489"><ele>17.4</ele><time>2026-05-02T08:08:38.999Z</time></trkpt><trkpt lat="39.8528835" lon="9.6941734"><ele>17.6</ele><time>2026-05-02T08:08:40.999Z</time></trkpt><trkpt lat="39.8528367" lon="9.6940503"><ele>17.8</ele><time>2026-05-02T08:08:43Z</time></trkpt><trkpt lat="39.8527625" lon="9.6940176"><ele>18.0</ele><time>2026-05-02T08:08:45Z</time></trkpt><trkpt lat="39.8526685" lon="9.6940729"><ele>18.5</ele><time>2026-05-02T08:08:46.999Z</time></trkpt><trkpt lat="39.8526088" lon="9.694108"><ele>19.0</ele><time>2026-05-02T08:08:47.999Z</time></trkpt><trkpt lat="39.8525613" lon="9.6941723"><ele>19.5</ele><time>2026-05-02T08:08:48.999Z</time></trkpt><trkpt lat="39.8524945" lon="9.6942522"><ele>20.0</ele><time>2026-05-02T08:08:50.999Z</time></trkpt><trkpt lat="39.8523814" lon="9.6942647"><ele>20.5</ele><time>2026-05-02T08:08:52.999Z</time></trkpt><trkpt lat="39.8523013" lon="9.694262"><ele>21.0</ele><time>2026-05-02T08:08:54Z</time></trkpt><trkpt lat="39.8522052" lon="9.6942585"><ele>21.0</ele><time>2026-05-02T08:08:54.999Z</time></trkpt><trkpt lat="39.8520949" lon="9.6942604"><ele>21.0</ele><time>2026-05-02T08:08:56Z</time></trkpt><trkpt lat="39.8520056" lon="9.6942674"><ele>21.0</ele><time>2026-05-02T08:08:57Z</time></trkpt><trkpt lat="39.8519416" lon="9.6942697"><ele>21.0</ele><time>2026-05-02T08:08:57.999Z</time></trkpt><trkpt lat="39.8518789" lon="9.6942502"><ele>21.0</ele><time>2026-05-02T08:08:59.999Z</time></trkpt><trkpt lat="39.8518532" lon="9.6941205"><ele>21.0</ele><time>2026-05-02T08:09:02.999Z</time></trkpt><trkpt lat="39.8518508" lon="9.6940381"><ele>20.833333333333332</ele><time>2026-05-02T08:09:04.999Z</time></trkpt><trkpt lat="39.8517879" lon="9.6939822"><ele>20.666666666666668</ele><time>2026-05-02T08:09:07.999Z</time></trkpt><trkpt lat="39.8517224" lon="9.6939954"><ele>20.5</ele><time>2026-05-02T08:09:10Z</time></trkpt><trkpt lat="39.8516553" lon="9.6940158"><ele>20.333333333333336</ele><time>2026-05-02T08:09:13Z</time></trkpt><trkpt lat="39.85157" lon="9.6940278"><ele>20.166666666666668</ele><time>2026-05-02T08:09:14.999Z</time></trkpt><trkpt lat="39.8514991" lon="9.693994"><ele>20.0</ele><time>2026-05-02T08:09:15.999Z</time></trkpt><trkpt lat="39.8514039" lon="9.6939278"><ele>20.0</ele><time>2026-05-02T08:09:16.999Z</time></trkpt><trkpt lat="39.8512989" lon="9.6938308"><ele>20.0</ele><time>2026-05-02T08:09:17.999Z</time></trkpt><trkpt lat="39.8511761" lon="9.6937146"><ele>20.0</ele><time>2026-05-02T08:09:18.999Z</time></trkpt><trkpt lat="39.8510407" lon="9.6935782"><ele>20.333333333333336</ele><time>2026-05-02T08:09:19.999Z</time></trkpt><trkpt lat="39.850898" lon="9.6934228"><ele>20.666666666666668</ele><time>2026-05-02T08:09:21Z</time></trkpt><trkpt lat="39.8507453" lon="9.6932628"><ele>21.0</ele><time>2026-05-02T08:09:21.999Z</time></trkpt><trkpt lat="39.8505827" lon="9.6931023"><ele>21.0</ele><time>2026-05-02T08:09:22.999Z</time></trkpt><trkpt lat="39.8504258" lon="9.6929472"><ele>21.0</ele><time>2026-05-02T08:09:23.999Z</time></trkpt><trkpt lat="39.8502912" lon="9.6928074"><ele>21.0</ele><time>2026-05-02T08:09:24.999Z</time></trkpt><trkpt lat="39.8501854" lon="9.6926994"><ele>21.6</ele><time>2026-05-02T08:09:25.999Z</time></trkpt><trkpt lat="39.8500949" lon="9.6926029"><ele>22.200000000000003</ele><time>2026-05-02T08:09:26.999Z</time></trkpt><trkpt lat="39.8500204" lon="9.6925138"><ele>22.799999999999997</ele><time>2026-05-02T08:09:28Z</time></trkpt><trkpt lat="39.8499602" lon="9.6924213"><ele>23.4</ele><time>2026-05-02T08:09:28.999Z</time></trkpt><trkpt lat="39.8499216" lon="9.6923231"><ele>24.0</ele><time>2026-05-02T08:09:29.999Z</time></trkpt><trkpt lat="39.8499106" lon="9.6922218"><ele>24.0</ele><time>2026-05-02T08:09:30.999Z</time></trkpt><trkpt lat="39.8499313" lon="9.6921333"><ele>24.0</ele><time>2026-05-02T08:09:32Z</time></trkpt><trkpt lat="39.8499824" lon="9.6920692"><ele>24.0</ele><time>2026-05-02T08:09:32.999Z</time></trkpt><trkpt lat="39.8500518" lon="9.6920053"><ele>24.0</ele><time>2026-05-02T08:09:33.999Z</time></trkpt><trkpt lat="39.8501331" lon="9.6919506"><ele>24.0</ele><time>2026-05-02T08:09:34.999Z</time></trkpt><trkpt lat="39.8502094" lon="9.6918996"><ele>24.0</ele><time>2026-05-02T08:09:35.999Z</time></trkpt><trkpt lat="39.8502791" lon="9.6918496"><ele>24.5</ele><time>2026-05-02T08:09:37Z</time></trkpt><trkpt lat="39.8503416" lon="9.6917966"><ele>25.0</ele><time>2026-05-02T08:09:37.999Z</time></trkpt><trkpt lat="39.850395" lon="9.6917391"><ele>25.5</ele><time>2026-05-02T08:09:38.999Z</time></trkpt><trkpt lat="39.8504442" lon="9.6916837"><ele>26.0</ele><time>2026-05-02T08:09:39.999Z</time></trkpt><trkpt lat="39.850526" lon="9.6915956"><ele>26.5</ele><time>2026-05-02T08:09:42Z</time></trkpt><trkpt lat="39.8505815" lon="9.6915272"><ele>27.0</ele><time>2026-05-02T08:09:44Z</time></trkpt><trkpt lat="39.8506356" lon="9.691465"><ele>27.0</ele><time>2026-05-02T08:09:46.999Z</time></trkpt><trkpt lat="39.8506916" lon="9.6913991"><ele>27.0</ele><time>2026-05-02T08:09:54.999Z</time></trkpt><trkpt lat="39.8508144" lon="9.6912744"><ele>27.0</ele><time>2026-05-02T08:09:56.999Z</time></trkpt><trkpt lat="39.8508989" lon="9.6911727"><ele>27.0</ele><time>2026-05-02T08:09:58Z</time></trkpt><trkpt lat="39.8510028" lon="9.6910616"><ele>28.25</ele><time>2026-05-02T08:09:58.999Z</time></trkpt><trkpt lat="39.8511205" lon="9.6909454"><ele>29.5</ele><time>2026-05-02T08:10:00Z</time></trkpt><trkpt lat="39.8512419" lon="9.6908362"><ele>30.75</ele><time>2026-05-02T08:10:00.999Z</time></trkpt><trkpt lat="39.8513673" lon="9.6907285"><ele>32.0</ele><time>2026-05-02T08:10:01.999Z</time></trkpt><trkpt lat="39.8515101" lon="9.6906191"><ele>32.0</ele><time>2026-05-02T08:10:03Z</time></trkpt><trkpt lat="39.8516648" lon="9.6905047"><ele>32.0</ele><time>2026-05-02T08:10:03.999Z</time></trkpt><trkpt lat="39.8518323" lon="9.6903881"><ele>32.0</ele><time>2026-05-02T08:10:04.999Z</time></trkpt><trkpt lat="39.8520024" lon="9.6902526"><ele>33.0</ele><time>2026-05-02T08:10:05.999Z</time></trkpt><trkpt lat="39.8521548" lon="9.6901245"><ele>34.0</ele><time>2026-05-02T08:10:06.999Z</time></trkpt><trkpt lat="39.8523175" lon="9.6899958"><ele>35.0</ele><time>2026-05-02T08:10:08Z</time></trkpt><trkpt lat="39.8524668" lon="9.689869"><ele>35.0</ele><time>2026-05-02T08:10:08.999Z</time></trkpt><trkpt lat="39.8525993" lon="9.6897525"><ele>35.0</ele><time>2026-05-02T08:10:09.999Z</time></trkpt><trkpt lat="39.8527228" lon="9.6896436"><ele>35.0</ele><time>2026-05-02T08:10:11Z</time></trkpt><trkpt lat="39.8528283" lon="9.689538"><ele>35.0</ele><time>2026-05-02T08:10:11.999Z</time></trkpt><trkpt lat="39.8529247" lon="9.6894217"><ele>35.25</ele><time>2026-05-02T08:10:12.999Z</time></trkpt><trkpt lat="39.853015" lon="9.6892911"><ele>35.5</ele><time>2026-05-02T08:10:14Z</time></trkpt><trkpt lat="39.8530978" lon="9.6891446"><ele>35.75</ele><time>2026-05-02T08:10:15Z</time></trkpt><trkpt lat="39.8531755" lon="9.6889726"><ele>36.0</ele><time>2026-05-02T08:10:15.999Z</time></trkpt><trkpt lat="39.8532539" lon="9.6887769"><ele>36.333333333333336</ele><time>2026-05-02T08:10:16.999Z</time></trkpt><trkpt lat="39.8533389" lon="9.6885707"><ele>36.66666666666667</ele><time>2026-05-02T08:10:17.999Z</time></trkpt><trkpt lat="39.8534234" lon="9.6883595"><ele>37.0</ele><time>2026-05-02T08:10:18.999Z</time></trkpt><trkpt lat="39.8535067" lon="9.6881504"><ele>37.0</ele><time>2026-05-02T08:10:20Z</time></trkpt><trkpt lat="39.853587" lon="9.687941"><ele>37.0</ele><time>2026-05-02T08:10:20.999Z</time></trkpt><trkpt lat="39.8536575" lon="9.6877563"><ele>37.0</ele><time>2026-05-02T08:10:21.999Z</time></trkpt><trkpt lat="39.8537224" lon="9.6875874"><ele>38.0</ele><time>2026-05-02T08:10:22.999Z</time></trkpt><trkpt lat="39.8537825" lon="9.6874274"><ele>39.0</ele><time>2026-05-02T08:10:23.999Z</time></trkpt><trkpt lat="39.85384" lon="9.6872789"><ele>40.0</ele><time>2026-05-02T08:10:25Z</time></trkpt><trkpt lat="39.8538962" lon="9.6871446"><ele>41.0</ele><time>2026-05-02T08:10:25.999Z</time></trkpt><trkpt lat="39.8539419" lon="9.6870243"><ele>41.4</ele><time>2026-05-02T08:10:26.999Z</time></trkpt><trkpt lat="39.8539845" lon="9.6869126"><ele>41.8</ele><time>2026-05-02T08:10:28Z</time></trkpt><trkpt lat="39.8540226" lon="9.6868079"><ele>42.199999999999996</ele><time>2026-05-02T08:10:28.999Z</time></trkpt><trkpt lat="39.8540596" lon="9.6867052"><ele>42.599999999999994</ele><time>2026-05-02T08:10:29.999Z</time></trkpt><trkpt lat="39.8541025" lon="9.6865829"><ele>43.0</ele><time>2026-05-02T08:10:31Z</time></trkpt><trkpt lat="39.8541567" lon="9.6864529"><ele>43.0</ele><time>2026-05-02T08:10:31.999Z</time></trkpt><trkpt lat="39.8542156" lon="9.6863125"><ele>43.0</ele><time>2026-05-02T08:10:32.999Z</time></trkpt><trkpt lat="39.8542684" lon="9.6861564"><ele>43.0</ele><time>2026-05-02T08:10:34Z</time></trkpt><trkpt lat="39.8543144" lon="9.6860016"><ele>43.0</ele><time>2026-05-02T08:10:34.999Z</time></trkpt><trkpt lat="39.8543662" lon="9.6858631"><ele>44.66666666666667</ele><time>2026-05-02T08:10:36Z</time></trkpt><trkpt lat="39.8544208" lon="9.6857452"><ele>46.333333333333336</ele><time>2026-05-02T08:10:36.999Z</time></trkpt><trkpt lat="39.8545265" lon="9.685393"><ele>48.0</ele><time>2026-05-02T08:10:40Z</time></trkpt><trkpt lat="39.8545291" lon="9.685243"><ele>48.2</ele><time>2026-05-02T08:10:40.999Z</time></trkpt><trkpt lat="39.8545228" lon="9.6850997"><ele>48.4</ele><time>2026-05-02T08:10:42Z</time></trkpt><trkpt lat="39.8545155" lon="9.6849561"><ele>48.6</ele><time>2026-05-02T08:10:42.999Z</time></trkpt><trkpt lat="39.8545099" lon="9.6848231"><ele>48.800000000000004</ele><time>2026-05-02T08:10:43.999Z</time></trkpt><trkpt lat="39.8545014" lon="9.6846872"><ele>49.0</ele><time>2026-05-02T08:10:44.999Z</time></trkpt><trkpt lat="39.8544935" lon="9.6845334"><ele>48.5</ele><time>2026-05-02T08:10:46Z</time></trkpt><trkpt lat="39.8544912" lon="9.6843625"><ele>48.0</ele><time>2026-05-02T08:10:47Z</time></trkpt><trkpt lat="39.854495" lon="9.6841865"><ele>47.5</ele><time>2026-05-02T08:10:48Z</time></trkpt><trkpt lat="39.8544966" lon="9.6840185"><ele>47.0</ele><time>2026-05-02T08:10:48.999Z</time></trkpt><trkpt lat="39.8544981" lon="9.6838669"><ele>47.0</ele><time>2026-05-02T08:10:50Z</time></trkpt><trkpt lat="39.8544888" lon="9.6837273"><ele>47.0</ele><time>2026-05-02T08:10:50.999Z</time></trkpt><trkpt lat="39.8544579" lon="9.683608"><ele>47.0</ele><time>2026-05-02T08:10:51.999Z</time></trkpt><trkpt lat="39.8544043" lon="9.6835222"><ele>47.0</ele><time>2026-05-02T08:10:52.999Z</time></trkpt><trkpt lat="39.8543216" lon="9.6834785"><ele>47.0</ele><time>2026-05-02T08:10:53.999Z</time></trkpt><trkpt lat="39.8542239" lon="9.6834687"><ele>47.5</ele><time>2026-05-02T08:10:54.999Z</time></trkpt><trkpt lat="39.8541105" lon="9.6834641"><ele>48.0</ele><time>2026-05-02T08:10:55.999Z</time></trkpt><trkpt lat="39.853991" lon="9.6834717"><ele>48.5</ele><time>2026-05-02T08:10:57Z</time></trkpt><trkpt lat="39.8538693" lon="9.6835115"><ele>49.0</ele><time>2026-05-02T08:10:57.999Z</time></trkpt><trkpt lat="39.8537514" lon="9.6835678"><ele>49.2</ele><time>2026-05-02T08:10:58.999Z</time></trkpt><trkpt lat="39.8536389" lon="9.6836194"><ele>49.400000000000006</ele><time>2026-05-02T08:10:59.999Z</time></trkpt><trkpt lat="39.8535317" lon="9.6836489"><ele>49.6</ele><time>2026-05-02T08:11:00.999Z</time></trkpt><trkpt lat="39.8534306" lon="9.6836509"><ele>49.8</ele><time>2026-05-02T08:11:02Z</time></trkpt><trkpt lat="39.8533341" lon="9.6836155"><ele>50.0</ele><time>2026-05-02T08:11:02.999Z</time></trkpt><trkpt lat="39.8532277" lon="9.6835544"><ele>50.5</ele><time>2026-05-02T08:11:03.999Z</time></trkpt><trkpt lat="39.8531222" lon="9.6834763"><ele>51.0</ele><time>2026-05-02T08:11:04.999Z</time></trkpt><trkpt lat="39.853016" lon="9.6833859"><ele>51.5</ele><time>2026-05-02T08:11:05.999Z</time></trkpt><trkpt lat="39.8529" lon="9.6833028"><ele>52.0</ele><time>2026-05-02T08:11:06.999Z</time></trkpt><trkpt lat="39.8527821" lon="9.683215"><ele>52.0</ele><time>2026-05-02T08:11:08Z</time></trkpt><trkpt lat="39.8526752" lon="9.6831259"><ele>52.0</ele><time>2026-05-02T08:11:09Z</time></trkpt><trkpt lat="39.8525791" lon="9.6830378"><ele>52.0</ele><time>2026-05-02T08:11:10Z</time></trkpt><trkpt lat="39.8524766" lon="9.6829576"><ele>52.0</ele><time>2026-05-02T08:11:10.999Z</time></trkpt><trkpt lat="39.8523573" lon="9.6828876"><ele>51.0</ele><time>2026-05-02T08:11:11.999Z</time></trkpt><trkpt lat="39.852215" lon="9.6828393"><ele>50.0</ele><time>2026-05-02T08:11:12.999Z</time></trkpt><trkpt lat="39.8520524" lon="9.6828021"><ele>49.0</ele><time>2026-05-02T08:11:13.999Z</time></trkpt><trkpt lat="39.8518905" lon="9.6827763"><ele>49.0</ele><time>2026-05-02T08:11:14.999Z</time></trkpt><trkpt lat="39.85174" lon="9.6827632"><ele>49.0</ele><time>2026-05-02T08:11:15.999Z</time></trkpt><trkpt lat="39.851606" lon="9.6827449"><ele>49.0</ele><time>2026-05-02T08:11:16.999Z</time></trkpt><trkpt lat="39.8514809" lon="9.6827099"><ele>49.0</ele><time>2026-05-02T08:11:17.999Z</time></trkpt><trkpt lat="39.8513779" lon="9.6826528"><ele>49.0</ele><time>2026-05-02T08:11:18.999Z</time></trkpt><trkpt lat="39.8512906" lon="9.6825557"><ele>49.0</ele><time>2026-05-02T08:11:19.999Z</time></trkpt><trkpt lat="39.8512155" lon="9.6824306"><ele>49.0</ele><time>2026-05-02T08:11:21Z</time></trkpt><trkpt lat="39.851147" lon="9.6822863"><ele>49.0</ele><time>2026-05-02T08:11:21.999Z</time></trkpt><trkpt lat="39.8510646" lon="9.6821264"><ele>49.0</ele><time>2026-05-02T08:11:23Z</time></trkpt><trkpt lat="39.8509603" lon="9.6819655"><ele>49.0</ele><time>2026-05-02T08:11:23.999Z</time></trkpt><trkpt lat="39.850852" lon="9.6817892"><ele>49.0</ele><time>2026-05-02T08:11:24.999Z</time></trkpt><trkpt lat="39.8507714" lon="9.6816127"><ele>48.5</ele><time>2026-05-02T08:11:25.999Z</time></trkpt><trkpt lat="39.8507138" lon="9.68145"><ele>48.0</ele><time>2026-05-02T08:11:26.999Z</time></trkpt><trkpt lat="39.8506555" lon="9.6813046"><ele>47.5</ele><time>2026-05-02T08:11:27.999Z</time></trkpt><trkpt lat="39.8505816" lon="9.6811775"><ele>47.0</ele><time>2026-05-02T08:11:28.999Z</time></trkpt><trkpt lat="39.8504802" lon="9.6810761"><ele>47.0</ele><time>2026-05-02T08:11:29.999Z</time></trkpt><trkpt lat="39.8503429" lon="9.6810156"><ele>47.0</ele><time>2026-05-02T08:11:30.999Z</time></trkpt><trkpt lat="39.8501778" lon="9.6809708"><ele>47.0</ele><time>2026-05-02T08:11:32Z</time></trkpt><trkpt lat="39.8500013" lon="9.6809118"><ele>47.0</ele><time>2026-05-02T08:11:33Z</time></trkpt><trkpt lat="39.8498199" lon="9.6808526"><ele>47.0</ele><time>2026-05-02T08:11:33.999Z</time></trkpt><trkpt lat="39.84963" lon="9.6807807"><ele>47.0</ele><time>2026-05-02T08:11:34.999Z</time></trkpt><trkpt lat="39.8494401" lon="9.6807001"><ele>48.0</ele><time>2026-05-02T08:11:36Z</time></trkpt><trkpt lat="39.8492771" lon="9.6806099"><ele>49.0</ele><time>2026-05-02T08:11:36.999Z</time></trkpt><trkpt lat="39.8491316" lon="9.680529"><ele>50.0</ele><time>2026-05-02T08:11:37.999Z</time></trkpt><trkpt lat="39.849001" lon="9.6804354"><ele>50.0</ele><time>2026-05-02T08:11:39Z</time></trkpt><trkpt lat="39.8488753" lon="9.6803161"><ele>50.0</ele><time>2026-05-02T08:11:39.999Z</time></trkpt><trkpt lat="39.8487706" lon="9.6801979"><ele>50.0</ele><time>2026-05-02T08:11:40.999Z</time></trkpt><trkpt lat="39.8486762" lon="9.6800833"><ele>50.0</ele><time>2026-05-02T08:11:41.999Z</time></trkpt><trkpt lat="39.8485913" lon="9.679976"><ele>51.2</ele><time>2026-05-02T08:11:43Z</time></trkpt><trkpt lat="39.8485083" lon="9.6798734"><ele>52.4</ele><time>2026-05-02T08:11:44Z</time></trkpt><trkpt lat="39.8484273" lon="9.6797744"><ele>53.599999999999994</ele><time>2026-05-02T08:11:44.999Z</time></trkpt><trkpt lat="39.8483535" lon="9.6796925"><ele>54.8</ele><time>2026-05-02T08:11:46Z</time></trkpt><trkpt lat="39.8482919" lon="9.6796225"><ele>56.0</ele><time>2026-05-02T08:11:46.999Z</time></trkpt><trkpt lat="39.8482551" lon="9.6795366"><ele>56.199999999999996</ele><time>2026-05-02T08:11:47.999Z</time></trkpt><trkpt lat="39.8482542" lon="9.6794316"><ele>56.39999999999999</ele><time>2026-05-02T08:11:49Z</time></trkpt><trkpt lat="39.8482748" lon="9.6793021"><ele>56.6</ele><time>2026-05-02T08:11:49.999Z</time></trkpt><trkpt lat="39.8483014" lon="9.6791542"><ele>56.8</ele><time>2026-05-02T08:11:50.999Z</time></trkpt><trkpt lat="39.8483118" lon="9.6790068"><ele>57.0</ele><time>2026-05-02T08:11:51.999Z</time></trkpt><trkpt lat="39.8482953" lon="9.6788433"><ele>57.0</ele><time>2026-05-02T08:11:52.999Z</time></trkpt><trkpt lat="39.8482557" lon="9.6786746"><ele>57.0</ele><time>2026-05-02T08:11:53.999Z</time></trkpt><trkpt lat="39.8482159" lon="9.6785112"><ele>57.0</ele><time>2026-05-02T08:11:54.999Z</time></trkpt><trkpt lat="39.8481875" lon="9.6783462"><ele>57.0</ele><time>2026-05-02T08:11:55.999Z</time></trkpt><trkpt lat="39.8481589" lon="9.6781822"><ele>56.75</ele><time>2026-05-02T08:11:56.999Z</time></trkpt><trkpt lat="39.8481325" lon="9.6780193"><ele>56.5</ele><time>2026-05-02T08:11:57.999Z</time></trkpt><trkpt lat="39.8481168" lon="9.67785"><ele>56.25</ele><time>2026-05-02T08:11:59Z</time></trkpt><trkpt lat="39.8481061" lon="9.6776839"><ele>56.0</ele><time>2026-05-02T08:11:59.999Z</time></trkpt><trkpt lat="39.8480941" lon="9.6775169"><ele>55.8</ele><time>2026-05-02T08:12:01Z</time></trkpt><trkpt lat="39.8480866" lon="9.6773576"><ele>55.599999999999994</ele><time>2026-05-02T08:12:01.999Z</time></trkpt><trkpt lat="39.8480841" lon="9.677207"><ele>55.4</ele><time>2026-05-02T08:12:02.999Z</time></trkpt><trkpt lat="39.8480803" lon="9.6770772"><ele>55.2</ele><time>2026-05-02T08:12:03.999Z</time></trkpt><trkpt lat="39.8480761" lon="9.6769815"><ele>55.0</ele><time>2026-05-02T08:12:04.999Z</time></trkpt><trkpt lat="39.8480491" lon="9.6768543"><ele>54.99999999999999</ele><time>2026-05-02T08:12:06.999Z</time></trkpt><trkpt lat="39.8479702" lon="9.6768479"><ele>55.0</ele><time>2026-05-02T08:12:08.999Z</time></trkpt><trkpt lat="39.84797" lon="9.6770066"><ele>55.0</ele><time>2026-05-02T08:12:11Z</time></trkpt><trkpt lat="39.8479831" lon="9.6771136"><ele>55.0</ele><time>2026-05-02T08:12:12Z</time></trkpt><trkpt lat="39.8479894" lon="9.6772144"><ele>54.99999999999999</ele><time>2026-05-02T08:12:12.999Z</time></trkpt><trkpt lat="39.8479939" lon="9.6773051"><ele>55.0</ele><time>2026-05-02T08:12:13.999Z</time></trkpt><trkpt lat="39.8479954" lon="9.6773894"><ele>54.4</ele><time>2026-05-02T08:12:15Z</time></trkpt><trkpt lat="39.8479325" lon="9.6774893"><ele>53.8</ele><time>2026-05-02T08:12:17Z</time></trkpt><trkpt lat="39.8478626" lon="9.6774268"><ele>53.2</ele><time>2026-05-02T08:12:18.999Z</time></trkpt><trkpt lat="39.8478346" lon="9.6772995"><ele>52.6</ele><time>2026-05-02T08:12:21Z</time></trkpt><trkpt lat="39.8478183" lon="9.6771548"><ele>52.0</ele><time>2026-05-02T08:12:22.999Z</time></trkpt><trkpt lat="39.8478018" lon="9.6770619"><ele>52.0</ele><time>2026-05-02T08:12:24Z</time></trkpt><trkpt lat="39.8477719" lon="9.6769556"><ele>52.0</ele><time>2026-05-02T08:12:24.999Z</time></trkpt><trkpt lat="39.8477283" lon="9.6768469"><ele>52.0</ele><time>2026-05-02T08:12:26Z</time></trkpt><trkpt lat="39.8476707" lon="9.6767451"><ele>52.0</ele><time>2026-05-02T08:12:26.999Z</time></trkpt><trkpt lat="39.8476172" lon="9.6766476"><ele>52.0</ele><time>2026-05-02T08:12:27.999Z</time></trkpt><trkpt lat="39.8475638" lon="9.6765539"><ele>46.6</ele><time>2026-05-02T08:12:29Z</time></trkpt><trkpt lat="39.8475181" lon="9.6764604"><ele>41.2</ele><time>2026-05-02T08:12:30Z</time></trkpt><trkpt lat="39.8474759" lon="9.6763643"><ele>35.8</ele><time>2026-05-02T08:12:31Z</time></trkpt><trkpt lat="39.8474009" lon="9.676168"><ele>30.4</ele><time>2026-05-02T08:12:32.999Z</time></trkpt><trkpt lat="39.8473711" lon="9.6760737"><ele>25.0</ele><time>2026-05-02T08:12:34Z</time></trkpt><trkpt lat="39.847346" lon="9.6759889"><ele>25.000000000000004</ele><time>2026-05-02T08:12:34.999Z</time></trkpt><trkpt lat="39.8472892" lon="9.6758857"><ele>25.0</ele><time>2026-05-02T08:12:36.999Z</time></trkpt><trkpt lat="39.8472056" lon="9.6759025"><ele>25.0</ele><time>2026-05-02T08:12:38.999Z</time></trkpt><trkpt lat="39.8471304" lon="9.6759312"><ele>25.0</ele><time>2026-05-02T08:12:40.999Z</time></trkpt><trkpt lat="39.8470626" lon="9.6759591"><ele>25.000000000000004</ele><time>2026-05-02T08:12:42.999Z</time></trkpt><trkpt lat="39.8470388" lon="9.6760474"><ele>25.0</ele><time>2026-05-02T08:12:45Z</time></trkpt><trkpt lat="39.8470521" lon="9.6761344"><ele>24.500000000000004</ele><time>2026-05-02T08:12:45.999Z</time></trkpt><trkpt lat="39.8470596" lon="9.6762173"><ele>24.0</ele><time>2026-05-02T08:12:47Z</time></trkpt><trkpt lat="39.8470514" lon="9.6763405"><ele>23.5</ele><time>2026-05-02T08:12:48.999Z</time></trkpt><trkpt lat="39.84701" lon="9.6764877"><ele>23.0</ele><time>2026-05-02T08:12:50.999Z</time></trkpt><trkpt lat="39.8469786" lon="9.6765727"><ele>22.5</ele><time>2026-05-02T08:12:51.999Z</time></trkpt><trkpt lat="39.8469412" lon="9.6766704"><ele>22.0</ele><time>2026-05-02T08:12:52.999Z</time></trkpt><trkpt lat="39.8469089" lon="9.6767937"><ele>22.0</ele><time>2026-05-02T08:12:54Z</time></trkpt><trkpt lat="39.8468905" lon="9.6768981"><ele>22.0</ele><time>2026-05-02T08:12:55Z</time></trkpt><trkpt lat="39.8468514" lon="9.6769861"><ele>22.0</ele><time>2026-05-02T08:12:56Z</time></trkpt><trkpt lat="39.8468032" lon="9.6770802"><ele>22.0</ele><time>2026-05-02T08:12:56.999Z</time></trkpt><trkpt lat="39.8467575" lon="9.6771608"><ele>22.0</ele><time>2026-05-02T08:12:57.999Z</time></trkpt><trkpt lat="39.8467171" lon="9.6772363"><ele>22.0</ele><time>2026-05-02T08:12:58.999Z</time></trkpt><trkpt lat="39.846672" lon="9.6773026"><ele>19.666666666666664</ele><time>2026-05-02T08:12:59.999Z</time></trkpt><trkpt lat="39.846613" lon="9.6773648"><ele>17.333333333333332</ele><time>2026-05-02T08:13:00.999Z</time></trkpt><trkpt lat="39.8465554" lon="9.6774103"><ele>15.0</ele><time>2026-05-02T08:13:01.999Z</time></trkpt><trkpt lat="39.846502" lon="9.6774599"><ele>12.666666666666666</ele><time>2026-05-02T08:13:02.999Z</time></trkpt><trkpt lat="39.8464576" lon="9.6775321"><ele>10.333333333333332</ele><time>2026-05-02T08:13:03.999Z</time></trkpt><trkpt lat="39.8464251" lon="9.6776268"><ele>8.0</ele><time>2026-05-02T08:13:05Z</time></trkpt><trkpt lat="39.8463958" lon="9.6777383"><ele>8.166666666666666</ele><time>2026-05-02T08:13:05.999Z</time></trkpt><trkpt lat="39.8463782" lon="9.6778408"><ele>8.333333333333332</ele><time>2026-05-02T08:13:06.999Z</time></trkpt><trkpt lat="39.8463602" lon="9.6779376"><ele>8.5</ele><time>2026-05-02T08:13:07.999Z</time></trkpt><trkpt lat="39.8463377" lon="9.6780207"><ele>8.666666666666666</ele><time>2026-05-02T08:13:09Z</time></trkpt><trkpt lat="39.8462731" lon="9.6781245"><ele>8.833333333333334</ele><time>2026-05-02T08:13:10.999Z</time></trkpt><trkpt lat="39.8461641" lon="9.6781637"><ele>9.0</ele><time>2026-05-02T08:13:12.999Z</time></trkpt><trkpt lat="39.8460533" lon="9.6781769"><ele>9.0</ele><time>2026-05-02T08:13:15Z</time></trkpt><trkpt lat="39.8459791" lon="9.6783154"><ele>9.0</ele><time>2026-05-02T08:13:16.999Z</time></trkpt><trkpt lat="39.8459136" lon="9.678562"><ele>9.0</ele><time>2026-05-02T08:13:18.999Z</time></trkpt><trkpt lat="39.8458846" lon="9.6786752"><ele>9.0</ele><time>2026-05-02T08:13:20Z</time></trkpt><trkpt lat="39.8458606" lon="9.6787738"><ele>8.833333333333334</ele><time>2026-05-02T08:13:20.999Z</time></trkpt><trkpt lat="39.8458386" lon="9.6788766"><ele>8.666666666666666</ele><time>2026-05-02T08:13:21.999Z</time></trkpt><trkpt lat="39.8458138" lon="9.6789607"><ele>8.5</ele><time>2026-05-02T08:13:23Z</time></trkpt><trkpt lat="39.845791" lon="9.6790693"><ele>8.333333333333332</ele><time>2026-05-02T08:13:24.999Z</time></trkpt><trkpt lat="39.8457976" lon="9.6791794"><ele>8.166666666666666</ele><time>2026-05-02T08:13:29Z</time></trkpt><trkpt lat="39.8458306" lon="9.6793041"><ele>8.0</ele><time>2026-05-02T08:13:30.999Z</time></trkpt><trkpt lat="39.8458703" lon="9.6794476"><ele>9.8</ele><time>2026-05-02T08:13:32.999Z</time></trkpt><trkpt lat="39.8458829" lon="9.6795826"><ele>11.600000000000001</ele><time>2026-05-02T08:13:34.999Z</time></trkpt><trkpt lat="39.8458647" lon="9.6796958"><ele>13.399999999999999</ele><time>2026-05-02T08:13:36.999Z</time></trkpt><trkpt lat="39.8457717" lon="9.6798385"><ele>15.2</ele><time>2026-05-02T08:13:38.999Z</time></trkpt><trkpt lat="39.8456975" lon="9.6799229"><ele>17.0</ele><time>2026-05-02T08:13:39.999Z</time></trkpt><trkpt lat="39.8456128" lon="9.6800051"><ele>17.0</ele><time>2026-05-02T08:13:40.999Z</time></trkpt><trkpt lat="39.8455484" lon="9.6800817"><ele>17.0</ele><time>2026-05-02T08:13:42Z</time></trkpt><trkpt lat="39.8454877" lon="9.680148"><ele>17.0</ele><time>2026-05-02T08:13:43Z</time></trkpt><trkpt lat="39.8454329" lon="9.6802229"><ele>17.0</ele><time>2026-05-02T08:13:44Z</time></trkpt><trkpt lat="39.8453834" lon="9.680316"><ele>17.0</ele><time>2026-05-02T08:13:44.999Z</time></trkpt><trkpt lat="39.845335" lon="9.6804365"><ele>17.0</ele><time>2026-05-02T08:13:45.999Z</time></trkpt><trkpt lat="39.8452797" lon="9.6805628"><ele>15.8</ele><time>2026-05-02T08:13:46.999Z</time></trkpt><trkpt lat="39.8452215" lon="9.6806917"><ele>14.6</ele><time>2026-05-02T08:13:47.999Z</time></trkpt><trkpt lat="39.8451706" lon="9.6808121"><ele>13.4</ele><time>2026-05-02T08:13:48.999Z</time></trkpt><trkpt lat="39.8451234" lon="9.6809374"><ele>12.200000000000001</ele><time>2026-05-02T08:13:49.999Z</time></trkpt><trkpt lat="39.8450836" lon="9.6810576"><ele>11.0</ele><time>2026-05-02T08:13:51Z</time></trkpt><trkpt lat="39.845042" lon="9.6811615"><ele>12.714285714285715</ele><time>2026-05-02T08:13:51.999Z</time></trkpt><trkpt lat="39.8450065" lon="9.681257"><ele>14.428571428571427</ele><time>2026-05-02T08:13:53Z</time></trkpt><trkpt lat="39.8449607" lon="9.681332"><ele>16.142857142857142</ele><time>2026-05-02T08:13:53.999Z</time></trkpt><trkpt lat="39.8449145" lon="9.6814122"><ele>17.857142857142858</ele><time>2026-05-02T08:13:55Z</time></trkpt><trkpt lat="39.8448671" lon="9.681489"><ele>19.57142857142857</ele><time>2026-05-02T08:13:55.999Z</time></trkpt><trkpt lat="39.8448193" lon="9.6815577"><ele>21.28571428571429</ele><time>2026-05-02T08:13:56.999Z</time></trkpt><trkpt lat="39.8447751" lon="9.6816267"><ele>23.0</ele><time>2026-05-02T08:13:57.999Z</time></trkpt><trkpt lat="39.8447362" lon="9.6817032"><ele>23.0</ele><time>2026-05-02T08:13:58.999Z</time></trkpt><trkpt lat="39.84469" lon="9.6817838"><ele>23.0</ele><time>2026-05-02T08:13:59.999Z</time></trkpt><trkpt lat="39.8446452" lon="9.6818712"><ele>23.0</ele><time>2026-05-02T08:14:00.999Z</time></trkpt><trkpt lat="39.8445977" lon="9.6819628"><ele>23.0</ele><time>2026-05-02T08:14:01.999Z</time></trkpt><trkpt lat="39.8445438" lon="9.6820614"><ele>23.0</ele><time>2026-05-02T08:14:03Z</time></trkpt><trkpt lat="39.8444909" lon="9.6821657"><ele>23.0</ele><time>2026-05-02T08:14:03.999Z</time></trkpt><trkpt lat="39.8444516" lon="9.6822596"><ele>24.166666666666668</ele><time>2026-05-02T08:14:04.999Z</time></trkpt><trkpt lat="39.8444249" lon="9.68234"><ele>25.333333333333336</ele><time>2026-05-02T08:14:05.999Z</time></trkpt><trkpt lat="39.8444117" lon="9.6824236"><ele>26.5</ele><time>2026-05-02T08:14:07Z</time></trkpt><trkpt lat="39.84442" lon="9.6825099"><ele>27.666666666666668</ele><time>2026-05-02T08:14:07.999Z</time></trkpt><trkpt lat="39.8444354" lon="9.6825912"><ele>28.833333333333332</ele><time>2026-05-02T08:14:08.999Z</time></trkpt><trkpt lat="39.8444727" lon="9.6827399"><ele>30.0</ele><time>2026-05-02T08:14:10.999Z</time></trkpt><trkpt lat="39.8445294" lon="9.6828688"><ele>30.0</ele><time>2026-05-02T08:14:12.999Z</time></trkpt><trkpt lat="39.8445801" lon="9.6829244"><ele>30.0</ele><time>2026-05-02T08:14:14.999Z</time></trkpt><trkpt lat="39.8446553" lon="9.6829413"><ele>30.0</ele><time>2026-05-02T08:14:18Z</time></trkpt><trkpt lat="39.844711" lon="9.6828963"><ele>30.0</ele><time>2026-05-02T08:14:23.999Z</time></trkpt><trkpt lat="39.8447777" lon="9.6828987"><ele>30.0</ele><time>2026-05-02T08:14:26Z</time></trkpt><trkpt lat="39.8448581" lon="9.6829878"><ele>30.0</ele><time>2026-05-02T08:14:27.999Z</time></trkpt><trkpt lat="39.8449048" lon="9.6830582"><ele>30.0</ele><time>2026-05-02T08:14:28.999Z</time></trkpt><trkpt lat="39.8449476" lon="9.6831324"><ele>30.0</ele><time>2026-05-02T08:14:30Z</time></trkpt><trkpt lat="39.8450223" lon="9.6832543"><ele>30.0</ele><time>2026-05-02T08:14:31.999Z</time></trkpt><trkpt lat="39.8450711" lon="9.6833081"><ele>30.0</ele><time>2026-05-02T08:14:33Z</time></trkpt><trkpt lat="39.8451454" lon="9.6833986"><ele>30.0</ele><time>2026-05-02T08:14:34.999Z</time></trkpt><trkpt lat="39.8451941" lon="9.6834563"><ele>30.0</ele><time>2026-05-02T08:14:36Z</time></trkpt><trkpt lat="39.8452485" lon="9.683507"><ele>30.142857142857146</ele><time>2026-05-02T08:14:36.999Z</time></trkpt><trkpt lat="39.8453209" lon="9.6835584"><ele>30.285714285714285</ele><time>2026-05-02T08:14:38Z</time></trkpt><trkpt lat="39.8453706" lon="9.6836099"><ele>30.42857142857143</ele><time>2026-05-02T08:14:39Z</time></trkpt><trkpt lat="39.8454304" lon="9.6836712"><ele>30.571428571428573</ele><time>2026-05-02T08:14:39.999Z</time></trkpt><trkpt lat="39.8455008" lon="9.68372"><ele>30.714285714285715</ele><time>2026-05-02T08:14:40.999Z</time></trkpt><trkpt lat="39.8455689" lon="9.6837629"><ele>30.857142857142858</ele><time>2026-05-02T08:14:42Z</time></trkpt><trkpt lat="39.8456273" lon="9.6837952"><ele>31.0</ele><time>2026-05-02T08:14:42.999Z</time></trkpt><trkpt lat="39.8456902" lon="9.6838219"><ele>31.0</ele><time>2026-05-02T08:14:43.999Z</time></trkpt><trkpt lat="39.8457919" lon="9.6838694"><ele>31.0</ele><time>2026-05-02T08:14:46Z</time></trkpt><trkpt lat="39.8459153" lon="9.6839307"><ele>31.0</ele><time>2026-05-02T08:14:47.999Z</time></trkpt><trkpt lat="39.8459803" lon="9.6839632"><ele>31.0</ele><time>2026-05-02T08:14:48.999Z</time></trkpt><trkpt lat="39.8461414" lon="9.6839858"><ele>31.0</ele><time>2026-05-02T08:14:51.999Z</time></trkpt><trkpt lat="39.8462581" lon="9.6840027"><ele>31.0</ele><time>2026-05-02T08:14:53.999Z</time></trkpt><trkpt lat="39.8463204" lon="9.6840326"><ele>31.0</ele><time>2026-05-02T08:14:54.999Z</time></trkpt><trkpt lat="39.8464376" lon="9.6840688"><ele>31.0</ele><time>2026-05-02T08:14:56.999Z</time></trkpt><trkpt lat="39.8465662" lon="9.6840895"><ele>31.0</ele><time>2026-05-02T08:14:58.999Z</time></trkpt><trkpt lat="39.8466747" lon="9.6840857"><ele>31.0</ele><time>2026-05-02T08:15:00.999Z</time></trkpt><trkpt lat="39.8467643" lon="9.6840832"><ele>31.0</ele><time>2026-05-02T08:15:02.999Z</time></trkpt><trkpt lat="39.8468465" lon="9.6840906"><ele>31.0</ele><time>2026-05-02T08:15:05Z</time></trkpt><trkpt lat="39.8469242" lon="9.6841319"><ele>31.0</ele><time>2026-05-02T08:15:06.999Z</time></trkpt><trkpt lat="39.8469943" lon="9.6842032"><ele>31.0</ele><time>2026-05-02T08:15:08.999Z</time></trkpt><trkpt lat="39.8470772" lon="9.6843393"><ele>30.666666666666668</ele><time>2026-05-02T08:15:11Z</time></trkpt><trkpt lat="39.8471254" lon="9.6844169"><ele>30.333333333333336</ele><time>2026-05-02T08:15:11.999Z</time></trkpt><trkpt lat="39.8471672" lon="9.6844936"><ele>30.0</ele><time>2026-05-02T08:15:12.999Z</time></trkpt><trkpt lat="39.8472428" lon="9.6846104"><ele>29.666666666666664</ele><time>2026-05-02T08:15:14.999Z</time></trkpt><trkpt lat="39.8472859" lon="9.6847087"><ele>29.333333333333332</ele><time>2026-05-02T08:15:17.999Z</time></trkpt><trkpt lat="39.8473279" lon="9.6848"><ele>29.0</ele><time>2026-05-02T08:15:20.999Z</time></trkpt><trkpt lat="39.8473571" lon="9.684877"><ele>29.0</ele><time>2026-05-02T08:15:24Z</time></trkpt><trkpt lat="39.8473868" lon="9.6847663"><ele>29.0</ele><time>2026-05-02T08:15:31.999Z</time></trkpt><trkpt lat="39.8474737" lon="9.6847073"><ele>29.0</ele><time>2026-05-02T08:15:34Z</time></trkpt><trkpt lat="39.8476005" lon="9.6846716"><ele>29.0</ele><time>2026-05-02T08:15:35.999Z</time></trkpt><trkpt lat="39.8476952" lon="9.6846375"><ele>29.0</ele><time>2026-05-02T08:15:37.999Z</time></trkpt><trkpt lat="39.8477714" lon="9.6845823"><ele>28.799999999999997</ele><time>2026-05-02T08:15:39.999Z</time></trkpt><trkpt lat="39.8478706" lon="9.6844985"><ele>28.599999999999998</ele><time>2026-05-02T08:15:41.999Z</time></trkpt><trkpt lat="39.8479253" lon="9.6844432"><ele>28.4</ele><time>2026-05-02T08:15:42.999Z</time></trkpt><trkpt lat="39.8480049" lon="9.684359"><ele>28.2</ele><time>2026-05-02T08:15:44.999Z</time></trkpt><trkpt lat="39.84809" lon="9.6842735"><ele>28.0</ele><time>2026-05-02T08:15:47Z</time></trkpt><trkpt lat="39.8481893" lon="9.6842006"><ele>28.666666666666668</ele><time>2026-05-02T08:15:48.999Z</time></trkpt><trkpt lat="39.8482675" lon="9.6841314"><ele>29.333333333333336</ele><time>2026-05-02T08:15:50.999Z</time></trkpt><trkpt lat="39.8483285" lon="9.6840762"><ele>30.0</ele><time>2026-05-02T08:15:52.999Z</time></trkpt><trkpt lat="39.8483818" lon="9.6839982"><ele>30.666666666666664</ele><time>2026-05-02T08:15:54.999Z</time></trkpt><trkpt lat="39.8484272" lon="9.6839346"><ele>31.333333333333332</ele><time>2026-05-02T08:15:55.999Z</time></trkpt><trkpt lat="39.8484678" lon="9.6838712"><ele>32.0</ele><time>2026-05-02T08:15:56.999Z</time></trkpt><trkpt lat="39.8485312" lon="9.683769"><ele>32.0</ele><time>2026-05-02T08:15:58.999Z</time></trkpt><trkpt lat="39.8485944" lon="9.683687"><ele>32.0</ele><time>2026-05-02T08:16:00.999Z</time></trkpt><trkpt lat="39.8486837" lon="9.6836601"><ele>32.0</ele><time>2026-05-02T08:16:03Z</time></trkpt><trkpt lat="39.8487848" lon="9.6836608"><ele>32.0</ele><time>2026-05-02T08:16:04.999Z</time></trkpt><trkpt lat="39.8488735" lon="9.6836101"><ele>32.0</ele><time>2026-05-02T08:16:06.999Z</time></trkpt><trkpt lat="39.8489524" lon="9.6834874"><ele>32.57142857142857</ele><time>2026-05-02T08:16:08.999Z</time></trkpt><trkpt lat="39.8489878" lon="9.6834117"><ele>33.14285714285714</ele><time>2026-05-02T08:16:09.999Z</time></trkpt><trkpt lat="39.8490215" lon="9.6833347"><ele>33.714285714285715</ele><time>2026-05-02T08:16:10.999Z</time></trkpt><trkpt lat="39.8490608" lon="9.6832483"><ele>34.285714285714285</ele><time>2026-05-02T08:16:11.999Z</time></trkpt><trkpt lat="39.8491037" lon="9.6831653"><ele>34.85714285714286</ele><time>2026-05-02T08:16:13Z</time></trkpt><trkpt lat="39.849138" lon="9.6830812"><ele>35.42857142857143</ele><time>2026-05-02T08:16:14Z</time></trkpt><trkpt lat="39.8491738" lon="9.6829995"><ele>36.0</ele><time>2026-05-02T08:16:14.999Z</time></trkpt><trkpt lat="39.8492228" lon="9.6828975"><ele>36.0</ele><time>2026-05-02T08:16:15.999Z</time></trkpt><trkpt lat="39.849265" lon="9.6828102"><ele>36.0</ele><time>2026-05-02T08:16:16.999Z</time></trkpt><trkpt lat="39.8493024" lon="9.6827201"><ele>36.0</ele><time>2026-05-02T08:16:17.999Z</time></trkpt><trkpt lat="39.8493381" lon="9.6826326"><ele>36.0</ele><time>2026-05-02T08:16:18.999Z</time></trkpt><trkpt lat="39.8493748" lon="9.6825635"><ele>36.0</ele><time>2026-05-02T08:16:19.999Z</time></trkpt><trkpt lat="39.8494046" lon="9.6824192"><ele>36.0</ele><time>2026-05-02T08:16:21.999Z</time></trkpt><trkpt lat="39.849391" lon="9.682237"><ele>36.57142857142858</ele><time>2026-05-02T08:16:23.999Z</time></trkpt><trkpt lat="39.8493718" lon="9.6821375"><ele>37.142857142857146</ele><time>2026-05-02T08:16:24.999Z</time></trkpt><trkpt lat="39.8493538" lon="9.6820376"><ele>37.714285714285715</ele><time>2026-05-02T08:16:26Z</time></trkpt><trkpt lat="39.849342" lon="9.6819424"><ele>38.28571428571429</ele><time>2026-05-02T08:16:26.999Z</time></trkpt><trkpt lat="39.84933" lon="9.6818571"><ele>38.85714285714286</ele><time>2026-05-02T08:16:27.999Z</time></trkpt><trkpt lat="39.8493369" lon="9.681773"><ele>39.42857142857143</ele><time>2026-05-02T08:16:28.999Z</time></trkpt><trkpt lat="39.849343" lon="9.681681"><ele>40.0</ele><time>2026-05-02T08:16:29.999Z</time></trkpt><trkpt lat="39.849353" lon="9.6815916"><ele>41.0</ele><time>2026-05-02T08:16:31Z</time></trkpt><trkpt lat="39.8494003" lon="9.6814819"><ele>42.0</ele><time>2026-05-02T08:16:33Z</time></trkpt><trkpt lat="39.849489" lon="9.6813891"><ele>43.0</ele><time>2026-05-02T08:16:34.999Z</time></trkpt><trkpt lat="39.8496092" lon="9.6813199"><ele>44.0</ele><time>2026-05-02T08:16:37Z</time></trkpt><trkpt lat="39.8497129" lon="9.681259"><ele>44.0</ele><time>2026-05-02T08:16:39Z</time></trkpt><trkpt lat="39.8497797" lon="9.6811542"><ele>44.0</ele><time>2026-05-02T08:16:41Z</time></trkpt><trkpt lat="39.8498089" lon="9.6810797"><ele>44.0</ele><time>2026-05-02T08:16:41.999Z</time></trkpt><trkpt lat="39.8498416" lon="9.6809489"><ele>44.0</ele><time>2026-05-02T08:16:43.999Z</time></trkpt><trkpt lat="39.8498299" lon="9.680866"><ele>44.0</ele><time>2026-05-02T08:16:46.999Z</time></trkpt><trkpt lat="39.8497604" lon="9.6808238"><ele>44.0</ele><time>2026-05-02T08:16:48.999Z</time></trkpt><trkpt lat="39.8496977" lon="9.6808054"><ele>44.75</ele><time>2026-05-02T08:16:49.999Z</time></trkpt><trkpt lat="39.8496117" lon="9.6807756"><ele>45.5</ele><time>2026-05-02T08:16:50.999Z</time></trkpt><trkpt lat="39.849397" lon="9.6806782"><ele>46.25</ele><time>2026-05-02T08:16:52.999Z</time></trkpt><trkpt lat="39.8492802" lon="9.6806168"><ele>47.0</ele><time>2026-05-02T08:16:54Z</time></trkpt><trkpt lat="39.8491629" lon="9.6805516"><ele>47.75</ele><time>2026-05-02T08:16:54.999Z</time></trkpt><trkpt lat="39.8490446" lon="9.6804677"><ele>48.5</ele><time>2026-05-02T08:16:55.999Z</time></trkpt><trkpt lat="39.8489289" lon="9.6803701"><ele>49.25</ele><time>2026-05-02T08:16:56.999Z</time></trkpt><trkpt lat="39.8488239" lon="9.6802648"><ele>50.0</ele><time>2026-05-02T08:16:57.999Z</time></trkpt><trkpt lat="39.8487425" lon="9.6801625"><ele>51.2</ele><time>2026-05-02T08:16:58.999Z</time></trkpt><trkpt lat="39.8486681" lon="9.6800711"><ele>52.4</ele><time>2026-05-02T08:17:00Z</time></trkpt><trkpt lat="39.8485967" lon="9.6799791"><ele>53.599999999999994</ele><time>2026-05-02T08:17:01Z</time></trkpt><trkpt lat="39.8485307" lon="9.6798943"><ele>54.8</ele><time>2026-05-02T08:17:02Z</time></trkpt><trkpt lat="39.8484668" lon="9.6798173"><ele>56.0</ele><time>2026-05-02T08:17:03Z</time></trkpt><trkpt lat="39.8484029" lon="9.6797467"><ele>56.16666666666667</ele><time>2026-05-02T08:17:04Z</time></trkpt><trkpt lat="39.8483447" lon="9.679688"><ele>56.333333333333336</ele><time>2026-05-02T08:17:04.999Z</time></trkpt><trkpt lat="39.8482914" lon="9.6796211"><ele>56.5</ele><time>2026-05-02T08:17:05.999Z</time></trkpt><trkpt lat="39.848261" lon="9.6795217"><ele>56.66666666666667</ele><time>2026-05-02T08:17:07Z</time></trkpt><trkpt lat="39.8482605" lon="9.6794103"><ele>56.833333333333336</ele><time>2026-05-02T08:17:07.999Z</time></trkpt><trkpt lat="39.8482821" lon="9.6792936"><ele>57.0</ele><time>2026-05-02T08:17:08.999Z</time></trkpt><trkpt lat="39.8483047" lon="9.6791635"><ele>57.0</ele><time>2026-05-02T08:17:09.999Z</time></trkpt><trkpt lat="39.848316" lon="9.6790302"><ele>57.0</ele><time>2026-05-02T08:17:10.999Z</time></trkpt><trkpt lat="39.8483122" lon="9.6788972"><ele>57.0</ele><time>2026-05-02T08:17:12Z</time></trkpt><trkpt lat="39.8482898" lon="9.6787691"><ele>57.0</ele><time>2026-05-02T08:17:13Z</time></trkpt><trkpt lat="39.8482565" lon="9.6786386"><ele>57.0</ele><time>2026-05-02T08:17:13.999Z</time></trkpt><trkpt lat="39.8482238" lon="9.6785157"><ele>56.8</ele><time>2026-05-02T08:17:14.999Z</time></trkpt><trkpt lat="39.8482007" lon="9.6783807"><ele>56.6</ele><time>2026-05-02T08:17:16Z</time></trkpt><trkpt lat="39.848177" lon="9.6782476"><ele>56.39999999999999</ele><time>2026-05-02T08:17:16.999Z</time></trkpt><trkpt lat="39.8481559" lon="9.6781084"><ele>56.199999999999996</ele><time>2026-05-02T08:17:17.999Z</time></trkpt><trkpt lat="39.848137" lon="9.6779647"><ele>56.0</ele><time>2026-05-02T08:17:18.999Z</time></trkpt><trkpt lat="39.8481237" lon="9.6778068"><ele>55.0</ele><time>2026-05-02T08:17:19.999Z</time></trkpt><trkpt lat="39.8481108" lon="9.6776313"><ele>54.0</ele><time>2026-05-02T08:17:20.999Z</time></trkpt><trkpt lat="39.8481005" lon="9.6774624"><ele>53.0</ele><time>2026-05-02T08:17:21.999Z</time></trkpt><trkpt lat="39.8481005" lon="9.6773"><ele>52.0</ele><time>2026-05-02T08:17:22.999Z</time></trkpt><trkpt lat="39.8480923" lon="9.6771607"><ele>52.0</ele><time>2026-05-02T08:17:23.999Z</time></trkpt><trkpt lat="39.8480873" lon="9.6770421"><ele>52.0</ele><time>2026-05-02T08:17:24.999Z</time></trkpt><trkpt lat="39.8480807" lon="9.6769482"><ele>52.0</ele><time>2026-05-02T08:17:26Z</time></trkpt><trkpt lat="39.8480305" lon="9.676841"><ele>52.0</ele><time>2026-05-02T08:17:28Z</time></trkpt><trkpt lat="39.847961" lon="9.6768834"><ele>52.0</ele><time>2026-05-02T08:17:29.999Z</time></trkpt><trkpt lat="39.8479773" lon="9.6770439"><ele>51.99999999999999</ele><time>2026-05-02T08:17:31.999Z</time></trkpt><trkpt lat="39.8479875" lon="9.6771473"><ele>52.0</ele><time>2026-05-02T08:17:32.999Z</time></trkpt><trkpt lat="39.8479876" lon="9.6772508"><ele>52.0</ele><time>2026-05-02T08:17:33.999Z</time></trkpt><trkpt lat="39.8479909" lon="9.6773427"><ele>52.0</ele><time>2026-05-02T08:17:34.999Z</time></trkpt><trkpt lat="39.8479601" lon="9.6774756"><ele>51.99999999999999</ele><time>2026-05-02T08:17:36.999Z</time></trkpt><trkpt lat="39.8478864" lon="9.677475"><ele>52.0</ele><time>2026-05-02T08:17:39Z</time></trkpt><trkpt lat="39.8478418" lon="9.6773448"><ele>52.0</ele><time>2026-05-02T08:17:41Z</time></trkpt><trkpt lat="39.847824" lon="9.6771776"><ele>52.0</ele><time>2026-05-02T08:17:43Z</time></trkpt><trkpt lat="39.8478083" lon="9.6770856"><ele>52.0</ele><time>2026-05-02T08:17:44Z</time></trkpt><trkpt lat="39.8477828" lon="9.6769806"><ele>52.0</ele><time>2026-05-02T08:17:44.999Z</time></trkpt><trkpt lat="39.8477434" lon="9.6768791"><ele>52.0</ele><time>2026-05-02T08:17:46Z</time></trkpt><trkpt lat="39.8476922" lon="9.6767828"><ele>52.6</ele><time>2026-05-02T08:17:46.999Z</time></trkpt><trkpt lat="39.8476345" lon="9.6766858"><ele>53.2</ele><time>2026-05-02T08:17:47.999Z</time></trkpt><trkpt lat="39.8475808" lon="9.67659"><ele>53.8</ele><time>2026-05-02T08:17:48.999Z</time></trkpt><trkpt lat="39.8475299" lon="9.676484"><ele>54.4</ele><time>2026-05-02T08:17:49.999Z</time></trkpt><trkpt lat="39.8474832" lon="9.6763743"><ele>55.0</ele><time>2026-05-02T08:17:51Z</time></trkpt><trkpt lat="39.8474373" lon="9.676257"><ele>49.0</ele><time>2026-05-02T08:17:51.999Z</time></trkpt><trkpt lat="39.8473972" lon="9.6761387"><ele>43.0</ele><time>2026-05-02T08:17:53Z</time></trkpt><trkpt lat="39.8473585" lon="9.676019"><ele>37.0</ele><time>2026-05-02T08:17:53.999Z</time></trkpt><trkpt lat="39.8473306" lon="9.6758967"><ele>31.0</ele><time>2026-05-02T08:17:55Z</time></trkpt><trkpt lat="39.8473095" lon="9.6757715"><ele>25.0</ele><time>2026-05-02T08:17:56Z</time></trkpt><trkpt lat="39.8472958" lon="9.6756389"><ele>25.0</ele><time>2026-05-02T08:17:57Z</time></trkpt><trkpt lat="39.8472747" lon="9.6754939"><ele>25.0</ele><time>2026-05-02T08:17:57.999Z</time></trkpt><trkpt lat="39.8472527" lon="9.6753536"><ele>25.0</ele><time>2026-05-02T08:17:58.999Z</time></trkpt><trkpt lat="39.847227" lon="9.675218"><ele>25.0</ele><time>2026-05-02T08:17:59.999Z</time></trkpt><trkpt lat="39.8472053" lon="9.6750804"><ele>25.0</ele><time>2026-05-02T08:18:01Z</time></trkpt><trkpt lat="39.847181" lon="9.6749355"><ele>26.75</ele><time>2026-05-02T08:18:01.999Z</time></trkpt><trkpt lat="39.8471576" lon="9.6747899"><ele>28.5</ele><time>2026-05-02T08:18:03Z</time></trkpt><trkpt lat="39.847133" lon="9.6746429"><ele>30.25</ele><time>2026-05-02T08:18:04Z</time></trkpt><trkpt lat="39.8471059" lon="9.6745003"><ele>32.0</ele><time>2026-05-02T08:18:04.999Z</time></trkpt><trkpt lat="39.8470758" lon="9.6743578"><ele>33.4</ele><time>2026-05-02T08:18:05.999Z</time></trkpt><trkpt lat="39.8470514" lon="9.6742254"><ele>34.800000000000004</ele><time>2026-05-02T08:18:07Z</time></trkpt><trkpt lat="39.8470322" lon="9.6741005"><ele>36.2</ele><time>2026-05-02T08:18:07.999Z</time></trkpt><trkpt lat="39.8470091" lon="9.6739819"><ele>37.6</ele><time>2026-05-02T08:18:09Z</time></trkpt><trkpt lat="39.8469814" lon="9.6738675"><ele>39.0</ele><time>2026-05-02T08:18:09.999Z</time></trkpt><trkpt lat="39.8469487" lon="9.6737569"><ele>39.0</ele><time>2026-05-02T08:18:10.999Z</time></trkpt><trkpt lat="39.846902" lon="9.6736562"><ele>39.0</ele><time>2026-05-02T08:18:11.999Z</time></trkpt><trkpt lat="39.8468346" lon="9.6735649"><ele>39.0</ele><time>2026-05-02T08:18:12.999Z</time></trkpt><trkpt lat="39.8467662" lon="9.673481"><ele>39.0</ele><time>2026-05-02T08:18:13.999Z</time></trkpt><trkpt lat="39.8467198" lon="9.6733717"><ele>39.0</ele><time>2026-05-02T08:18:14.999Z</time></trkpt><trkpt lat="39.8466893" lon="9.6732252"><ele>34.6</ele><time>2026-05-02T08:18:15.999Z</time></trkpt><trkpt lat="39.8466804" lon="9.6730675"><ele>30.2</ele><time>2026-05-02T08:18:16.999Z</time></trkpt><trkpt lat="39.846675" lon="9.6729307"><ele>25.799999999999997</ele><time>2026-05-02T08:18:17.999Z</time></trkpt><trkpt lat="39.8466621" lon="9.672804"><ele>21.4</ele><time>2026-05-02T08:18:18.999Z</time></trkpt><trkpt lat="39.8466394" lon="9.6726813"><ele>17.0</ele><time>2026-05-02T08:18:20Z</time></trkpt><trkpt lat="39.8466058" lon="9.6725618"><ele>17.0</ele><time>2026-05-02T08:18:20.999Z</time></trkpt><trkpt lat="39.846557" lon="9.6724338"><ele>17.0</ele><time>2026-05-02T08:18:21.999Z</time></trkpt><trkpt lat="39.846501" lon="9.6723082"><ele>17.0</ele><time>2026-05-02T08:18:22.999Z</time></trkpt><trkpt lat="39.846439" lon="9.6721891"><ele>17.0</ele><time>2026-05-02T08:18:23.999Z</time></trkpt><trkpt lat="39.8463749" lon="9.6720903"><ele>17.0</ele><time>2026-05-02T08:18:25Z</time></trkpt><trkpt lat="39.8463157" lon="9.67201"><ele>16.666666666666668</ele><time>2026-05-02T08:18:25.999Z</time></trkpt><trkpt lat="39.8462765" lon="9.6719323"><ele>16.333333333333336</ele><time>2026-05-02T08:18:26.999Z</time></trkpt><trkpt lat="39.8462595" lon="9.671845"><ele>16.0</ele><time>2026-05-02T08:18:28Z</time></trkpt><trkpt lat="39.8462591" lon="9.6717343"><ele>15.666666666666668</ele><time>2026-05-02T08:18:28.999Z</time></trkpt><trkpt lat="39.8462733" lon="9.6716103"><ele>15.333333333333334</ele><time>2026-05-02T08:18:29.999Z</time></trkpt><trkpt lat="39.8462948" lon="9.6714714"><ele>15.0</ele><time>2026-05-02T08:18:30.999Z</time></trkpt><trkpt lat="39.846316" lon="9.6713159"><ele>15.0</ele><time>2026-05-02T08:18:31.999Z</time></trkpt><trkpt lat="39.846327" lon="9.6711482"><ele>15.0</ele><time>2026-05-02T08:18:32.999Z</time></trkpt><trkpt lat="39.8463408" lon="9.6709945"><ele>15.0</ele><time>2026-05-02T08:18:33.999Z</time></trkpt><trkpt lat="39.8463432" lon="9.6708581"><ele>15.0</ele><time>2026-05-02T08:18:34.999Z</time></trkpt><trkpt lat="39.8463467" lon="9.6707427"><ele>15.0</ele><time>2026-05-02T08:18:35.999Z</time></trkpt><trkpt lat="39.8463472" lon="9.6706447"><ele>15.8</ele><time>2026-05-02T08:18:37Z</time></trkpt><trkpt lat="39.8463007" lon="9.6705172"><ele>16.6</ele><time>2026-05-02T08:18:38.999Z</time></trkpt><trkpt lat="39.8462967" lon="9.6704345"><ele>17.4</ele><time>2026-05-02T08:18:41Z</time></trkpt><trkpt lat="39.8463649" lon="9.6702792"><ele>18.2</ele><time>2026-05-02T08:18:43Z</time></trkpt><trkpt lat="39.8464108" lon="9.6701716"><ele>19.0</ele><time>2026-05-02T08:18:43.999Z</time></trkpt><trkpt lat="39.8464557" lon="9.6700532"><ele>19.0</ele><time>2026-05-02T08:18:45Z</time></trkpt><trkpt lat="39.8464983" lon="9.6699385"><ele>19.0</ele><time>2026-05-02T08:18:46Z</time></trkpt><trkpt lat="39.8465279" lon="9.6698349"><ele>19.0</ele><time>2026-05-02T08:18:46.999Z</time></trkpt><trkpt lat="39.8465619" lon="9.6697379"><ele>19.0</ele><time>2026-05-02T08:18:48Z</time></trkpt><trkpt lat="39.8466044" lon="9.6696431"><ele>19.0</ele><time>2026-05-02T08:18:49Z</time></trkpt><trkpt lat="39.8466655" lon="9.6695506"><ele>19.0</ele><time>2026-05-02T08:18:49.999Z</time></trkpt><trkpt lat="39.8467195" lon="9.6694614"><ele>18.2</ele><time>2026-05-02T08:18:51Z</time></trkpt><trkpt lat="39.8467597" lon="9.6693854"><ele>17.4</ele><time>2026-05-02T08:18:52Z</time></trkpt><trkpt lat="39.8467881" lon="9.6693026"><ele>16.6</ele><time>2026-05-02T08:18:52.999Z</time></trkpt><trkpt lat="39.8468315" lon="9.6691533"><ele>15.8</ele><time>2026-05-02T08:18:54.999Z</time></trkpt><trkpt lat="39.8468811" lon="9.6690138"><ele>15.0</ele><time>2026-05-02T08:18:56.999Z</time></trkpt><trkpt lat="39.8469396" lon="9.6689027"><ele>17.666666666666668</ele><time>2026-05-02T08:18:58.999Z</time></trkpt><trkpt lat="39.8469824" lon="9.6688062"><ele>20.333333333333336</ele><time>2026-05-02T08:19:01Z</time></trkpt><trkpt lat="39.8470064" lon="9.6686987"><ele>23.0</ele><time>2026-05-02T08:19:03Z</time></trkpt><trkpt lat="39.8470105" lon="9.668598"><ele>25.666666666666668</ele><time>2026-05-02T08:19:04.999Z</time></trkpt><trkpt lat="39.8470029" lon="9.6684918"><ele>28.333333333333336</ele><time>2026-05-02T08:19:06.999Z</time></trkpt><trkpt lat="39.8469824" lon="9.6683784"><ele>31.0</ele><time>2026-05-02T08:19:08.999Z</time></trkpt><trkpt lat="39.84697" lon="9.6682756"><ele>31.000000000000004</ele><time>2026-05-02T08:19:12Z</time></trkpt><trkpt lat="39.8470451" lon="9.6682344"><ele>31.0</ele><time>2026-05-02T08:19:16Z</time></trkpt><trkpt lat="39.847143" lon="9.6682318"><ele>31.0</ele><time>2026-05-02T08:19:18.999Z</time></trkpt><trkpt lat="39.8472125" lon="9.6682753"><ele>31.0</ele><time>2026-05-02T08:19:22Z</time></trkpt><trkpt lat="39.8471297" lon="9.6682605"><ele>31.000000000000004</ele><time>2026-05-02T08:19:31.999Z</time></trkpt><trkpt lat="39.847062" lon="9.6682395"><ele>31.0</ele><time>2026-05-02T08:19:33.999Z</time></trkpt><trkpt lat="39.8469908" lon="9.6682417"><ele>31.000000000000004</ele><time>2026-05-02T08:19:37Z</time></trkpt><trkpt lat="39.8469836" lon="9.6683382"><ele>31.0</ele><time>2026-05-02T08:19:57.999Z</time></trkpt><trkpt lat="39.8469919" lon="9.6684453"><ele>31.0</ele><time>2026-05-02T08:20:00.999Z</time></trkpt><trkpt lat="39.8469981" lon="9.6685461"><ele>31.0</ele><time>2026-05-02T08:20:03Z</time></trkpt><trkpt lat="39.8470104" lon="9.668627"><ele>31.000000000000004</ele><time>2026-05-02T08:20:04.999Z</time></trkpt><trkpt lat="39.8470159" lon="9.6687276"><ele>31.0</ele><time>2026-05-02T08:20:09Z</time></trkpt><trkpt lat="39.8469787" lon="9.6688281"><ele>31.500000000000004</ele><time>2026-05-02T08:20:12Z</time></trkpt><trkpt lat="39.8469393" lon="9.6689124"><ele>32.0</ele><time>2026-05-02T08:20:13.999Z</time></trkpt><trkpt lat="39.8468956" lon="9.6689854"><ele>32.5</ele><time>2026-05-02T08:20:15.999Z</time></trkpt><trkpt lat="39.8468855" lon="9.6690675"><ele>33.0</ele><time>2026-05-02T08:20:16.999Z</time></trkpt><trkpt lat="39.8468249" lon="9.6691997"><ele>33.5</ele><time>2026-05-02T08:20:19Z</time></trkpt><trkpt lat="39.846792" lon="9.6692999"><ele>34.0</ele><time>2026-05-02T08:20:20.999Z</time></trkpt><trkpt lat="39.8467613" lon="9.6694053"><ele>30.25</ele><time>2026-05-02T08:20:23Z</time></trkpt><trkpt lat="39.8466823" lon="9.6695664"><ele>26.5</ele><time>2026-05-02T08:20:24.999Z</time></trkpt><trkpt lat="39.8466326" lon="9.6696363"><ele>22.75</ele><time>2026-05-02T08:20:25.999Z</time></trkpt><trkpt lat="39.8465889" lon="9.6696992"><ele>19.0</ele><time>2026-05-02T08:20:26.999Z</time></trkpt><trkpt lat="39.8465141" lon="9.6699024"><ele>19.0</ele><time>2026-05-02T08:20:28.999Z</time></trkpt><trkpt lat="39.8464721" lon="9.6700333"><ele>19.0</ele><time>2026-05-02T08:20:30Z</time></trkpt><trkpt lat="39.8464364" lon="9.6701453"><ele>19.0</ele><time>2026-05-02T08:20:30.999Z</time></trkpt><trkpt lat="39.8463961" lon="9.6702393"><ele>19.0</ele><time>2026-05-02T08:20:31.999Z</time></trkpt><trkpt lat="39.8463621" lon="9.6703168"><ele>19.0</ele><time>2026-05-02T08:20:33Z</time></trkpt><trkpt lat="39.8463311" lon="9.6703898"><ele>19.0</ele><time>2026-05-02T08:20:33.999Z</time></trkpt><trkpt lat="39.8462792" lon="9.6704632"><ele>19.0</ele><time>2026-05-02T08:20:35.999Z</time></trkpt><trkpt lat="39.8461754" lon="9.6704812"><ele>19.0</ele><time>2026-05-02T08:20:37.999Z</time></trkpt><trkpt lat="39.8460884" lon="9.6704955"><ele>19.0</ele><time>2026-05-02T08:20:39Z</time></trkpt><trkpt lat="39.8459957" lon="9.6705178"><ele>19.0</ele><time>2026-05-02T08:20:39.999Z</time></trkpt><trkpt lat="39.8458868" lon="9.6705459"><ele>19.0</ele><time>2026-05-02T08:20:40.999Z</time></trkpt><trkpt lat="39.8457779" lon="9.6705857"><ele>16.75</ele><time>2026-05-02T08:20:41.999Z</time></trkpt><trkpt lat="39.8456684" lon="9.670647"><ele>14.5</ele><time>2026-05-02T08:20:43Z</time></trkpt><trkpt lat="39.8455494" lon="9.670697"><ele>12.25</ele><time>2026-05-02T08:20:43.999Z</time></trkpt><trkpt lat="39.8454443" lon="9.6707358"><ele>10.0</ele><time>2026-05-02T08:20:44.999Z</time></trkpt><trkpt lat="39.8453471" lon="9.670756"><ele>10.0</ele><time>2026-05-02T08:20:45.999Z</time></trkpt><trkpt lat="39.8452455" lon="9.670763"><ele>10.0</ele><time>2026-05-02T08:20:47Z</time></trkpt><trkpt lat="39.8451436" lon="9.670749"><ele>10.0</ele><time>2026-05-02T08:20:47.999Z</time></trkpt><trkpt lat="39.8450393" lon="9.67073"><ele>10.0</ele><time>2026-05-02T08:20:49Z</time></trkpt><trkpt lat="39.8449354" lon="9.6707297"><ele>10.0</ele><time>2026-05-02T08:20:49.999Z</time></trkpt><trkpt lat="39.8448317" lon="9.6707444"><ele>9.833333333333334</ele><time>2026-05-02T08:20:51Z</time></trkpt><trkpt lat="39.8447352" lon="9.6707623"><ele>9.666666666666668</ele><time>2026-05-02T08:20:51.999Z</time></trkpt><trkpt lat="39.8446466" lon="9.6707807"><ele>9.5</ele><time>2026-05-02T08:20:52.999Z</time></trkpt><trkpt lat="39.8445681" lon="9.6707848"><ele>9.333333333333334</ele><time>2026-05-02T08:20:53.999Z</time></trkpt><trkpt lat="39.8445043" lon="9.6707791"><ele>9.166666666666666</ele><time>2026-05-02T08:20:55Z</time></trkpt><trkpt lat="39.8444466" lon="9.6706998"><ele>9.0</ele><time>2026-05-02T08:20:57Z</time></trkpt><trkpt lat="39.8444437" lon="9.6705173"><ele>9.0</ele><time>2026-05-02T08:20:58.999Z</time></trkpt><trkpt lat="39.8444616" lon="9.670397"><ele>9.0</ele><time>2026-05-02T08:20:59.999Z</time></trkpt><trkpt lat="39.8444704" lon="9.670292"><ele>9.0</ele><time>2026-05-02T08:21:00.999Z</time></trkpt><trkpt lat="39.8444805" lon="9.6702037"><ele>9.0</ele><time>2026-05-02T08:21:01.999Z</time></trkpt><trkpt lat="39.8444514" lon="9.6700772"><ele>9.0</ele><time>2026-05-02T08:21:03.999Z</time></trkpt><trkpt lat="39.844327" lon="9.6699894"><ele>9.25</ele><time>2026-05-02T08:21:05.999Z</time></trkpt><trkpt lat="39.8442503" lon="9.6699478"><ele>9.5</ele><time>2026-05-02T08:21:07Z</time></trkpt><trkpt lat="39.8440889" lon="9.6698522"><ele>9.75</ele><time>2026-05-02T08:21:08.999Z</time></trkpt><trkpt lat="39.8439906" lon="9.669804"><ele>10.0</ele><time>2026-05-02T08:21:09.999Z</time></trkpt><trkpt lat="39.8438863" lon="9.6697324"><ele>10.0</ele><time>2026-05-02T08:21:11Z</time></trkpt><trkpt lat="39.8438013" lon="9.6696614"><ele>10.0</ele><time>2026-05-02T08:21:11.999Z</time></trkpt><trkpt lat="39.8437376" lon="9.6695877"><ele>10.0</ele><time>2026-05-02T08:21:12.999Z</time></trkpt><trkpt lat="39.8436949" lon="9.6695166"><ele>10.0</ele><time>2026-05-02T08:21:13.999Z</time></trkpt><trkpt lat="39.8436502" lon="9.6694381"><ele>10.0</ele><time>2026-05-02T08:21:15.999Z</time></trkpt><trkpt lat="39.843588" lon="9.6694606"><ele>10.0</ele><time>2026-05-02T08:21:17.999Z</time></trkpt><trkpt lat="39.8435507" lon="9.6695305"><ele>10.0</ele><time>2026-05-02T08:21:19Z</time></trkpt><trkpt lat="39.8435082" lon="9.6696131"><ele>10.0</ele><time>2026-05-02T08:21:20Z</time></trkpt><trkpt lat="39.8434522" lon="9.6696872"><ele>10.0</ele><time>2026-05-02T08:21:20.999Z</time></trkpt><trkpt lat="39.843387" lon="9.6697542"><ele>10.0</ele><time>2026-05-02T08:21:22Z</time></trkpt><trkpt lat="39.8433173" lon="9.6697848"><ele>10.0</ele><time>2026-05-02T08:21:22.999Z</time></trkpt><trkpt lat="39.8432289" lon="9.6697641"><ele>10.0</ele><time>2026-05-02T08:21:23.999Z</time></trkpt><trkpt lat="39.8431313" lon="9.6697395"><ele>11.0</ele><time>2026-05-02T08:21:24.999Z</time></trkpt><trkpt lat="39.843026" lon="9.6697162"><ele>12.0</ele><time>2026-05-02T08:21:25.999Z</time></trkpt><trkpt lat="39.8429198" lon="9.6696896"><ele>13.0</ele><time>2026-05-02T08:21:26.999Z</time></trkpt><trkpt lat="39.8428172" lon="9.6696654"><ele>14.0</ele><time>2026-05-02T08:21:27.999Z</time></trkpt><trkpt lat="39.8427278" lon="9.6696364"><ele>15.0</ele><time>2026-05-02T08:21:29Z</time></trkpt><trkpt lat="39.8426599" lon="9.6696116"><ele>15.6</ele><time>2026-05-02T08:21:29.999Z</time></trkpt><trkpt lat="39.8425867" lon="9.6695816"><ele>16.2</ele><time>2026-05-02T08:21:32Z</time></trkpt><trkpt lat="39.8424964" lon="9.6695871"><ele>16.8</ele><time>2026-05-02T08:21:41Z</time></trkpt><trkpt lat="39.8424029" lon="9.6696901"><ele>17.4</ele><time>2026-05-02T08:21:43Z</time></trkpt><trkpt lat="39.8423444" lon="9.6697616"><ele>18.0</ele><time>2026-05-02T08:21:43.999Z</time></trkpt><trkpt lat="39.8422777" lon="9.6698466"><ele>18.0</ele><time>2026-05-02T08:21:44.999Z</time></trkpt><trkpt lat="39.8421913" lon="9.6699425"><ele>18.0</ele><time>2026-05-02T08:21:46Z</time></trkpt><trkpt lat="39.842086" lon="9.6700539"><ele>18.0</ele><time>2026-05-02T08:21:46.999Z</time></trkpt><trkpt lat="39.8419662" lon="9.6701863"><ele>18.0</ele><time>2026-05-02T08:21:47.999Z</time></trkpt><trkpt lat="39.8418367" lon="9.6703345"><ele>18.666666666666668</ele><time>2026-05-02T08:21:48.999Z</time></trkpt><trkpt lat="39.8416983" lon="9.6704955"><ele>19.333333333333336</ele><time>2026-05-02T08:21:49.999Z</time></trkpt><trkpt lat="39.8415651" lon="9.6706593"><ele>20.0</ele><time>2026-05-02T08:21:50.999Z</time></trkpt><trkpt lat="39.8414213" lon="9.6708286"><ele>20.0</ele><time>2026-05-02T08:21:51.999Z</time></trkpt><trkpt lat="39.8412698" lon="9.6710019"><ele>20.0</ele><time>2026-05-02T08:21:52.999Z</time></trkpt><trkpt lat="39.8411247" lon="9.6711674"><ele>20.0</ele><time>2026-05-02T08:21:54Z</time></trkpt><trkpt lat="39.8409896" lon="9.6713214"><ele>19.666666666666668</ele><time>2026-05-02T08:21:54.999Z</time></trkpt><trkpt lat="39.8408587" lon="9.6714692"><ele>19.333333333333332</ele><time>2026-05-02T08:21:55.999Z</time></trkpt><trkpt lat="39.8407364" lon="9.6716076"><ele>19.0</ele><time>2026-05-02T08:21:56.999Z</time></trkpt><trkpt lat="39.840619" lon="9.6717394"><ele>19.0</ele><time>2026-05-02T08:21:57.999Z</time></trkpt><trkpt lat="39.8405085" lon="9.6718669"><ele>19.0</ele><time>2026-05-02T08:21:58.999Z</time></trkpt><trkpt lat="39.8404026" lon="9.6719884"><ele>19.0</ele><time>2026-05-02T08:21:59.999Z</time></trkpt><trkpt lat="39.8402948" lon="9.6721144"><ele>19.0</ele><time>2026-05-02T08:22:00.999Z</time></trkpt><trkpt lat="39.8401825" lon="9.6722422"><ele>18.5</ele><time>2026-05-02T08:22:02Z</time></trkpt><trkpt lat="39.8400722" lon="9.6723645"><ele>18.0</ele><time>2026-05-02T08:22:02.999Z</time></trkpt><trkpt lat="39.8399602" lon="9.6724824"><ele>17.5</ele><time>2026-05-02T08:22:04Z</time></trkpt><trkpt lat="39.8398504" lon="9.6726014"><ele>17.0</ele><time>2026-05-02T08:22:04.999Z</time></trkpt><trkpt lat="39.8397438" lon="9.6727143"><ele>15.0</ele><time>2026-05-02T08:22:05.999Z</time></trkpt><trkpt lat="39.8396376" lon="9.6728271"><ele>13.0</ele><time>2026-05-02T08:22:06.999Z</time></trkpt><trkpt lat="39.8395341" lon="9.6729409"><ele>11.0</ele><time>2026-05-02T08:22:07.999Z</time></trkpt><trkpt lat="39.8394312" lon="9.6730533"><ele>9.0</ele><time>2026-05-02T08:22:08.999Z</time></trkpt><trkpt lat="39.8393294" lon="9.6731634"><ele>9.0</ele><time>2026-05-02T08:22:09.999Z</time></trkpt><trkpt lat="39.8392312" lon="9.6732693"><ele>9.0</ele><time>2026-05-02T08:22:10.999Z</time></trkpt><trkpt lat="39.8391318" lon="9.6733803"><ele>9.0</ele><time>2026-05-02T08:22:11.999Z</time></trkpt><trkpt lat="39.8390315" lon="9.6735004"><ele>9.0</ele><time>2026-05-02T08:22:12.999Z</time></trkpt><trkpt lat="39.8389215" lon="9.6736275"><ele>9.0</ele><time>2026-05-02T08:22:13.999Z</time></trkpt><trkpt lat="39.8388052" lon="9.6737546"><ele>9.0</ele><time>2026-05-02T08:22:14.999Z</time></trkpt><trkpt lat="39.838685" lon="9.6738876"><ele>9.0</ele><time>2026-05-02T08:22:15.999Z</time></trkpt><trkpt lat="39.8385625" lon="9.6740252"><ele>10.0</ele><time>2026-05-02T08:22:16.999Z</time></trkpt><trkpt lat="39.8384423" lon="9.6741564"><ele>11.0</ele><time>2026-05-02T08:22:17.999Z</time></trkpt><trkpt lat="39.8383262" lon="9.6742818"><ele>12.0</ele><time>2026-05-02T08:22:18.999Z</time></trkpt><trkpt lat="39.8382155" lon="9.6744059"><ele>11.25</ele><time>2026-05-02T08:22:19.999Z</time></trkpt><trkpt lat="39.8381117" lon="9.6745233"><ele>10.5</ele><time>2026-05-02T08:22:20.999Z</time></trkpt><trkpt lat="39.8380074" lon="9.674637"><ele>9.75</ele><time>2026-05-02T08:22:21.999Z</time></trkpt><trkpt lat="39.8379042" lon="9.674755"><ele>9.0</ele><time>2026-05-02T08:22:22.999Z</time></trkpt><trkpt lat="39.8377965" lon="9.6748809"><ele>9.0</ele><time>2026-05-02T08:22:23.999Z</time></trkpt><trkpt lat="39.8376871" lon="9.6750054"><ele>9.0</ele><time>2026-05-02T08:22:25Z</time></trkpt><trkpt lat="39.8375764" lon="9.6751274"><ele>9.0</ele><time>2026-05-02T08:22:25.999Z</time></trkpt><trkpt lat="39.8374681" lon="9.6752448"><ele>9.0</ele><time>2026-05-02T08:22:26.999Z</time></trkpt><trkpt lat="39.8373596" lon="9.6753641"><ele>8.0</ele><time>2026-05-02T08:22:27.999Z</time></trkpt><trkpt lat="39.8372532" lon="9.6754824"><ele>7.0</ele><time>2026-05-02T08:22:28.999Z</time></trkpt><trkpt lat="39.8371468" lon="9.6756021"><ele>6.0</ele><time>2026-05-02T08:22:29.999Z</time></trkpt><trkpt lat="39.8370448" lon="9.6757225"><ele>5.0</ele><time>2026-05-02T08:22:31Z</time></trkpt><trkpt lat="39.8369399" lon="9.6758384"><ele>5.0</ele><time>2026-05-02T08:22:31.999Z</time></trkpt><trkpt lat="39.8368369" lon="9.6759526"><ele>5.0</ele><time>2026-05-02T08:22:33Z</time></trkpt><trkpt lat="39.8367323" lon="9.6760655"><ele>5.0</ele><time>2026-05-02T08:22:33.999Z</time></trkpt><trkpt lat="39.8366298" lon="9.6761796"><ele>5.0</ele><time>2026-05-02T08:22:34.999Z</time></trkpt><trkpt lat="39.8365307" lon="9.6762916"><ele>5.25</ele><time>2026-05-02T08:22:35.999Z</time></trkpt><trkpt lat="39.8364295" lon="9.676405"><ele>5.5</ele><time>2026-05-02T08:22:36.999Z</time></trkpt><trkpt lat="39.8363272" lon="9.6765185"><ele>5.75</ele><time>2026-05-02T08:22:38Z</time></trkpt><trkpt lat="39.8362202" lon="9.6766374"><ele>6.0</ele><time>2026-05-02T08:22:38.999Z</time></trkpt><trkpt lat="39.8361182" lon="9.6767502"><ele>6.0</ele><time>2026-05-02T08:22:40Z</time></trkpt><trkpt lat="39.8360252" lon="9.6768578"><ele>6.0</ele><time>2026-05-02T08:22:40.999Z</time></trkpt><trkpt lat="39.8359324" lon="9.676957"><ele>6.0</ele><time>2026-05-02T08:22:41.999Z</time></trkpt><trkpt lat="39.8358406" lon="9.6770569"><ele>6.0</ele><time>2026-05-02T08:22:42.999Z</time></trkpt><trkpt lat="39.8357527" lon="9.6771553"><ele>6.4</ele><time>2026-05-02T08:22:43.999Z</time></trkpt><trkpt lat="39.8356696" lon="9.6772544"><ele>6.8</ele><time>2026-05-02T08:22:44.999Z</time></trkpt><trkpt lat="39.8355889" lon="9.6773526"><ele>7.200000000000001</ele><time>2026-05-02T08:22:45.999Z</time></trkpt><trkpt lat="39.835505" lon="9.6774447"><ele>7.6000000000000005</ele><time>2026-05-02T08:22:46.999Z</time></trkpt><trkpt lat="39.8354231" lon="9.6775434"><ele>8.0</ele><time>2026-05-02T08:22:47.999Z</time></trkpt><trkpt lat="39.8353442" lon="9.6776354"><ele>8.0</ele><time>2026-05-02T08:22:48.999Z</time></trkpt><trkpt lat="39.8352661" lon="9.6777219"><ele>8.0</ele><time>2026-05-02T08:22:49.999Z</time></trkpt><trkpt lat="39.8351866" lon="9.6778081"><ele>8.0</ele><time>2026-05-02T08:22:50.999Z</time></trkpt><trkpt lat="39.8351124" lon="9.6778964"><ele>8.0</ele><time>2026-05-02T08:22:52Z</time></trkpt><trkpt lat="39.8350367" lon="9.6779846"><ele>8.0</ele><time>2026-05-02T08:22:52.999Z</time></trkpt><trkpt lat="39.8349649" lon="9.6780687"><ele>8.166666666666666</ele><time>2026-05-02T08:22:53.999Z</time></trkpt><trkpt lat="39.8348912" lon="9.6781496"><ele>8.333333333333332</ele><time>2026-05-02T08:22:54.999Z</time></trkpt><trkpt lat="39.8348174" lon="9.6782285"><ele>8.5</ele><time>2026-05-02T08:22:56Z</time></trkpt><trkpt lat="39.8347492" lon="9.6783046"><ele>8.666666666666666</ele><time>2026-05-02T08:22:56.999Z</time></trkpt><trkpt lat="39.8346822" lon="9.6783732"><ele>8.833333333333334</ele><time>2026-05-02T08:22:58Z</time></trkpt><trkpt lat="39.8346211" lon="9.6784399"><ele>9.0</ele><time>2026-05-02T08:22:59Z</time></trkpt><trkpt lat="39.8345593" lon="9.6785023"><ele>9.0</ele><time>2026-05-02T08:23:00Z</time></trkpt><trkpt lat="39.8344993" lon="9.6785648"><ele>9.0</ele><time>2026-05-02T08:23:01Z</time></trkpt><trkpt lat="39.8344461" lon="9.6786269"><ele>9.0</ele><time>2026-05-02T08:23:01.999Z</time></trkpt><trkpt lat="39.8344006" lon="9.6786894"><ele>9.0</ele><time>2026-05-02T08:23:02.999Z</time></trkpt><trkpt lat="39.8343511" lon="9.6787502"><ele>9.0</ele><time>2026-05-02T08:23:03.999Z</time></trkpt><trkpt lat="39.8343004" lon="9.6788043"><ele>9.0</ele><time>2026-05-02T08:23:04.999Z</time></trkpt><trkpt lat="39.8342064" lon="9.6789145"><ele>9.0</ele><time>2026-05-02T08:23:07Z</time></trkpt><trkpt lat="39.8341597" lon="9.6789705"><ele>9.0</ele><time>2026-05-02T08:23:08Z</time></trkpt><trkpt lat="39.8340648" lon="9.6790665"><ele>9.0</ele><time>2026-05-02T08:23:09.999Z</time></trkpt><trkpt lat="39.8339715" lon="9.6791721"><ele>9.0</ele><time>2026-05-02T08:23:12Z</time></trkpt><trkpt lat="39.833922" lon="9.679223"><ele>9.0</ele><time>2026-05-02T08:23:12.999Z</time></trkpt><trkpt lat="39.8338715" lon="9.6792745"><ele>9.0</ele><time>2026-05-02T08:23:13.999Z</time></trkpt><trkpt lat="39.83382" lon="9.6793288"><ele>9.0</ele><time>2026-05-02T08:23:15Z</time></trkpt><trkpt lat="39.8337705" lon="9.6793822"><ele>9.0</ele><time>2026-05-02T08:23:15.999Z</time></trkpt><trkpt lat="39.8336836" lon="9.6794653"><ele>9.0</ele><time>2026-05-02T08:23:17.999Z</time></trkpt><trkpt lat="39.8336041" lon="9.6795697"><ele>9.0</ele><time>2026-05-02T08:23:20Z</time></trkpt><trkpt lat="39.8335217" lon="9.6796509"><ele>9.0</ele><time>2026-05-02T08:23:21.999Z</time></trkpt><trkpt lat="39.8334434" lon="9.6797183"><ele>9.2</ele><time>2026-05-02T08:23:24Z</time></trkpt><trkpt lat="39.8333622" lon="9.6797577"><ele>9.4</ele><time>2026-05-02T08:23:25.999Z</time></trkpt><trkpt lat="39.8332759" lon="9.6798082"><ele>9.6</ele><time>2026-05-02T08:23:28Z</time></trkpt><trkpt lat="39.8331843" lon="9.6798625"><ele>9.8</ele><time>2026-05-02T08:23:29.999Z</time></trkpt><trkpt lat="39.8330965" lon="9.6799082"><ele>10.0</ele><time>2026-05-02T08:23:31.999Z</time></trkpt><trkpt lat="39.8330049" lon="9.6799721"><ele>10.0</ele><time>2026-05-02T08:23:33.999Z</time></trkpt><trkpt lat="39.8329415" lon="9.6800145"><ele>10.0</ele><time>2026-05-02T08:23:34.999Z</time></trkpt><trkpt lat="39.8328507" lon="9.6800586"><ele>10.0</ele><time>2026-05-02T08:23:35.999Z</time></trkpt><trkpt lat="39.8327363" lon="9.6800833"><ele>10.0</ele><time>2026-05-02T08:23:37Z</time></trkpt><trkpt lat="39.8326137" lon="9.6801104"><ele>10.0</ele><time>2026-05-02T08:23:37.999Z</time></trkpt><trkpt lat="39.8324851" lon="9.680147"><ele>9.8</ele><time>2026-05-02T08:23:38.999Z</time></trkpt><trkpt lat="39.8323643" lon="9.6801858"><ele>9.6</ele><time>2026-05-02T08:23:40Z</time></trkpt><trkpt lat="39.8322502" lon="9.6802213"><ele>9.4</ele><time>2026-05-02T08:23:40.999Z</time></trkpt><trkpt lat="39.8321492" lon="9.6802531"><ele>9.2</ele><time>2026-05-02T08:23:42Z</time></trkpt><trkpt lat="39.832049" lon="9.6802801"><ele>9.0</ele><time>2026-05-02T08:23:42.999Z</time></trkpt><trkpt lat="39.8319551" lon="9.6803099"><ele>8.5</ele><time>2026-05-02T08:23:44Z</time></trkpt><trkpt lat="39.8318669" lon="9.6803415"><ele>8.0</ele><time>2026-05-02T08:23:45Z</time></trkpt><trkpt lat="39.8317824" lon="9.6803734"><ele>7.5</ele><time>2026-05-02T08:23:46Z</time></trkpt><trkpt lat="39.8317009" lon="9.6804119"><ele>7.0</ele><time>2026-05-02T08:23:46.999Z</time></trkpt><trkpt lat="39.8316266" lon="9.6804602"><ele>6.5</ele><time>2026-05-02T08:23:48Z</time></trkpt><trkpt lat="39.8315569" lon="9.6805129"><ele>6.0</ele><time>2026-05-02T08:23:48.999Z</time></trkpt><trkpt lat="39.8314889" lon="9.6805641"><ele>5.999999999999999</ele><time>2026-05-02T08:23:50Z</time></trkpt><trkpt lat="39.8314225" lon="9.6806097"><ele>6.0</ele><time>2026-05-02T08:23:50.999Z</time></trkpt><trkpt lat="39.8313596" lon="9.680653"><ele>6.0</ele><time>2026-05-02T08:23:51.999Z</time></trkpt><trkpt lat="39.8313012" lon="9.680701"><ele>6.0</ele><time>2026-05-02T08:23:52.999Z</time></trkpt><trkpt lat="39.8312454" lon="9.6807476"><ele>6.0</ele><time>2026-05-02T08:23:53.999Z</time></trkpt><trkpt lat="39.8311873" lon="9.6807948"><ele>5.999999999999999</ele><time>2026-05-02T08:23:54.999Z</time></trkpt><trkpt lat="39.8311253" lon="9.6808382"><ele>6.0</ele><time>2026-05-02T08:23:55.999Z</time></trkpt><trkpt lat="39.8310702" lon="9.6808795"><ele>6.0</ele><time>2026-05-02T08:23:56.999Z</time></trkpt><trkpt lat="39.8310139" lon="9.6809243"><ele>6.0</ele><time>2026-05-02T08:23:58Z</time></trkpt><trkpt lat="39.8309589" lon="9.6809663"><ele>6.0</ele><time>2026-05-02T08:23:58.999Z</time></trkpt><trkpt lat="39.8308566" lon="9.6810427"><ele>6.0</ele><time>2026-05-02T08:24:00.999Z</time></trkpt><trkpt lat="39.8307642" lon="9.6811256"><ele>6.0</ele><time>2026-05-02T08:24:02.999Z</time></trkpt><trkpt lat="39.8306823" lon="9.6812009"><ele>6.142857142857142</ele><time>2026-05-02T08:24:04.999Z</time></trkpt><trkpt lat="39.8306388" lon="9.6812886"><ele>6.285714285714286</ele><time>2026-05-02T08:24:06.999Z</time></trkpt><trkpt lat="39.8306505" lon="9.6813754"><ele>6.428571428571429</ele><time>2026-05-02T08:24:10Z</time></trkpt><trkpt lat="39.8307133" lon="9.6813572"><ele>6.571428571428571</ele><time>2026-05-02T08:24:15Z</time></trkpt><trkpt lat="39.8307657" lon="9.6812966"><ele>6.714285714285714</ele><time>2026-05-02T08:24:20Z</time></trkpt><trkpt lat="39.830809" lon="9.6812224"><ele>6.857142857142857</ele><time>2026-05-02T08:24:24.999Z</time></trkpt><trkpt lat="39.8308229" lon="9.6811259"><ele>7.0</ele><time>2026-05-02T08:24:48.999Z</time></trkpt><trkpt lat="39.830913" lon="9.6810135"><ele>7.0</ele><time>2026-05-02T08:24:50.999Z</time></trkpt><trkpt lat="39.830971" lon="9.6809452"><ele>6.999999999999999</ele><time>2026-05-02T08:24:52Z</time></trkpt><trkpt lat="39.8310474" lon="9.6808816"><ele>6.999999999999999</ele><time>2026-05-02T08:24:53Z</time></trkpt><trkpt lat="39.8311429" lon="9.6808267"><ele>7.0</ele><time>2026-05-02T08:24:53.999Z</time></trkpt><trkpt lat="39.8312383" lon="9.6807522"><ele>7.0</ele><time>2026-05-02T08:24:55Z</time></trkpt><trkpt lat="39.8313307" lon="9.6806841"><ele>6.75</ele><time>2026-05-02T08:24:55.999Z</time></trkpt><trkpt lat="39.8314406" lon="9.6805936"><ele>6.5</ele><time>2026-05-02T08:24:57Z</time></trkpt><trkpt lat="39.8315785" lon="9.6805039"><ele>6.25</ele><time>2026-05-02T08:24:57.999Z</time></trkpt><trkpt lat="39.8317187" lon="9.6804228"><ele>6.0</ele><time>2026-05-02T08:24:58.999Z</time></trkpt><trkpt lat="39.8318571" lon="9.6803548"><ele>6.0</ele><time>2026-05-02T08:25:00Z</time></trkpt><trkpt lat="39.8320027" lon="9.6803175"><ele>6.0</ele><time>2026-05-02T08:25:01Z</time></trkpt><trkpt lat="39.8321389" lon="9.6802923"><ele>6.0</ele><time>2026-05-02T08:25:01.999Z</time></trkpt><trkpt lat="39.8322581" lon="9.6802562"><ele>6.0</ele><time>2026-05-02T08:25:02.999Z</time></trkpt><trkpt lat="39.8323822" lon="9.6802182"><ele>6.6</ele><time>2026-05-02T08:25:04Z</time></trkpt><trkpt lat="39.8324915" lon="9.6801833"><ele>7.199999999999999</ele><time>2026-05-02T08:25:05Z</time></trkpt><trkpt lat="39.8325878" lon="9.6801475"><ele>7.800000000000001</ele><time>2026-05-02T08:25:05.999Z</time></trkpt><trkpt lat="39.832677" lon="9.6801095"><ele>8.4</ele><time>2026-05-02T08:25:06.999Z</time></trkpt><trkpt lat="39.832761" lon="9.6800812"><ele>9.0</ele><time>2026-05-02T08:25:07.999Z</time></trkpt><trkpt lat="39.8328371" lon="9.6800593"><ele>9.166666666666666</ele><time>2026-05-02T08:25:09Z</time></trkpt><trkpt lat="39.8329024" lon="9.680026"><ele>9.333333333333334</ele><time>2026-05-02T08:25:09.999Z</time></trkpt><trkpt lat="39.8329653" lon="9.6799867"><ele>9.5</ele><time>2026-05-02T08:25:10.999Z</time></trkpt><trkpt lat="39.833028" lon="9.6799464"><ele>9.666666666666668</ele><time>2026-05-02T08:25:12Z</time></trkpt><trkpt lat="39.8330913" lon="9.679904"><ele>9.833333333333334</ele><time>2026-05-02T08:25:12.999Z</time></trkpt><trkpt lat="39.8331695" lon="9.6798693"><ele>10.0</ele><time>2026-05-02T08:25:13.999Z</time></trkpt><trkpt lat="39.8332595" lon="9.6798439"><ele>10.0</ele><time>2026-05-02T08:25:14.999Z</time></trkpt><trkpt lat="39.8333612" lon="9.67982"><ele>10.0</ele><time>2026-05-02T08:25:16Z</time></trkpt><trkpt lat="39.83345" lon="9.6797628"><ele>10.0</ele><time>2026-05-02T08:25:17Z</time></trkpt><trkpt lat="39.8335323" lon="9.6796891"><ele>10.0</ele><time>2026-05-02T08:25:17.999Z</time></trkpt><trkpt lat="39.8336053" lon="9.6796056"><ele>10.0</ele><time>2026-05-02T08:25:19Z</time></trkpt><trkpt lat="39.8336718" lon="9.6795261"><ele>10.0</ele><time>2026-05-02T08:25:19.999Z</time></trkpt><trkpt lat="39.8337384" lon="9.679457"><ele>10.0</ele><time>2026-05-02T08:25:20.999Z</time></trkpt><trkpt lat="39.8337953" lon="9.6793829"><ele>10.0</ele><time>2026-05-02T08:25:21.999Z</time></trkpt><trkpt lat="39.8338517" lon="9.6793103"><ele>10.0</ele><time>2026-05-02T08:25:22.999Z</time></trkpt><trkpt lat="39.8339061" lon="9.679242"><ele>10.0</ele><time>2026-05-02T08:25:24Z</time></trkpt><trkpt lat="39.8339593" lon="9.6791746"><ele>10.0</ele><time>2026-05-02T08:25:24.999Z</time></trkpt><trkpt lat="39.8340167" lon="9.6791161"><ele>9.8</ele><time>2026-05-02T08:25:25.999Z</time></trkpt><trkpt lat="39.8340731" lon="9.6790606"><ele>9.6</ele><time>2026-05-02T08:25:27Z</time></trkpt><trkpt lat="39.8341048" lon="9.6789288"><ele>9.4</ele><time>2026-05-02T08:25:28.999Z</time></trkpt><trkpt lat="39.8340302" lon="9.6788416"><ele>9.2</ele><time>2026-05-02T08:25:30.999Z</time></trkpt><trkpt lat="39.8339493" lon="9.6788398"><ele>9.0</ele><time>2026-05-02T08:25:31.999Z</time></trkpt><trkpt lat="39.8338569" lon="9.6788576"><ele>9.0</ele><time>2026-05-02T08:25:33Z</time></trkpt><trkpt lat="39.8337675" lon="9.6788626"><ele>9.0</ele><time>2026-05-02T08:25:33.999Z</time></trkpt><trkpt lat="39.8336699" lon="9.6788402"><ele>9.0</ele><time>2026-05-02T08:25:34.999Z</time></trkpt><trkpt lat="39.8335779" lon="9.6787871"><ele>9.0</ele><time>2026-05-02T08:25:35.999Z</time></trkpt><trkpt lat="39.8334843" lon="9.6787194"><ele>9.0</ele><time>2026-05-02T08:25:36.999Z</time></trkpt><trkpt lat="39.8334017" lon="9.6786309"><ele>9.0</ele><time>2026-05-02T08:25:37.999Z</time></trkpt><trkpt lat="39.8333264" lon="9.6785286"><ele>9.0</ele><time>2026-05-02T08:25:38.999Z</time></trkpt><trkpt lat="39.8332468" lon="9.678434"><ele>9.0</ele><time>2026-05-02T08:25:39.999Z</time></trkpt><trkpt lat="39.8331607" lon="9.678344"><ele>9.0</ele><time>2026-05-02T08:25:40.999Z</time></trkpt><trkpt lat="39.833081" lon="9.6782556"><ele>9.0</ele><time>2026-05-02T08:25:41.999Z</time></trkpt><trkpt lat="39.8330099" lon="9.6781634"><ele>9.0</ele><time>2026-05-02T08:25:43Z</time></trkpt><trkpt lat="39.8329337" lon="9.6780725"><ele>9.0</ele><time>2026-05-02T08:25:43.999Z</time></trkpt><trkpt lat="39.8328553" lon="9.6779846"><ele>9.0</ele><time>2026-05-02T08:25:45Z</time></trkpt><trkpt lat="39.8327689" lon="9.6779071"><ele>9.0</ele><time>2026-05-02T08:25:45.999Z</time></trkpt><trkpt lat="39.8326749" lon="9.6778515"><ele>9.0</ele><time>2026-05-02T08:25:46.999Z</time></trkpt><trkpt lat="39.8325766" lon="9.6778226"><ele>9.0</ele><time>2026-05-02T08:25:48Z</time></trkpt><trkpt lat="39.8324859" lon="9.6777917"><ele>9.0</ele><time>2026-05-02T08:25:48.999Z</time></trkpt><trkpt lat="39.8324044" lon="9.6777535"><ele>9.0</ele><time>2026-05-02T08:25:49.999Z</time></trkpt><trkpt lat="39.8323267" lon="9.6777296"><ele>9.0</ele><time>2026-05-02T08:25:51Z</time></trkpt><trkpt lat="39.8322504" lon="9.6777121"><ele>9.0</ele><time>2026-05-02T08:25:51.999Z</time></trkpt><trkpt lat="39.8321804" lon="9.6776904"><ele>9.0</ele><time>2026-05-02T08:25:52.999Z</time></trkpt><trkpt lat="39.8321151" lon="9.6776619"><ele>9.333333333333334</ele><time>2026-05-02T08:25:53.999Z</time></trkpt><trkpt lat="39.8320536" lon="9.6776388"><ele>9.666666666666666</ele><time>2026-05-02T08:25:54.999Z</time></trkpt><trkpt lat="39.8319918" lon="9.6776166"><ele>10.0</ele><time>2026-05-02T08:25:56Z</time></trkpt><trkpt lat="39.8319238" lon="9.6775936"><ele>10.333333333333332</ele><time>2026-05-02T08:25:56.999Z</time></trkpt><trkpt lat="39.8318503" lon="9.6775666"><ele>10.666666666666666</ele><time>2026-05-02T08:25:57.999Z</time></trkpt><trkpt lat="39.8317685" lon="9.6775426"><ele>11.0</ele><time>2026-05-02T08:25:58.999Z</time></trkpt><trkpt lat="39.83168" lon="9.6775143"><ele>10.200000000000001</ele><time>2026-05-02T08:25:59.999Z</time></trkpt><trkpt lat="39.8315898" lon="9.6774762"><ele>9.4</ele><time>2026-05-02T08:26:00.999Z</time></trkpt><trkpt lat="39.8314941" lon="9.6774405"><ele>8.6</ele><time>2026-05-02T08:26:02Z</time></trkpt><trkpt lat="39.831395" lon="9.6774059"><ele>7.8</ele><time>2026-05-02T08:26:02.999Z</time></trkpt><trkpt lat="39.8312958" lon="9.6773748"><ele>7.0</ele><time>2026-05-02T08:26:04Z</time></trkpt><trkpt lat="39.8311992" lon="9.6773377"><ele>7.0</ele><time>2026-05-02T08:26:04.999Z</time></trkpt><trkpt lat="39.8310939" lon="9.6772881"><ele>7.0</ele><time>2026-05-02T08:26:06Z</time></trkpt><trkpt lat="39.8309676" lon="9.6772465"><ele>7.0</ele><time>2026-05-02T08:26:06.999Z</time></trkpt><trkpt lat="39.8308206" lon="9.677204"><ele>7.0</ele><time>2026-05-02T08:26:07.999Z</time></trkpt><trkpt lat="39.8306553" lon="9.6771391"><ele>6.333333333333334</ele><time>2026-05-02T08:26:09Z</time></trkpt><trkpt lat="39.8304933" lon="9.6770781"><ele>5.666666666666667</ele><time>2026-05-02T08:26:09.999Z</time></trkpt><trkpt lat="39.8303358" lon="9.6770223"><ele>5.0</ele><time>2026-05-02T08:26:10.999Z</time></trkpt><trkpt lat="39.8301934" lon="9.676965"><ele>6.75</ele><time>2026-05-02T08:26:11.999Z</time></trkpt><trkpt lat="39.8300621" lon="9.676917"><ele>8.5</ele><time>2026-05-02T08:26:13Z</time></trkpt><trkpt lat="39.8299351" lon="9.6768768"><ele>10.25</ele><time>2026-05-02T08:26:14Z</time></trkpt><trkpt lat="39.8298059" lon="9.6768343"><ele>12.0</ele><time>2026-05-02T08:26:14.999Z</time></trkpt><trkpt lat="39.8296798" lon="9.6767903"><ele>12.0</ele><time>2026-05-02T08:26:16Z</time></trkpt><trkpt lat="39.8295586" lon="9.6767416"><ele>12.0</ele><time>2026-05-02T08:26:16.999Z</time></trkpt><trkpt lat="39.8294426" lon="9.6766993"><ele>12.0</ele><time>2026-05-02T08:26:18Z</time></trkpt><trkpt lat="39.8293307" lon="9.6766579"><ele>12.0</ele><time>2026-05-02T08:26:19Z</time></trkpt><trkpt lat="39.829205" lon="9.6766074"><ele>12.75</ele><time>2026-05-02T08:26:19.999Z</time></trkpt><trkpt lat="39.8290718" lon="9.6765571"><ele>13.5</ele><time>2026-05-02T08:26:20.999Z</time></trkpt><trkpt lat="39.8289419" lon="9.6765034"><ele>14.25</ele><time>2026-05-02T08:26:21.999Z</time></trkpt><trkpt lat="39.828815" lon="9.6764301"><ele>15.0</ele><time>2026-05-02T08:26:22.999Z</time></trkpt><trkpt lat="39.8286897" lon="9.6763357"><ele>15.0</ele><time>2026-05-02T08:26:23.999Z</time></trkpt><trkpt lat="39.8285718" lon="9.6762192"><ele>15.0</ele><time>2026-05-02T08:26:24.999Z</time></trkpt><trkpt lat="39.828462" lon="9.676088"><ele>15.0</ele><time>2026-05-02T08:26:25.999Z</time></trkpt><trkpt lat="39.8283433" lon="9.6759576"><ele>15.333333333333332</ele><time>2026-05-02T08:26:27Z</time></trkpt><trkpt lat="39.8282175" lon="9.675824"><ele>15.666666666666666</ele><time>2026-05-02T08:26:27.999Z</time></trkpt><trkpt lat="39.8280838" lon="9.6756708"><ele>16.0</ele><time>2026-05-02T08:26:28.999Z</time></trkpt><trkpt lat="39.8279464" lon="9.6755046"><ele>16.0</ele><time>2026-05-02T08:26:29.999Z</time></trkpt><trkpt lat="39.827794" lon="9.6753378"><ele>16.0</ele><time>2026-05-02T08:26:30.999Z</time></trkpt><trkpt lat="39.8276347" lon="9.675164"><ele>16.0</ele><time>2026-05-02T08:26:32Z</time></trkpt><trkpt lat="39.8274748" lon="9.6749877"><ele>17.666666666666664</ele><time>2026-05-02T08:26:32.999Z</time></trkpt><trkpt lat="39.827326" lon="9.6748271"><ele>19.333333333333332</ele><time>2026-05-02T08:26:33.999Z</time></trkpt><trkpt lat="39.8271869" lon="9.6746777"><ele>21.0</ele><time>2026-05-02T08:26:34.999Z</time></trkpt><trkpt lat="39.827059" lon="9.6745372"><ele>21.666666666666668</ele><time>2026-05-02T08:26:36Z</time></trkpt><trkpt lat="39.826935" lon="9.6744078"><ele>22.333333333333336</ele><time>2026-05-02T08:26:36.999Z</time></trkpt><trkpt lat="39.8268105" lon="9.6742828"><ele>23.0</ele><time>2026-05-02T08:26:37.999Z</time></trkpt><trkpt lat="39.8266785" lon="9.6741436"><ele>21.333333333333336</ele><time>2026-05-02T08:26:38.999Z</time></trkpt><trkpt lat="39.8265401" lon="9.6739932"><ele>19.666666666666668</ele><time>2026-05-02T08:26:39.999Z</time></trkpt><trkpt lat="39.8263999" lon="9.6738266"><ele>18.0</ele><time>2026-05-02T08:26:40.999Z</time></trkpt><trkpt lat="39.8262545" lon="9.6736544"><ele>18.0</ele><time>2026-05-02T08:26:41.999Z</time></trkpt><trkpt lat="39.8261185" lon="9.6734947"><ele>18.0</ele><time>2026-05-02T08:26:42.999Z</time></trkpt><trkpt lat="39.8259792" lon="9.6733375"><ele>18.0</ele><time>2026-05-02T08:26:43.999Z</time></trkpt><trkpt lat="39.8258356" lon="9.6731698"><ele>16.333333333333332</ele><time>2026-05-02T08:26:44.999Z</time></trkpt><trkpt lat="39.8256815" lon="9.6729876"><ele>14.666666666666666</ele><time>2026-05-02T08:26:45.999Z</time></trkpt><trkpt lat="39.8255216" lon="9.6727992"><ele>13.0</ele><time>2026-05-02T08:26:46.999Z</time></trkpt><trkpt lat="39.8253695" lon="9.6726193"><ele>12.666666666666666</ele><time>2026-05-02T08:26:48Z</time></trkpt><trkpt lat="39.8252239" lon="9.6724535"><ele>12.333333333333332</ele><time>2026-05-02T08:26:49Z</time></trkpt><trkpt lat="39.8250898" lon="9.6723017"><ele>12.0</ele><time>2026-05-02T08:26:49.999Z</time></trkpt><trkpt lat="39.8249505" lon="9.6721659"><ele>12.0</ele><time>2026-05-02T08:26:51Z</time></trkpt><trkpt lat="39.8247947" lon="9.6720501"><ele>12.0</ele><time>2026-05-02T08:26:51.999Z</time></trkpt><trkpt lat="39.8246223" lon="9.6719584"><ele>12.0</ele><time>2026-05-02T08:26:53Z</time></trkpt><trkpt lat="39.8244534" lon="9.671891"><ele>11.333333333333334</ele><time>2026-05-02T08:26:53.999Z</time></trkpt><trkpt lat="39.8242963" lon="9.6718289"><ele>10.666666666666668</ele><time>2026-05-02T08:26:54.999Z</time></trkpt><trkpt lat="39.8241503" lon="9.6717667"><ele>10.0</ele><time>2026-05-02T08:26:56Z</time></trkpt><trkpt lat="39.8240133" lon="9.6717141"><ele>10.0</ele><time>2026-05-02T08:26:56.999Z</time></trkpt><trkpt lat="39.8238849" lon="9.6716697"><ele>10.0</ele><time>2026-05-02T08:26:57.999Z</time></trkpt><trkpt lat="39.8237696" lon="9.6716168"><ele>10.0</ele><time>2026-05-02T08:26:58.999Z</time></trkpt><trkpt lat="39.8236651" lon="9.6715444"><ele>10.0</ele><time>2026-05-02T08:26:59.999Z</time></trkpt><trkpt lat="39.8235726" lon="9.6714383"><ele>10.0</ele><time>2026-05-02T08:27:01Z</time></trkpt><trkpt lat="39.8234923" lon="9.6713174"><ele>10.0</ele><time>2026-05-02T08:27:01.999Z</time></trkpt><trkpt lat="39.8234317" lon="9.671172"><ele>10.0</ele><time>2026-05-02T08:27:03Z</time></trkpt><trkpt lat="39.8233705" lon="9.6710131"><ele>10.0</ele><time>2026-05-02T08:27:03.999Z</time></trkpt><trkpt lat="39.8233051" lon="9.6708621"><ele>9.75</ele><time>2026-05-02T08:27:04.999Z</time></trkpt><trkpt lat="39.8232432" lon="9.6707151"><ele>9.5</ele><time>2026-05-02T08:27:05.999Z</time></trkpt><trkpt lat="39.8231841" lon="9.670567"><ele>9.25</ele><time>2026-05-02T08:27:06.999Z</time></trkpt><trkpt lat="39.8231202" lon="9.6704251"><ele>9.0</ele><time>2026-05-02T08:27:07.999Z</time></trkpt><trkpt lat="39.8230586" lon="9.6703173"><ele>8.666666666666666</ele><time>2026-05-02T08:27:08.999Z</time></trkpt><trkpt lat="39.8229975" lon="9.6702418"><ele>8.333333333333334</ele><time>2026-05-02T08:27:10Z</time></trkpt><trkpt lat="39.8229361" lon="9.6701919"><ele>8.0</ele><time>2026-05-02T08:27:11Z</time></trkpt><trkpt lat="39.8229005" lon="9.6701104"><ele>7.666666666666667</ele><time>2026-05-02T08:27:13Z</time></trkpt><trkpt lat="39.8229627" lon="9.6700053"><ele>7.333333333333334</ele><time>2026-05-02T08:27:14.999Z</time></trkpt><trkpt lat="39.8230261" lon="9.6699412"><ele>7.0</ele><time>2026-05-02T08:27:15.999Z</time></trkpt><trkpt lat="39.8231116" lon="9.6698758"><ele>7.0</ele><time>2026-05-02T08:27:16.999Z</time></trkpt><trkpt lat="39.8232127" lon="9.6698035"><ele>7.0</ele><time>2026-05-02T08:27:17.999Z</time></trkpt><trkpt lat="39.8233233" lon="9.6697104"><ele>7.0</ele><time>2026-05-02T08:27:18.999Z</time></trkpt><trkpt lat="39.8234367" lon="9.6696256"><ele>7.0</ele><time>2026-05-02T08:27:19.999Z</time></trkpt><trkpt lat="39.8235331" lon="9.6695637"><ele>7.333333333333334</ele><time>2026-05-02T08:27:20.999Z</time></trkpt><trkpt lat="39.8236131" lon="9.6694963"><ele>7.666666666666667</ele><time>2026-05-02T08:27:21.999Z</time></trkpt><trkpt lat="39.8236958" lon="9.6694122"><ele>8.0</ele><time>2026-05-02T08:27:23Z</time></trkpt><trkpt lat="39.8237691" lon="9.6693445"><ele>8.333333333333334</ele><time>2026-05-02T08:27:23.999Z</time></trkpt><trkpt lat="39.8238414" lon="9.6692835"><ele>8.666666666666666</ele><time>2026-05-02T08:27:25Z</time></trkpt><trkpt lat="39.8238906" lon="9.6692247"><ele>9.0</ele><time>2026-05-02T08:27:25.999Z</time></trkpt><trkpt lat="39.8238873" lon="9.6690846"><ele>9.4</ele><time>2026-05-02T08:27:27.999Z</time></trkpt><trkpt lat="39.8238385" lon="9.6690122"><ele>9.8</ele><time>2026-05-02T08:27:28.999Z</time></trkpt><trkpt lat="39.8237622" lon="9.6689356"><ele>10.200000000000001</ele><time>2026-05-02T08:27:29.999Z</time></trkpt><trkpt lat="39.8236905" lon="9.6688748"><ele>10.600000000000001</ele><time>2026-05-02T08:27:30.999Z</time></trkpt><trkpt lat="39.8236425" lon="9.6688122"><ele>11.0</ele><time>2026-05-02T08:27:31.999Z</time></trkpt><trkpt lat="39.8236509" lon="9.6686166"><ele>11.200000000000001</ele><time>2026-05-02T08:27:34.999Z</time></trkpt><trkpt lat="39.8237168" lon="9.668538"><ele>11.4</ele><time>2026-05-02T08:27:35.999Z</time></trkpt><trkpt lat="39.8237775" lon="9.6684538"><ele>11.6</ele><time>2026-05-02T08:27:36.999Z</time></trkpt><trkpt lat="39.8238209" lon="9.6683425"><ele>11.8</ele><time>2026-05-02T08:27:37.999Z</time></trkpt><trkpt lat="39.823867" lon="9.6682323"><ele>12.0</ele><time>2026-05-02T08:27:38.999Z</time></trkpt><trkpt lat="39.8239199" lon="9.6681404"><ele>12.0</ele><time>2026-05-02T08:27:40Z</time></trkpt><trkpt lat="39.8239694" lon="9.6680631"><ele>12.0</ele><time>2026-05-02T08:27:40.999Z</time></trkpt><trkpt lat="39.8240247" lon="9.6680029"><ele>12.0</ele><time>2026-05-02T08:27:42Z</time></trkpt><trkpt lat="39.8240775" lon="9.6679507"><ele>12.0</ele><time>2026-05-02T08:27:43Z</time></trkpt><trkpt lat="39.8241288" lon="9.667888"><ele>12.0</ele><time>2026-05-02T08:27:44.999Z</time></trkpt><trkpt lat="39.8241237" lon="9.667806"><ele>12.0</ele><time>2026-05-02T08:27:49.999Z</time></trkpt><trkpt lat="39.8240374" lon="9.667695"><ele>11.6</ele><time>2026-05-02T08:27:51.999Z</time></trkpt><trkpt lat="39.8239679" lon="9.66762"><ele>11.2</ele><time>2026-05-02T08:27:53Z</time></trkpt><trkpt lat="39.8238877" lon="9.6675351"><ele>10.8</ele><time>2026-05-02T08:27:54Z</time></trkpt><trkpt lat="39.8238004" lon="9.6674468"><ele>10.4</ele><time>2026-05-02T08:27:54.999Z</time></trkpt><trkpt lat="39.8237112" lon="9.6673362"><ele>10.0</ele><time>2026-05-02T08:27:55.999Z</time></trkpt><trkpt lat="39.82363" lon="9.6672374"><ele>10.0</ele><time>2026-05-02T08:27:56.999Z</time></trkpt><trkpt lat="39.8235587" lon="9.6671519"><ele>10.0</ele><time>2026-05-02T08:27:57.999Z</time></trkpt><trkpt lat="39.8234949" lon="9.6670709"><ele>10.0</ele><time>2026-05-02T08:27:59Z</time></trkpt><trkpt lat="39.823437" lon="9.6670019"><ele>10.0</ele><time>2026-05-02T08:27:59.999Z</time></trkpt><trkpt lat="39.8233343" lon="9.6669202"><ele>10.0</ele><time>2026-05-02T08:28:01.999Z</time></trkpt><trkpt lat="39.8232292" lon="9.6669093"><ele>9.6</ele><time>2026-05-02T08:28:03.999Z</time></trkpt><trkpt lat="39.8231088" lon="9.6669212"><ele>9.2</ele><time>2026-05-02T08:28:05.999Z</time></trkpt><trkpt lat="39.8230312" lon="9.6669629"><ele>8.8</ele><time>2026-05-02T08:28:06.999Z</time></trkpt><trkpt lat="39.8229566" lon="9.6669994"><ele>8.4</ele><time>2026-05-02T08:28:07.999Z</time></trkpt><trkpt lat="39.8228498" lon="9.6670272"><ele>8.0</ele><time>2026-05-02T08:28:09.999Z</time></trkpt><trkpt lat="39.8227367" lon="9.6669387"><ele>7.999999999999999</ele><time>2026-05-02T08:28:12Z</time></trkpt><trkpt lat="39.8226795" lon="9.6668605"><ele>8.0</ele><time>2026-05-02T08:28:13.999Z</time></trkpt><trkpt lat="39.8227529" lon="9.6669414"><ele>8.0</ele><time>2026-05-02T08:28:24Z</time></trkpt><trkpt lat="39.8228163" lon="9.667006"><ele>8.0</ele><time>2026-05-02T08:28:25Z</time></trkpt><trkpt lat="39.8228801" lon="9.6670365"><ele>7.999999999999999</ele><time>2026-05-02T08:28:25.999Z</time></trkpt><trkpt lat="39.8229503" lon="9.6670198"><ele>8.0</ele><time>2026-05-02T08:28:27Z</time></trkpt><trkpt lat="39.8230422" lon="9.666969"><ele>7.999999999999999</ele><time>2026-05-02T08:28:28Z</time></trkpt><trkpt lat="39.8231239" lon="9.6669323"><ele>8.0</ele><time>2026-05-02T08:28:28.999Z</time></trkpt><trkpt lat="39.8232093" lon="9.6669177"><ele>8.0</ele><time>2026-05-02T08:28:29.999Z</time></trkpt><trkpt lat="39.823289" lon="9.6669221"><ele>8.0</ele><time>2026-05-02T08:28:30.999Z</time></trkpt><trkpt lat="39.8233621" lon="9.6669464"><ele>7.999999999999999</ele><time>2026-05-02T08:28:31.999Z</time></trkpt><trkpt lat="39.8234244" lon="9.6669911"><ele>8.0</ele><time>2026-05-02T08:28:32.999Z</time></trkpt><trkpt lat="39.8234871" lon="9.6670546"><ele>8.4</ele><time>2026-05-02T08:28:33.999Z</time></trkpt><trkpt lat="39.8235559" lon="9.6671265"><ele>8.8</ele><time>2026-05-02T08:28:34.999Z</time></trkpt><trkpt lat="39.823625" lon="9.667205"><ele>9.2</ele><time>2026-05-02T08:28:35.999Z</time></trkpt><trkpt lat="39.823696" lon="9.6672954"><ele>9.6</ele><time>2026-05-02T08:28:36.999Z</time></trkpt><trkpt lat="39.8237704" lon="9.6673888"><ele>10.0</ele><time>2026-05-02T08:28:37.999Z</time></trkpt><trkpt lat="39.8238448" lon="9.6674795"><ele>10.0</ele><time>2026-05-02T08:28:39Z</time></trkpt><trkpt lat="39.8239255" lon="9.6675683"><ele>10.0</ele><time>2026-05-02T08:28:39.999Z</time></trkpt><trkpt lat="39.8240079" lon="9.667659"><ele>10.0</ele><time>2026-05-02T08:28:40.999Z</time></trkpt><trkpt lat="39.8240837" lon="9.6677502"><ele>10.0</ele><time>2026-05-02T08:28:41.999Z</time></trkpt><trkpt lat="39.8241466" lon="9.6678358"><ele>10.0</ele><time>2026-05-02T08:28:42.999Z</time></trkpt><trkpt lat="39.8242097" lon="9.667932"><ele>10.4</ele><time>2026-05-02T08:28:43.999Z</time></trkpt><trkpt lat="39.8242849" lon="9.6680296"><ele>10.8</ele><time>2026-05-02T08:28:44.999Z</time></trkpt><trkpt lat="39.8243664" lon="9.6681088"><ele>11.2</ele><time>2026-05-02T08:28:46Z</time></trkpt><trkpt lat="39.8244429" lon="9.6681682"><ele>11.6</ele><time>2026-05-02T08:28:46.999Z</time></trkpt><trkpt lat="39.8245062" lon="9.668206"><ele>12.0</ele><time>2026-05-02T08:28:48Z</time></trkpt><trkpt lat="39.8246081" lon="9.6682882"><ele>12.666666666666666</ele><time>2026-05-02T08:28:50Z</time></trkpt><trkpt lat="39.8246619" lon="9.6683314"><ele>13.333333333333332</ele><time>2026-05-02T08:28:50.999Z</time></trkpt><trkpt lat="39.8247504" lon="9.6683429"><ele>14.0</ele><time>2026-05-02T08:28:52.999Z</time></trkpt><trkpt lat="39.8247914" lon="9.6681947"><ele>14.666666666666666</ele><time>2026-05-02T08:28:54.999Z</time></trkpt><trkpt lat="39.824807" lon="9.6681118"><ele>15.333333333333332</ele><time>2026-05-02T08:28:56Z</time></trkpt><trkpt lat="39.8248342" lon="9.6679858"><ele>16.0</ele><time>2026-05-02T08:28:58Z</time></trkpt><trkpt lat="39.8248638" lon="9.6678525"><ele>16.0</ele><time>2026-05-02T08:28:59.999Z</time></trkpt><trkpt lat="39.8248989" lon="9.667779"><ele>15.999999999999998</ele><time>2026-05-02T08:29:00.999Z</time></trkpt><trkpt lat="39.8249482" lon="9.6677026"><ele>16.0</ele><time>2026-05-02T08:29:01.999Z</time></trkpt><trkpt lat="39.825006" lon="9.6676213"><ele>16.0</ele><time>2026-05-02T08:29:02.999Z</time></trkpt><trkpt lat="39.8250602" lon="9.6675462"><ele>15.999999999999998</ele><time>2026-05-02T08:29:04Z</time></trkpt><trkpt lat="39.8250983" lon="9.6674741"><ele>16.0</ele><time>2026-05-02T08:29:04.999Z</time></trkpt><trkpt lat="39.8251252" lon="9.6673887"><ele>16.0</ele><time>2026-05-02T08:29:05.999Z</time></trkpt><trkpt lat="39.8251403" lon="9.6672834"><ele>16.2</ele><time>2026-05-02T08:29:07Z</time></trkpt><trkpt lat="39.8251562" lon="9.6671848"><ele>16.400000000000002</ele><time>2026-05-02T08:29:07.999Z</time></trkpt><trkpt lat="39.8251763" lon="9.667069"><ele>16.6</ele><time>2026-05-02T08:29:08.999Z</time></trkpt><trkpt lat="39.8251932" lon="9.6669582"><ele>16.8</ele><time>2026-05-02T08:29:09.999Z</time></trkpt><trkpt lat="39.8252087" lon="9.6668652"><ele>17.0</ele><time>2026-05-02T08:29:11Z</time></trkpt><trkpt lat="39.8252644" lon="9.666711"><ele>16.4</ele><time>2026-05-02T08:29:12.999Z</time></trkpt><trkpt lat="39.8253112" lon="9.6666335"><ele>15.799999999999999</ele><time>2026-05-02T08:29:14Z</time></trkpt><trkpt lat="39.825348" lon="9.6665484"><ele>15.2</ele><time>2026-05-02T08:29:15Z</time></trkpt><trkpt lat="39.82538" lon="9.6664406"><ele>14.6</ele><time>2026-05-02T08:29:15.999Z</time></trkpt><trkpt lat="39.8254049" lon="9.6663063"><ele>14.0</ele><time>2026-05-02T08:29:16.999Z</time></trkpt><trkpt lat="39.8254258" lon="9.6661534"><ele>14.0</ele><time>2026-05-02T08:29:17.999Z</time></trkpt><trkpt lat="39.8254435" lon="9.6660067"><ele>13.999999999999998</ele><time>2026-05-02T08:29:19Z</time></trkpt><trkpt lat="39.8254672" lon="9.6658707"><ele>13.999999999999998</ele><time>2026-05-02T08:29:19.999Z</time></trkpt><trkpt lat="39.8255081" lon="9.6657403"><ele>14.0</ele><time>2026-05-02T08:29:20.999Z</time></trkpt><trkpt lat="39.8255515" lon="9.6656169"><ele>14.0</ele><time>2026-05-02T08:29:21.999Z</time></trkpt><trkpt lat="39.8256003" lon="9.6654977"><ele>14.0</ele><time>2026-05-02T08:29:22.999Z</time></trkpt><trkpt lat="39.8256622" lon="9.6653746"><ele>14.0</ele><time>2026-05-02T08:29:23.999Z</time></trkpt><trkpt lat="39.8257328" lon="9.6652432"><ele>14.0</ele><time>2026-05-02T08:29:25Z</time></trkpt><trkpt lat="39.8258138" lon="9.665105"><ele>14.0</ele><time>2026-05-02T08:29:25.999Z</time></trkpt><trkpt lat="39.8258911" lon="9.6649793"><ele>14.399999999999999</ele><time>2026-05-02T08:29:26.999Z</time></trkpt><trkpt lat="39.8259676" lon="9.6648755"><ele>14.799999999999999</ele><time>2026-05-02T08:29:28Z</time></trkpt><trkpt lat="39.8260405" lon="9.6647872"><ele>15.200000000000001</ele><time>2026-05-02T08:29:28.999Z</time></trkpt><trkpt lat="39.8261" lon="9.6646993"><ele>15.600000000000001</ele><time>2026-05-02T08:29:30Z</time></trkpt><trkpt lat="39.8261499" lon="9.6646163"><ele>16.0</ele><time>2026-05-02T08:29:31Z</time></trkpt><trkpt lat="39.826197" lon="9.664534"><ele>16.666666666666664</ele><time>2026-05-02T08:29:31.999Z</time></trkpt><trkpt lat="39.8262356" lon="9.6644511"><ele>17.333333333333332</ele><time>2026-05-02T08:29:33Z</time></trkpt><trkpt lat="39.8262741" lon="9.6643735"><ele>18.0</ele><time>2026-05-02T08:29:33.999Z</time></trkpt><trkpt lat="39.8263021" lon="9.6642869"><ele>18.666666666666668</ele><time>2026-05-02T08:29:34.999Z</time></trkpt><trkpt lat="39.8263249" lon="9.6641931"><ele>19.333333333333336</ele><time>2026-05-02T08:29:35.999Z</time></trkpt><trkpt lat="39.8263359" lon="9.6641007"><ele>20.0</ele><time>2026-05-02T08:29:37Z</time></trkpt><trkpt lat="39.8262878" lon="9.6639721"><ele>20.4</ele><time>2026-05-02T08:29:38.999Z</time></trkpt><trkpt lat="39.8261642" lon="9.6639747"><ele>20.8</ele><time>2026-05-02T08:29:40.999Z</time></trkpt><trkpt lat="39.8260594" lon="9.6639753"><ele>21.200000000000003</ele><time>2026-05-02T08:29:43Z</time></trkpt><trkpt lat="39.8259658" lon="9.6639575"><ele>21.6</ele><time>2026-05-02T08:29:44.999Z</time></trkpt><trkpt lat="39.8258814" lon="9.663927"><ele>22.0</ele><time>2026-05-02T08:29:47Z</time></trkpt><trkpt lat="39.8258063" lon="9.6638698"><ele>22.0</ele><time>2026-05-02T08:29:49Z</time></trkpt><trkpt lat="39.8257305" lon="9.6637575"><ele>22.0</ele><time>2026-05-02T08:29:50.999Z</time></trkpt><trkpt lat="39.8256842" lon="9.6636251"><ele>22.0</ele><time>2026-05-02T08:29:52.999Z</time></trkpt><trkpt lat="39.8256394" lon="9.6634864"><ele>22.0</ele><time>2026-05-02T08:29:54.999Z</time></trkpt><trkpt lat="39.8256327" lon="9.6633595"><ele>22.0</ele><time>2026-05-02T08:29:57Z</time></trkpt><trkpt lat="39.825642" lon="9.663257"><ele>23.0</ele><time>2026-05-02T08:29:59Z</time></trkpt><trkpt lat="39.8256578" lon="9.663151"><ele>24.0</ele><time>2026-05-02T08:30:36Z</time></trkpt><trkpt lat="39.8256931" lon="9.6630199"><ele>25.000000000000004</ele><time>2026-05-02T08:30:37.999Z</time></trkpt><trkpt lat="39.8257546" lon="9.6629077"><ele>26.0</ele><time>2026-05-02T08:30:39.999Z</time></trkpt><trkpt lat="39.8258203" lon="9.6628271"><ele>27.0</ele><time>2026-05-02T08:30:42Z</time></trkpt><trkpt lat="39.8258922" lon="9.6627691"><ele>27.166666666666668</ele><time>2026-05-02T08:30:44Z</time></trkpt><trkpt lat="39.8260061" lon="9.6627534"><ele>27.333333333333336</ele><time>2026-05-02T08:30:45.999Z</time></trkpt><trkpt lat="39.8260909" lon="9.6627618"><ele>27.5</ele><time>2026-05-02T08:30:47Z</time></trkpt><trkpt lat="39.8261811" lon="9.6627769"><ele>27.666666666666668</ele><time>2026-05-02T08:30:47.999Z</time></trkpt><trkpt lat="39.8262653" lon="9.6627919"><ele>27.833333333333336</ele><time>2026-05-02T08:30:48.999Z</time></trkpt><trkpt lat="39.8263378" lon="9.6628027"><ele>28.0</ele><time>2026-05-02T08:30:49.999Z</time></trkpt><trkpt lat="39.8264552" lon="9.6627869"><ele>28.2</ele><time>2026-05-02T08:30:51.999Z</time></trkpt><trkpt lat="39.8265269" lon="9.6626571"><ele>28.4</ele><time>2026-05-02T08:30:53.999Z</time></trkpt><trkpt lat="39.8265695" lon="9.6625559"><ele>28.599999999999998</ele><time>2026-05-02T08:30:54.999Z</time></trkpt><trkpt lat="39.8266235" lon="9.662445"><ele>28.799999999999997</ele><time>2026-05-02T08:30:55.999Z</time></trkpt><trkpt lat="39.8266687" lon="9.6623201"><ele>29.0</ele><time>2026-05-02T08:30:56.999Z</time></trkpt><trkpt lat="39.8267039" lon="9.6622031"><ele>28.999999999999996</ele><time>2026-05-02T08:30:58Z</time></trkpt><trkpt lat="39.8267398" lon="9.6621039"><ele>29.0</ele><time>2026-05-02T08:30:59Z</time></trkpt><trkpt lat="39.8267817" lon="9.6620163"><ele>29.0</ele><time>2026-05-02T08:30:59.999Z</time></trkpt><trkpt lat="39.8268275" lon="9.6619339"><ele>29.0</ele><time>2026-05-02T08:31:00.999Z</time></trkpt><trkpt lat="39.8268918" lon="9.6618641"><ele>28.999999999999996</ele><time>2026-05-02T08:31:01.999Z</time></trkpt><trkpt lat="39.8269757" lon="9.6617907"><ele>29.0</ele><time>2026-05-02T08:31:02.999Z</time></trkpt><trkpt lat="39.8270526" lon="9.6617127"><ele>28.799999999999997</ele><time>2026-05-02T08:31:04Z</time></trkpt><trkpt lat="39.8271238" lon="9.6616411"><ele>28.599999999999998</ele><time>2026-05-02T08:31:04.999Z</time></trkpt><trkpt lat="39.8272084" lon="9.6615728"><ele>28.4</ele><time>2026-05-02T08:31:05.999Z</time></trkpt><trkpt lat="39.8272947" lon="9.66151"><ele>28.2</ele><time>2026-05-02T08:31:06.999Z</time></trkpt><trkpt lat="39.8273784" lon="9.6614463"><ele>28.0</ele><time>2026-05-02T08:31:07.999Z</time></trkpt><trkpt lat="39.8274711" lon="9.6613673"><ele>28.0</ele><time>2026-05-02T08:31:09Z</time></trkpt><trkpt lat="39.8275661" lon="9.6612733"><ele>27.999999999999996</ele><time>2026-05-02T08:31:09.999Z</time></trkpt><trkpt lat="39.827648" lon="9.6611786"><ele>27.999999999999996</ele><time>2026-05-02T08:31:10.999Z</time></trkpt><trkpt lat="39.8277195" lon="9.6610986"><ele>28.0</ele><time>2026-05-02T08:31:11.999Z</time></trkpt><trkpt lat="39.8277789" lon="9.6610159"><ele>28.0</ele><time>2026-05-02T08:31:12.999Z</time></trkpt><trkpt lat="39.8278322" lon="9.6609324"><ele>27.666666666666668</ele><time>2026-05-02T08:31:13.999Z</time></trkpt><trkpt lat="39.827881" lon="9.6608404"><ele>27.333333333333336</ele><time>2026-05-02T08:31:14.999Z</time></trkpt><trkpt lat="39.8279223" lon="9.6607568"><ele>27.0</ele><time>2026-05-02T08:31:15.999Z</time></trkpt><trkpt lat="39.8279733" lon="9.6606678"><ele>26.666666666666664</ele><time>2026-05-02T08:31:16.999Z</time></trkpt><trkpt lat="39.828033" lon="9.6605738"><ele>26.333333333333332</ele><time>2026-05-02T08:31:17.999Z</time></trkpt><trkpt lat="39.8281025" lon="9.660474"><ele>26.0</ele><time>2026-05-02T08:31:18.999Z</time></trkpt><trkpt lat="39.8281916" lon="9.6603832"><ele>26.25</ele><time>2026-05-02T08:31:20Z</time></trkpt><trkpt lat="39.828283" lon="9.6602772"><ele>26.5</ele><time>2026-05-02T08:31:21Z</time></trkpt><trkpt lat="39.8283827" lon="9.6601582"><ele>26.75</ele><time>2026-05-02T08:31:21.999Z</time></trkpt><trkpt lat="39.8284825" lon="9.6600362"><ele>27.0</ele><time>2026-05-02T08:31:23Z</time></trkpt><trkpt lat="39.8285734" lon="9.659924"><ele>27.0</ele><time>2026-05-02T08:31:23.999Z</time></trkpt><trkpt lat="39.8286619" lon="9.6598141"><ele>27.000000000000004</ele><time>2026-05-02T08:31:25Z</time></trkpt><trkpt lat="39.8287412" lon="9.6597056"><ele>27.000000000000004</ele><time>2026-05-02T08:31:26Z</time></trkpt><trkpt lat="39.8288166" lon="9.6596082"><ele>27.0</ele><time>2026-05-02T08:31:27Z</time></trkpt><trkpt lat="39.828888" lon="9.6595114"><ele>27.0</ele><time>2026-05-02T08:31:28Z</time></trkpt><trkpt lat="39.8289595" lon="9.659429"><ele>26.666666666666668</ele><time>2026-05-02T08:31:28.999Z</time></trkpt><trkpt lat="39.8290188" lon="9.6593377"><ele>26.333333333333336</ele><time>2026-05-02T08:31:30Z</time></trkpt><trkpt lat="39.8290688" lon="9.6592442"><ele>26.0</ele><time>2026-05-02T08:31:30.999Z</time></trkpt><trkpt lat="39.829105" lon="9.6591555"><ele>25.666666666666668</ele><time>2026-05-02T08:31:32Z</time></trkpt><trkpt lat="39.8291386" lon="9.6590745"><ele>25.333333333333336</ele><time>2026-05-02T08:31:32.999Z</time></trkpt><trkpt lat="39.8291876" lon="9.6589486"><ele>25.0</ele><time>2026-05-02T08:31:35Z</time></trkpt><trkpt lat="39.829253" lon="9.6587908"><ele>25.0</ele><time>2026-05-02T08:31:36.999Z</time></trkpt><trkpt lat="39.8292942" lon="9.6586772"><ele>25.0</ele><time>2026-05-02T08:31:37.999Z</time></trkpt><trkpt lat="39.8293358" lon="9.6585515"><ele>25.0</ele><time>2026-05-02T08:31:38.999Z</time></trkpt><trkpt lat="39.8293759" lon="9.6584269"><ele>25.0</ele><time>2026-05-02T08:31:39.999Z</time></trkpt><trkpt lat="39.8294181" lon="9.6583134"><ele>25.0</ele><time>2026-05-02T08:31:40.999Z</time></trkpt><trkpt lat="39.8294541" lon="9.6582087"><ele>25.000000000000004</ele><time>2026-05-02T08:31:42Z</time></trkpt><trkpt lat="39.82949" lon="9.6580977"><ele>25.0</ele><time>2026-05-02T08:31:43Z</time></trkpt><trkpt lat="39.8295213" lon="9.6580019"><ele>25.0</ele><time>2026-05-02T08:31:43.999Z</time></trkpt><trkpt lat="39.8295365" lon="9.6579061"><ele>25.0</ele><time>2026-05-02T08:31:44.999Z</time></trkpt><trkpt lat="39.8295328" lon="9.6578179"><ele>25.000000000000004</ele><time>2026-05-02T08:31:45.999Z</time></trkpt><trkpt lat="39.8295114" lon="9.6577375"><ele>25.0</ele><time>2026-05-02T08:31:46.999Z</time></trkpt><trkpt lat="39.829434" lon="9.6576144"><ele>25.0</ele><time>2026-05-02T08:31:48.999Z</time></trkpt><trkpt lat="39.8293771" lon="9.65756"><ele>25.0</ele><time>2026-05-02T08:31:49.999Z</time></trkpt><trkpt lat="39.8292956" lon="9.6574922"><ele>25.0</ele><time>2026-05-02T08:31:50.999Z</time></trkpt><trkpt lat="39.8292081" lon="9.6574179"><ele>25.0</ele><time>2026-05-02T08:31:51.999Z</time></trkpt><trkpt lat="39.829115" lon="9.657343"><ele>25.0</ele><time>2026-05-02T08:31:53Z</time></trkpt><trkpt lat="39.829022" lon="9.6572688"><ele>24.4</ele><time>2026-05-02T08:31:54Z</time></trkpt><trkpt lat="39.828931" lon="9.6571903"><ele>23.8</ele><time>2026-05-02T08:31:55Z</time></trkpt><trkpt lat="39.8288479" lon="9.6571075"><ele>23.200000000000003</ele><time>2026-05-02T08:31:55.999Z</time></trkpt><trkpt lat="39.8287696" lon="9.6570323"><ele>22.6</ele><time>2026-05-02T08:31:56.999Z</time></trkpt><trkpt lat="39.8286967" lon="9.6569723"><ele>22.0</ele><time>2026-05-02T08:31:57.999Z</time></trkpt><trkpt lat="39.8286373" lon="9.6569069"><ele>22.0</ele><time>2026-05-02T08:31:58.999Z</time></trkpt><trkpt lat="39.8286" lon="9.6568375"><ele>22.0</ele><time>2026-05-02T08:32:00Z</time></trkpt><trkpt lat="39.8285821" lon="9.656757"><ele>22.0</ele><time>2026-05-02T08:32:00.999Z</time></trkpt><trkpt lat="39.8285849" lon="9.6566739"><ele>22.0</ele><time>2026-05-02T08:32:02Z</time></trkpt><trkpt lat="39.8286105" lon="9.6565721"><ele>22.0</ele><time>2026-05-02T08:32:02.999Z</time></trkpt><trkpt lat="39.8286579" lon="9.6564443"><ele>22.0</ele><time>2026-05-02T08:32:04Z</time></trkpt><trkpt lat="39.8287136" lon="9.6563003"><ele>22.0</ele><time>2026-05-02T08:32:04.999Z</time></trkpt><trkpt lat="39.8287755" lon="9.6561463"><ele>22.0</ele><time>2026-05-02T08:32:05.999Z</time></trkpt><trkpt lat="39.828844" lon="9.6559947"><ele>22.0</ele><time>2026-05-02T08:32:06.999Z</time></trkpt><trkpt lat="39.8289255" lon="9.6558517"><ele>22.0</ele><time>2026-05-02T08:32:07.999Z</time></trkpt><trkpt lat="39.8290299" lon="9.6557111"><ele>22.0</ele><time>2026-05-02T08:32:09Z</time></trkpt><trkpt lat="39.829155" lon="9.6555685"><ele>22.0</ele><time>2026-05-02T08:32:09.999Z</time></trkpt><trkpt lat="39.8292771" lon="9.6554342"><ele>22.0</ele><time>2026-05-02T08:32:10.999Z</time></trkpt><trkpt lat="39.8293892" lon="9.6553111"><ele>22.400000000000002</ele><time>2026-05-02T08:32:12Z</time></trkpt><trkpt lat="39.8294918" lon="9.6551987"><ele>22.8</ele><time>2026-05-02T08:32:13Z</time></trkpt><trkpt lat="39.8295871" lon="9.6551032"><ele>23.2</ele><time>2026-05-02T08:32:13.999Z</time></trkpt><trkpt lat="39.8296677" lon="9.6550202"><ele>23.6</ele><time>2026-05-02T08:32:15Z</time></trkpt><trkpt lat="39.8297379" lon="9.6549472"><ele>24.0</ele><time>2026-05-02T08:32:15.999Z</time></trkpt><trkpt lat="39.829798" lon="9.6548994"><ele>24.0</ele><time>2026-05-02T08:32:16.999Z</time></trkpt><trkpt lat="39.8298718" lon="9.6548245"><ele>24.0</ele><time>2026-05-02T08:32:18.999Z</time></trkpt><trkpt lat="39.8299283" lon="9.6547519"><ele>24.0</ele><time>2026-05-02T08:32:26.999Z</time></trkpt><trkpt lat="39.8300106" lon="9.6547474"><ele>24.0</ele><time>2026-05-02T08:32:27.999Z</time></trkpt><trkpt lat="39.8301153" lon="9.6547416"><ele>24.0</ele><time>2026-05-02T08:32:28.999Z</time></trkpt><trkpt lat="39.8302452" lon="9.6547264"><ele>23.666666666666668</ele><time>2026-05-02T08:32:29.999Z</time></trkpt><trkpt lat="39.8303921" lon="9.6547149"><ele>23.333333333333336</ele><time>2026-05-02T08:32:30.999Z</time></trkpt><trkpt lat="39.8305592" lon="9.6547002"><ele>23.0</ele><time>2026-05-02T08:32:32Z</time></trkpt><trkpt lat="39.8307398" lon="9.6546876"><ele>23.0</ele><time>2026-05-02T08:32:32.999Z</time></trkpt><trkpt lat="39.8309266" lon="9.6546679"><ele>23.0</ele><time>2026-05-02T08:32:33.999Z</time></trkpt><trkpt lat="39.8311257" lon="9.6546496"><ele>23.0</ele><time>2026-05-02T08:32:34.999Z</time></trkpt><trkpt lat="39.831335" lon="9.6546292"><ele>23.0</ele><time>2026-05-02T08:32:36Z</time></trkpt><trkpt lat="39.8315436" lon="9.6546067"><ele>23.0</ele><time>2026-05-02T08:32:36.999Z</time></trkpt><trkpt lat="39.8317637" lon="9.6545857"><ele>23.0</ele><time>2026-05-02T08:32:37.999Z</time></trkpt><trkpt lat="39.8319858" lon="9.65457"><ele>24.0</ele><time>2026-05-02T08:32:38.999Z</time></trkpt><trkpt lat="39.8322187" lon="9.6545451"><ele>25.0</ele><time>2026-05-02T08:32:39.999Z</time></trkpt><trkpt lat="39.8324573" lon="9.6545227"><ele>26.0</ele><time>2026-05-02T08:32:40.999Z</time></trkpt><trkpt lat="39.8327011" lon="9.6545037"><ele>27.0</ele><time>2026-05-02T08:32:42Z</time></trkpt><trkpt lat="39.832949" lon="9.6544826"><ele>27.0</ele><time>2026-05-02T08:32:42.999Z</time></trkpt><trkpt lat="39.8331869" lon="9.6544626"><ele>27.0</ele><time>2026-05-02T08:32:43.999Z</time></trkpt><trkpt lat="39.8333999" lon="9.6544396"><ele>28.0</ele><time>2026-05-02T08:32:44.999Z</time></trkpt><trkpt lat="39.8335975" lon="9.65441"><ele>29.0</ele><time>2026-05-02T08:32:45.999Z</time></trkpt><trkpt lat="39.8337761" lon="9.6543653"><ele>30.0</ele><time>2026-05-02T08:32:47Z</time></trkpt><trkpt lat="39.8339351" lon="9.6543087"><ele>30.0</ele><time>2026-05-02T08:32:48Z</time></trkpt><trkpt lat="39.8340925" lon="9.6542241"><ele>30.0</ele><time>2026-05-02T08:32:48.999Z</time></trkpt><trkpt lat="39.8342505" lon="9.6541165"><ele>30.0</ele><time>2026-05-02T08:32:50Z</time></trkpt><trkpt lat="39.8344057" lon="9.6539829"><ele>30.0</ele><time>2026-05-02T08:32:50.999Z</time></trkpt><trkpt lat="39.8345603" lon="9.6538358"><ele>30.0</ele><time>2026-05-02T08:32:52Z</time></trkpt><trkpt lat="39.8346967" lon="9.653686"><ele>30.0</ele><time>2026-05-02T08:32:52.999Z</time></trkpt><trkpt lat="39.8348184" lon="9.6535319"><ele>30.333333333333336</ele><time>2026-05-02T08:32:54Z</time></trkpt><trkpt lat="39.8349348" lon="9.6533558"><ele>30.666666666666668</ele><time>2026-05-02T08:32:54.999Z</time></trkpt><trkpt lat="39.8350473" lon="9.6531596"><ele>31.0</ele><time>2026-05-02T08:32:55.999Z</time></trkpt><trkpt lat="39.8351509" lon="9.6529633"><ele>33.66666666666667</ele><time>2026-05-02T08:32:56.999Z</time></trkpt><trkpt lat="39.8352399" lon="9.6527842"><ele>36.333333333333336</ele><time>2026-05-02T08:32:57.999Z</time></trkpt><trkpt lat="39.8353245" lon="9.6526201"><ele>39.0</ele><time>2026-05-02T08:32:59Z</time></trkpt><trkpt lat="39.8353967" lon="9.6524645"><ele>39.0</ele><time>2026-05-02T08:32:59.999Z</time></trkpt><trkpt lat="39.835465" lon="9.6523181"><ele>39.0</ele><time>2026-05-02T08:33:00.999Z</time></trkpt><trkpt lat="39.8355353" lon="9.652177"><ele>39.0</ele><time>2026-05-02T08:33:02Z</time></trkpt><trkpt lat="39.8356045" lon="9.6520363"><ele>39.0</ele><time>2026-05-02T08:33:02.999Z</time></trkpt><trkpt lat="39.8356733" lon="9.6518997"><ele>41.25</ele><time>2026-05-02T08:33:03.999Z</time></trkpt><trkpt lat="39.8357378" lon="9.6517627"><ele>43.5</ele><time>2026-05-02T08:33:04.999Z</time></trkpt><trkpt lat="39.8357991" lon="9.6516194"><ele>45.75</ele><time>2026-05-02T08:33:06Z</time></trkpt><trkpt lat="39.8358592" lon="9.6514718"><ele>48.0</ele><time>2026-05-02T08:33:06.999Z</time></trkpt><trkpt lat="39.8359245" lon="9.6513239"><ele>48.75</ele><time>2026-05-02T08:33:07.999Z</time></trkpt><trkpt lat="39.8359874" lon="9.6511774"><ele>49.5</ele><time>2026-05-02T08:33:09Z</time></trkpt><trkpt lat="39.8360412" lon="9.6510299"><ele>50.25</ele><time>2026-05-02T08:33:09.999Z</time></trkpt><trkpt lat="39.8360955" lon="9.6508965"><ele>51.0</ele><time>2026-05-02T08:33:11Z</time></trkpt><trkpt lat="39.8361459" lon="9.6507678"><ele>51.599999999999994</ele><time>2026-05-02T08:33:11.999Z</time></trkpt><trkpt lat="39.8361968" lon="9.6506379"><ele>52.2</ele><time>2026-05-02T08:33:13Z</time></trkpt><trkpt lat="39.8362407" lon="9.6505023"><ele>52.800000000000004</ele><time>2026-05-02T08:33:13.999Z</time></trkpt><trkpt lat="39.8362856" lon="9.6503864"><ele>53.400000000000006</ele><time>2026-05-02T08:33:14.999Z</time></trkpt><trkpt lat="39.8363306" lon="9.6502826"><ele>54.0</ele><time>2026-05-02T08:33:15.999Z</time></trkpt><trkpt lat="39.8363756" lon="9.6501742"><ele>54.0</ele><time>2026-05-02T08:33:16.999Z</time></trkpt><trkpt lat="39.8364105" lon="9.6500731"><ele>54.0</ele><time>2026-05-02T08:33:17.999Z</time></trkpt><trkpt lat="39.8364351" lon="9.6499642"><ele>54.0</ele><time>2026-05-02T08:33:18.999Z</time></trkpt><trkpt lat="39.8364613" lon="9.6498512"><ele>54.0</ele><time>2026-05-02T08:33:19.999Z</time></trkpt><trkpt lat="39.83648" lon="9.649753"><ele>54.0</ele><time>2026-05-02T08:33:21Z</time></trkpt><trkpt lat="39.8364923" lon="9.6496605"><ele>54.0</ele><time>2026-05-02T08:33:22Z</time></trkpt><trkpt lat="39.8364973" lon="9.6494927"><ele>54.5</ele><time>2026-05-02T08:33:23.999Z</time></trkpt><trkpt lat="39.8364854" lon="9.6493943"><ele>55.0</ele><time>2026-05-02T08:33:25Z</time></trkpt><trkpt lat="39.8364694" lon="9.6492907"><ele>55.5</ele><time>2026-05-02T08:33:25.999Z</time></trkpt><trkpt lat="39.8364507" lon="9.6491798"><ele>56.0</ele><time>2026-05-02T08:33:26.999Z</time></trkpt><trkpt lat="39.8364363" lon="9.6490775"><ele>56.5</ele><time>2026-05-02T08:33:28Z</time></trkpt><trkpt lat="39.8364244" lon="9.6489846"><ele>57.0</ele><time>2026-05-02T08:33:28.999Z</time></trkpt><trkpt lat="39.8364147" lon="9.6488986"><ele>57.0</ele><time>2026-05-02T08:33:29.999Z</time></trkpt><trkpt lat="39.8363927" lon="9.6487476"><ele>57.0</ele><time>2026-05-02T08:33:31.999Z</time></trkpt><trkpt lat="39.8363873" lon="9.6486603"><ele>57.0</ele><time>2026-05-02T08:33:33Z</time></trkpt><trkpt lat="39.8363812" lon="9.6484954"><ele>57.0</ele><time>2026-05-02T08:33:34.999Z</time></trkpt><trkpt lat="39.8363664" lon="9.6483984"><ele>57.0</ele><time>2026-05-02T08:33:36Z</time></trkpt><trkpt lat="39.8363545" lon="9.6482968"><ele>57.0</ele><time>2026-05-02T08:33:37Z</time></trkpt><trkpt lat="39.8363649" lon="9.6482031"><ele>57.0</ele><time>2026-05-02T08:33:37.999Z</time></trkpt><trkpt lat="39.8363865" lon="9.6481166"><ele>57.0</ele><time>2026-05-02T08:33:38.999Z</time></trkpt><trkpt lat="39.8364238" lon="9.6479675"><ele>57.0</ele><time>2026-05-02T08:33:40.999Z</time></trkpt><trkpt lat="39.8364183" lon="9.6478364"><ele>57.0</ele><time>2026-05-02T08:33:43Z</time></trkpt><trkpt lat="39.8363716" lon="9.6477773"><ele>57.0</ele><time>2026-05-02T08:33:43.999Z</time></trkpt><trkpt lat="39.8362844" lon="9.6477206"><ele>57.75</ele><time>2026-05-02T08:33:44.999Z</time></trkpt><trkpt lat="39.836172" lon="9.6476501"><ele>58.5</ele><time>2026-05-02T08:33:45.999Z</time></trkpt><trkpt lat="39.8360508" lon="9.6475751"><ele>59.25</ele><time>2026-05-02T08:33:47Z</time></trkpt><trkpt lat="39.835927" lon="9.647503"><ele>60.0</ele><time>2026-05-02T08:33:47.999Z</time></trkpt><trkpt lat="39.8358127" lon="9.6474331"><ele>60.25</ele><time>2026-05-02T08:33:49Z</time></trkpt><trkpt lat="39.8356253" lon="9.6472966"><ele>60.5</ele><time>2026-05-02T08:33:51Z</time></trkpt><trkpt lat="39.8355473" lon="9.6472423"><ele>60.75</ele><time>2026-05-02T08:33:52Z</time></trkpt><trkpt lat="39.8354745" lon="9.6471987"><ele>61.0</ele><time>2026-05-02T08:33:52.999Z</time></trkpt><trkpt lat="39.8354094" lon="9.6471582"><ele>60.99999999999999</ele><time>2026-05-02T08:33:53.999Z</time></trkpt><trkpt lat="39.8353267" lon="9.6471029"><ele>61.0</ele><time>2026-05-02T08:33:55.999Z</time></trkpt><trkpt lat="39.8352629" lon="9.6471722"><ele>61.0</ele><time>2026-05-02T08:33:57.999Z</time></trkpt><trkpt lat="39.8352492" lon="9.6472559"><ele>61.0</ele><time>2026-05-02T08:33:58.999Z</time></trkpt><trkpt lat="39.8352602" lon="9.647364"><ele>60.99999999999999</ele><time>2026-05-02T08:33:59.999Z</time></trkpt><trkpt lat="39.835282" lon="9.6474733"><ele>61.0</ele><time>2026-05-02T08:34:01Z</time></trkpt><trkpt lat="39.835301" lon="9.647563"><ele>60.99999999999999</ele><time>2026-05-02T08:34:01.999Z</time></trkpt><trkpt lat="39.8353235" lon="9.6476599"><ele>61.0</ele><time>2026-05-02T08:34:04Z</time></trkpt><trkpt lat="39.8353262" lon="9.6477443"><ele>61.0</ele><time>2026-05-02T08:34:33Z</time></trkpt><trkpt lat="39.83533" lon="9.6478263"><ele>61.0</ele><time>2026-05-02T08:36:39.364Z</time></trkpt><trkpt lat="39.8353159" lon="9.6477325"><ele>60.99999999999999</ele><time>2026-05-02T08:38:50.275Z</time></trkpt><trkpt lat="39.8353039" lon="9.6476376"><ele>61.0</ele><time>2026-05-02T08:39:49.449Z</time></trkpt><trkpt lat="39.8352569" lon="9.6475061"><ele>60.99999999999999</ele><time>2026-05-02T08:40:07.999Z</time></trkpt><trkpt lat="39.8352384" lon="9.6473943"><ele>61.0</ele><time>2026-05-02T08:40:08.999Z</time></trkpt><trkpt lat="39.8352351" lon="9.6473038"><ele>61.0</ele><time>2026-05-02T08:40:09.999Z</time></trkpt><trkpt lat="39.8352359" lon="9.6471848"><ele>61.0</ele><time>2026-05-02T08:40:11.999Z</time></trkpt><trkpt lat="39.8353009" lon="9.647149"><ele>60.99999999999999</ele><time>2026-05-02T08:40:13.999Z</time></trkpt><trkpt lat="39.8353676" lon="9.6471797"><ele>61.0</ele><time>2026-05-02T08:40:14.999Z</time></trkpt><trkpt lat="39.835461" lon="9.6472338"><ele>61.0</ele><time>2026-05-02T08:40:15.999Z</time></trkpt><trkpt lat="39.8355804" lon="9.6473063"><ele>61.0</ele><time>2026-05-02T08:40:16.999Z</time></trkpt><trkpt lat="39.8357109" lon="9.6473905"><ele>61.0</ele><time>2026-05-02T08:40:18Z</time></trkpt><trkpt lat="39.8358469" lon="9.6474777"><ele>61.0</ele><time>2026-05-02T08:40:18.999Z</time></trkpt><trkpt lat="39.8359702" lon="9.6475548"><ele>60.8</ele><time>2026-05-02T08:40:19.999Z</time></trkpt><trkpt lat="39.8360759" lon="9.6476267"><ele>60.599999999999994</ele><time>2026-05-02T08:40:20.999Z</time></trkpt><trkpt lat="39.836167" lon="9.6476915"><ele>60.4</ele><time>2026-05-02T08:40:21.999Z</time></trkpt><trkpt lat="39.8362634" lon="9.6477579"><ele>60.2</ele><time>2026-05-02T08:40:22.999Z</time></trkpt><trkpt lat="39.8363685" lon="9.64781"><ele>60.0</ele><time>2026-05-02T08:40:23.999Z</time></trkpt><trkpt lat="39.8364796" lon="9.6478528"><ele>59.25</ele><time>2026-05-02T08:40:25Z</time></trkpt><trkpt lat="39.836602" lon="9.6478772"><ele>58.5</ele><time>2026-05-02T08:40:25.999Z</time></trkpt><trkpt lat="39.8367346" lon="9.6478876"><ele>57.75</ele><time>2026-05-02T08:40:26.999Z</time></trkpt><trkpt lat="39.8368754" lon="9.6478788"><ele>57.0</ele><time>2026-05-02T08:40:27.999Z</time></trkpt><trkpt lat="39.8370028" lon="9.6478406"><ele>57.25</ele><time>2026-05-02T08:40:28.999Z</time></trkpt><trkpt lat="39.8371345" lon="9.6477791"><ele>57.5</ele><time>2026-05-02T08:40:30Z</time></trkpt><trkpt lat="39.8372675" lon="9.6476985"><ele>57.75</ele><time>2026-05-02T08:40:30.999Z</time></trkpt><trkpt lat="39.8374019" lon="9.6476157"><ele>58.0</ele><time>2026-05-02T08:40:32Z</time></trkpt><trkpt lat="39.8375405" lon="9.6475276"><ele>56.75</ele><time>2026-05-02T08:40:32.999Z</time></trkpt><trkpt lat="39.8376686" lon="9.6474522"><ele>55.5</ele><time>2026-05-02T08:40:33.999Z</time></trkpt><trkpt lat="39.8377928" lon="9.6473815"><ele>54.25</ele><time>2026-05-02T08:40:35Z</time></trkpt><trkpt lat="39.837913" lon="9.6473143"><ele>53.0</ele><time>2026-05-02T08:40:36Z</time></trkpt><trkpt lat="39.8380242" lon="9.6472464"><ele>53.0</ele><time>2026-05-02T08:40:36.999Z</time></trkpt><trkpt lat="39.8381302" lon="9.6471825"><ele>53.0</ele><time>2026-05-02T08:40:37.999Z</time></trkpt><trkpt lat="39.8382282" lon="9.6471248"><ele>53.0</ele><time>2026-05-02T08:40:38.999Z</time></trkpt><trkpt lat="39.838323" lon="9.6470711"><ele>53.0</ele><time>2026-05-02T08:40:39.999Z</time></trkpt><trkpt lat="39.8384097" lon="9.6470172"><ele>53.0</ele><time>2026-05-02T08:40:41Z</time></trkpt><trkpt lat="39.8385789" lon="9.6469146"><ele>52.8</ele><time>2026-05-02T08:40:43Z</time></trkpt><trkpt lat="39.838675" lon="9.6468572"><ele>52.599999999999994</ele><time>2026-05-02T08:40:43.999Z</time></trkpt><trkpt lat="39.8387714" lon="9.6468033"><ele>52.400000000000006</ele><time>2026-05-02T08:40:45Z</time></trkpt><trkpt lat="39.8388621" lon="9.6467463"><ele>52.2</ele><time>2026-05-02T08:40:45.999Z</time></trkpt><trkpt lat="39.8389493" lon="9.6466917"><ele>52.0</ele><time>2026-05-02T08:40:46.999Z</time></trkpt><trkpt lat="39.8390335" lon="9.6466354"><ele>51.99999999999999</ele><time>2026-05-02T08:40:47.999Z</time></trkpt><trkpt lat="39.8391183" lon="9.6465835"><ele>52.0</ele><time>2026-05-02T08:40:48.999Z</time></trkpt><trkpt lat="39.8391983" lon="9.6465363"><ele>52.0</ele><time>2026-05-02T08:40:49.999Z</time></trkpt><trkpt lat="39.8392789" lon="9.6464845"><ele>52.0</ele><time>2026-05-02T08:40:50.999Z</time></trkpt><trkpt lat="39.839358" lon="9.6464312"><ele>51.99999999999999</ele><time>2026-05-02T08:40:51.999Z</time></trkpt><trkpt lat="39.8394346" lon="9.6463747"><ele>52.0</ele><time>2026-05-02T08:40:52.999Z</time></trkpt><trkpt lat="39.8395052" lon="9.6463252"><ele>51.6</ele><time>2026-05-02T08:40:53.999Z</time></trkpt><trkpt lat="39.8395739" lon="9.6462732"><ele>51.2</ele><time>2026-05-02T08:40:54.999Z</time></trkpt><trkpt lat="39.8396445" lon="9.64622"><ele>50.8</ele><time>2026-05-02T08:40:55.999Z</time></trkpt><trkpt lat="39.8397098" lon="9.6461652"><ele>50.4</ele><time>2026-05-02T08:40:56.999Z</time></trkpt><trkpt lat="39.8398312" lon="9.6460511"><ele>50.0</ele><time>2026-05-02T08:40:58.999Z</time></trkpt><trkpt lat="39.8398982" lon="9.6459922"><ele>49.8</ele><time>2026-05-02T08:41:00.999Z</time></trkpt><trkpt lat="39.8399804" lon="9.6459043"><ele>49.6</ele><time>2026-05-02T08:41:04.999Z</time></trkpt><trkpt lat="39.8400389" lon="9.6458505"><ele>49.400000000000006</ele><time>2026-05-02T08:41:05.999Z</time></trkpt><trkpt lat="39.8401147" lon="9.6457662"><ele>49.2</ele><time>2026-05-02T08:41:07Z</time></trkpt><trkpt lat="39.8402061" lon="9.6456663"><ele>49.0</ele><time>2026-05-02T08:41:08Z</time></trkpt><trkpt lat="39.8402925" lon="9.6455759"><ele>48.666666666666664</ele><time>2026-05-02T08:41:08.999Z</time></trkpt><trkpt lat="39.8403758" lon="9.6454957"><ele>48.33333333333333</ele><time>2026-05-02T08:41:09.999Z</time></trkpt><trkpt lat="39.8404518" lon="9.6454207"><ele>48.0</ele><time>2026-05-02T08:41:10.999Z</time></trkpt><trkpt lat="39.8405204" lon="9.6453515"><ele>47.666666666666664</ele><time>2026-05-02T08:41:12Z</time></trkpt><trkpt lat="39.8405843" lon="9.6452841"><ele>47.33333333333333</ele><time>2026-05-02T08:41:12.999Z</time></trkpt><trkpt lat="39.8406439" lon="9.645224"><ele>47.0</ele><time>2026-05-02T08:41:14Z</time></trkpt><trkpt lat="39.8407029" lon="9.6451632"><ele>47.0</ele><time>2026-05-02T08:41:14.999Z</time></trkpt><trkpt lat="39.8407553" lon="9.6451007"><ele>47.0</ele><time>2026-05-02T08:41:15.999Z</time></trkpt><trkpt lat="39.8407998" lon="9.6450424"><ele>47.0</ele><time>2026-05-02T08:41:16.999Z</time></trkpt><trkpt lat="39.8408813" lon="9.6449811"><ele>47.0</ele><time>2026-05-02T08:41:18.999Z</time></trkpt><trkpt lat="39.8409366" lon="9.6450412"><ele>47.0</ele><time>2026-05-02T08:41:22.999Z</time></trkpt><trkpt lat="39.8409832" lon="9.6451208"><ele>47.0</ele><time>2026-05-02T08:41:24.999Z</time></trkpt><trkpt lat="39.8410329" lon="9.6451978"><ele>46.83333333333333</ele><time>2026-05-02T08:41:26.999Z</time></trkpt><trkpt lat="39.8410766" lon="9.6452742"><ele>46.666666666666664</ele><time>2026-05-02T08:41:28.999Z</time></trkpt><trkpt lat="39.8411173" lon="9.6453644"><ele>46.5</ele><time>2026-05-02T08:41:32Z</time></trkpt><trkpt lat="39.8411917" lon="9.645419"><ele>46.333333333333336</ele><time>2026-05-02T08:41:36Z</time></trkpt><trkpt lat="39.8412607" lon="9.645398"><ele>46.16666666666667</ele><time>2026-05-02T08:41:37.999Z</time></trkpt><trkpt lat="39.8413589" lon="9.6453601"><ele>46.0</ele><time>2026-05-02T08:41:40Z</time></trkpt><trkpt lat="39.8414331" lon="9.6453218"><ele>46.0</ele><time>2026-05-02T08:41:41.999Z</time></trkpt><trkpt lat="39.8414947" lon="9.6453015"><ele>46.0</ele><time>2026-05-02T08:41:44.999Z</time></trkpt><trkpt lat="39.8415585" lon="9.6452955"><ele>46.0</ele><time>2026-05-02T08:41:47.999Z</time></trkpt><trkpt lat="39.841646" lon="9.6452737"><ele>46.0</ele><time>2026-05-02T08:41:50.999Z</time></trkpt><trkpt lat="39.8417241" lon="9.645229"><ele>46.0</ele><time>2026-05-02T08:41:51.999Z</time></trkpt><trkpt lat="39.8418114" lon="9.645183"><ele>46.0</ele><time>2026-05-02T08:41:52.999Z</time></trkpt><trkpt lat="39.8419216" lon="9.6451261"><ele>45.4</ele><time>2026-05-02T08:41:53.999Z</time></trkpt><trkpt lat="39.8420168" lon="9.6450582"><ele>44.8</ele><time>2026-05-02T08:41:54.999Z</time></trkpt><trkpt lat="39.8421099" lon="9.6450013"><ele>44.199999999999996</ele><time>2026-05-02T08:41:55.999Z</time></trkpt><trkpt lat="39.842197" lon="9.6449468"><ele>43.599999999999994</ele><time>2026-05-02T08:41:57Z</time></trkpt><trkpt lat="39.8422688" lon="9.6449074"><ele>43.0</ele><time>2026-05-02T08:41:57.999Z</time></trkpt><trkpt lat="39.8423667" lon="9.6448539"><ele>43.0</ele><time>2026-05-02T08:41:59.999Z</time></trkpt><trkpt lat="39.8424287" lon="9.6448136"><ele>43.0</ele><time>2026-05-02T08:42:03.999Z</time></trkpt><trkpt lat="39.8424988" lon="9.6447906"><ele>43.0</ele><time>2026-05-02T08:42:07.999Z</time></trkpt><trkpt lat="39.8425802" lon="9.6447994"><ele>43.0</ele><time>2026-05-02T08:42:15.999Z</time></trkpt><trkpt lat="39.8426289" lon="9.644878"><ele>43.0</ele><time>2026-05-02T08:42:16.999Z</time></trkpt><trkpt lat="39.8426828" lon="9.6449827"><ele>43.0</ele><time>2026-05-02T08:42:17.999Z</time></trkpt><trkpt lat="39.8427467" lon="9.6451071"><ele>42.16666666666667</ele><time>2026-05-02T08:42:18.999Z</time></trkpt><trkpt lat="39.8428123" lon="9.6452251"><ele>41.333333333333336</ele><time>2026-05-02T08:42:19.999Z</time></trkpt><trkpt lat="39.8428734" lon="9.6453308"><ele>40.5</ele><time>2026-05-02T08:42:21Z</time></trkpt><trkpt lat="39.8429244" lon="9.645421"><ele>39.666666666666664</ele><time>2026-05-02T08:42:22Z</time></trkpt><trkpt lat="39.8429697" lon="9.6455013"><ele>38.83333333333333</ele><time>2026-05-02T08:42:23Z</time></trkpt><trkpt lat="39.8430113" lon="9.6455745"><ele>38.0</ele><time>2026-05-02T08:42:23.999Z</time></trkpt><trkpt lat="39.8430798" lon="9.6457093"><ele>37.6</ele><time>2026-05-02T08:42:25.999Z</time></trkpt><trkpt lat="39.8431373" lon="9.6458457"><ele>37.199999999999996</ele><time>2026-05-02T08:42:27.999Z</time></trkpt><trkpt lat="39.8432041" lon="9.6459802"><ele>36.8</ele><time>2026-05-02T08:42:29.999Z</time></trkpt><trkpt lat="39.8432551" lon="9.6461311"><ele>36.4</ele><time>2026-05-02T08:42:32Z</time></trkpt><trkpt lat="39.8432805" lon="9.6462082"><ele>36.0</ele><time>2026-05-02T08:42:32.999Z</time></trkpt><trkpt lat="39.8433159" lon="9.646284"><ele>36.0</ele><time>2026-05-02T08:42:33.999Z</time></trkpt><trkpt lat="39.8433381" lon="9.6463754"><ele>36.0</ele><time>2026-05-02T08:42:34.999Z</time></trkpt><trkpt lat="39.8433608" lon="9.6464594"><ele>36.0</ele><time>2026-05-02T08:42:35.999Z</time></trkpt><trkpt lat="39.8433811" lon="9.6465389"><ele>36.0</ele><time>2026-05-02T08:42:36.999Z</time></trkpt><trkpt lat="39.8434239" lon="9.646682"><ele>36.0</ele><time>2026-05-02T08:42:38.999Z</time></trkpt><trkpt lat="39.8434768" lon="9.6468197"><ele>36.0</ele><time>2026-05-02T08:42:40.999Z</time></trkpt><trkpt lat="39.8435196" lon="9.6469509"><ele>34.8</ele><time>2026-05-02T08:42:42.999Z</time></trkpt><trkpt lat="39.8435639" lon="9.6470833"><ele>33.6</ele><time>2026-05-02T08:42:44.999Z</time></trkpt><trkpt lat="39.8436036" lon="9.6472133"><ele>32.4</ele><time>2026-05-02T08:42:46.999Z</time></trkpt><trkpt lat="39.8436389" lon="9.6473357"><ele>31.2</ele><time>2026-05-02T08:42:48.999Z</time></trkpt><trkpt lat="39.8436677" lon="9.6474334"><ele>30.0</ele><time>2026-05-02T08:42:51Z</time></trkpt><trkpt lat="39.8437163" lon="9.6474907"><ele>30.0</ele><time>2026-05-02T08:42:53Z</time></trkpt><trkpt lat="39.8438072" lon="9.6474483"><ele>30.0</ele><time>2026-05-02T08:42:55.999Z</time></trkpt><trkpt lat="39.8438758" lon="9.6473955"><ele>30.0</ele><time>2026-05-02T08:42:57.999Z</time></trkpt><trkpt lat="39.8439555" lon="9.6473618"><ele>30.0</ele><time>2026-05-02T08:42:59.999Z</time></trkpt><trkpt lat="39.8440225" lon="9.6473232"><ele>30.0</ele><time>2026-05-02T08:43:01.999Z</time></trkpt><trkpt lat="39.8440461" lon="9.6472022"><ele>30.0</ele><time>2026-05-02T08:43:04.999Z</time></trkpt><trkpt lat="39.84402" lon="9.6470888"><ele>30.0</ele><time>2026-05-02T08:43:06.999Z</time></trkpt><trkpt lat="39.8439907" lon="9.6469872"><ele>30.0</ele><time>2026-05-02T08:43:08.999Z</time></trkpt><trkpt lat="39.8439673" lon="9.6469069"><ele>30.0</ele><time>2026-05-02T08:43:10.999Z</time></trkpt><trkpt lat="39.8439935" lon="9.6468209"><ele>30.0</ele><time>2026-05-02T08:43:14Z</time></trkpt><trkpt lat="39.8440496" lon="9.6467762"><ele>30.0</ele><time>2026-05-02T08:43:15.999Z</time></trkpt><trkpt lat="39.8441162" lon="9.6467362"><ele>30.0</ele><time>2026-05-02T08:43:17.999Z</time></trkpt><trkpt lat="39.8441738" lon="9.6466969"><ele>30.0</ele><time>2026-05-02T08:43:19.999Z</time></trkpt><trkpt lat="39.8442174" lon="9.6466292"><ele>30.0</ele><time>2026-05-02T08:43:22.999Z</time></trkpt><trkpt lat="39.8441707" lon="9.6464738"><ele>30.0</ele><time>2026-05-02T08:43:24.999Z</time></trkpt><trkpt lat="39.844107" lon="9.6463626"><ele>30.0</ele><time>2026-05-02T08:43:25.999Z</time></trkpt><trkpt lat="39.8440481" lon="9.6462448"><ele>30.0</ele><time>2026-05-02T08:43:26.999Z</time></trkpt><trkpt lat="39.8440013" lon="9.6461298"><ele>30.0</ele><time>2026-05-02T08:43:27.999Z</time></trkpt><trkpt lat="39.8439597" lon="9.6460212"><ele>30.4</ele><time>2026-05-02T08:43:28.999Z</time></trkpt><trkpt lat="39.8439164" lon="9.6459141"><ele>30.8</ele><time>2026-05-02T08:43:30Z</time></trkpt><trkpt lat="39.8438715" lon="9.6458002"><ele>31.200000000000003</ele><time>2026-05-02T08:43:30.999Z</time></trkpt><trkpt lat="39.8438305" lon="9.6456639"><ele>31.6</ele><time>2026-05-02T08:43:31.999Z</time></trkpt><trkpt lat="39.8437876" lon="9.6455349"><ele>32.0</ele><time>2026-05-02T08:43:32.999Z</time></trkpt><trkpt lat="39.8437397" lon="9.6454192"><ele>32.0</ele><time>2026-05-02T08:43:34Z</time></trkpt><trkpt lat="39.8436941" lon="9.6453102"><ele>32.0</ele><time>2026-05-02T08:43:35Z</time></trkpt><trkpt lat="39.8436587" lon="9.645207"><ele>32.0</ele><time>2026-05-02T08:43:35.999Z</time></trkpt><trkpt lat="39.8436252" lon="9.645104"><ele>32.0</ele><time>2026-05-02T08:43:37Z</time></trkpt><trkpt lat="39.8435829" lon="9.6449966"><ele>32.0</ele><time>2026-05-02T08:43:38Z</time></trkpt><trkpt lat="39.8435432" lon="9.6448904"><ele>32.666666666666664</ele><time>2026-05-02T08:43:38.999Z</time></trkpt><trkpt lat="39.8435127" lon="9.6447874"><ele>33.33333333333333</ele><time>2026-05-02T08:43:39.999Z</time></trkpt><trkpt lat="39.8434764" lon="9.6446959"><ele>34.0</ele><time>2026-05-02T08:43:40.999Z</time></trkpt><trkpt lat="39.8434404" lon="9.6446215"><ele>34.666666666666664</ele><time>2026-05-02T08:43:41.999Z</time></trkpt><trkpt lat="39.8433919" lon="9.6444911"><ele>35.333333333333336</ele><time>2026-05-02T08:43:43.999Z</time></trkpt><trkpt lat="39.8434172" lon="9.6443984"><ele>36.0</ele><time>2026-05-02T08:43:45.999Z</time></trkpt><trkpt lat="39.8434782" lon="9.644361"><ele>36.833333333333336</ele><time>2026-05-02T08:43:49.999Z</time></trkpt><trkpt lat="39.8435338" lon="9.6443189"><ele>37.666666666666664</ele><time>2026-05-02T08:43:54Z</time></trkpt><trkpt lat="39.8436094" lon="9.6442622"><ele>38.5</ele><time>2026-05-02T08:43:57Z</time></trkpt><trkpt lat="39.8436901" lon="9.6441758"><ele>39.33333333333333</ele><time>2026-05-02T08:43:59Z</time></trkpt><trkpt lat="39.8437513" lon="9.6440951"><ele>40.166666666666664</ele><time>2026-05-02T08:44:01Z</time></trkpt><trkpt lat="39.8437831" lon="9.6440162"><ele>41.0</ele><time>2026-05-02T08:44:02.999Z</time></trkpt><trkpt lat="39.8437276" lon="9.6438708"><ele>41.0</ele><time>2026-05-02T08:44:04.999Z</time></trkpt><trkpt lat="39.8436674" lon="9.6437942"><ele>41.0</ele><time>2026-05-02T08:44:05.999Z</time></trkpt><trkpt lat="39.8436116" lon="9.6437282"><ele>41.0</ele><time>2026-05-02T08:44:06.999Z</time></trkpt><trkpt lat="39.8435618" lon="9.6436692"><ele>41.0</ele><time>2026-05-02T08:44:07.999Z</time></trkpt><trkpt lat="39.843518" lon="9.6436101"><ele>41.0</ele><time>2026-05-02T08:44:08.999Z</time></trkpt><trkpt lat="39.8434389" lon="9.6435056"><ele>41.0</ele><time>2026-05-02T08:44:10.999Z</time></trkpt><trkpt lat="39.8433586" lon="9.6434015"><ele>46.0</ele><time>2026-05-02T08:44:13Z</time></trkpt><trkpt lat="39.843282" lon="9.6433004"><ele>46.0</ele><time>2026-05-02T08:44:14.999Z</time></trkpt><trkpt lat="39.8432046" lon="9.6432075"><ele>46.0</ele><time>2026-05-02T08:44:16.999Z</time></trkpt><trkpt lat="39.8431407" lon="9.6431211"><ele>46.0</ele><time>2026-05-02T08:44:18.999Z</time></trkpt><trkpt lat="39.8430747" lon="9.6431189"><ele>46.0</ele><time>2026-05-02T08:44:59.999Z</time></trkpt></trkseg></trk></gpx>